Provisional Data: Little Mehoopany Creek near North Mehoopany, PA


Please select a monitoring station.
Please select start date.
Please select start date.

Toggle Unit: C/F Toggle Unit: C/F
Sample Time Temperature (C) Temperature (F) Specific Conductivity (mS/cm) pH   Turbidity (NTU+) DO (mg/L)
6/22/2021 12:00:00 AM 19.07 66.326 0.151 7.14 4 8.49
6/22/2021 12:15:00 AM 19.04 66.272 0.153 7.18 2.48 8.58
6/22/2021 12:30:00 AM 18.97 66.146 0.152 7.16 3.81 8.42
6/22/2021 12:45:00 AM 18.94 66.092 0.153 7.17 2.28 8.64
6/22/2021 1:00:00 AM 18.87 65.966 0.153 7.18 2.79 8.56
6/22/2021 1:15:00 AM 18.85 65.93 0.153 7.21 2.68 8.64
6/22/2021 1:30:00 AM 18.76 65.768 0.153 7.14 4.28 8.53
6/22/2021 1:45:00 AM 18.74 65.732 0.153 7.18 2.71 8.55
6/22/2021 2:00:00 AM 18.71 65.67799 0.154 7.2 2.41 8.63
6/22/2021 2:15:00 AM 18.66 65.588 0.154 7.21 2.81 8.7
6/22/2021 2:30:00 AM 18.64 65.552 0.154 7.17 2.29 8.65
6/22/2021 2:45:00 AM 18.61 65.498 0.153 7.16 2.6 8.7
6/22/2021 3:00:00 AM 18.53 65.354 0.152 7.11 3.21 8.62
6/22/2021 3:15:00 AM 18.52 65.336 0.152 7.18 2.83 8.66
6/22/2021 3:30:00 AM 18.51 65.318 0.152 7.21 2.92 8.7
6/22/2021 3:45:00 AM 18.45 65.21 0.151 7.16 2.86 8.64
6/22/2021 4:00:00 AM 18.39 65.102 0.15 7.18 2.73 8.74
6/22/2021 4:15:00 AM 18.33 64.994 0.15 7.2 3.09 8.71
6/22/2021 4:30:00 AM 18.28 64.904 0.151 7.15 2.54 8.72
6/22/2021 4:45:00 AM 18.21 64.778 0.15 7.18 4.62 8.71
6/22/2021 5:00:00 AM 18.15 64.67 0.151 7.19 4.12 8.55
6/22/2021 5:15:00 AM 18.07 64.526 0.15 7.17 4.15 8.61
6/22/2021 5:30:00 AM 18 64.4 0.15 7.18 5.26 8.63
6/22/2021 5:45:00 AM 17.94 64.292 0.151 7.14 3.88 8.67
6/22/2021 6:00:00 AM 17.84 64.112 0.15 7.12 2.7 8.64
6/22/2021 6:15:00 AM 17.81 64.058 0.152 7.14 2.94 8.83
6/22/2021 6:30:00 AM 17.72 63.896 0.151 7.14 2.49 8.64
6/22/2021 6:45:00 AM 17.69 63.842 0.151 7.16 5.37 8.83
6/22/2021 7:00:00 AM 17.63 63.734 0.151 7.08 12.67 8.77
6/22/2021 7:15:00 AM 17.58 63.644 0.148 7.17 74.42 8.8
6/22/2021 7:30:00 AM 17.51 63.518 0.15 7.03 3.12 8.88
6/22/2021 7:45:00 AM 17.47 63.446 0.151 7.06 4.85 8.93
6/22/2021 8:00:00 AM 17.44 63.392 0.151 7.21 2.56 9.06
6/22/2021 8:15:00 AM 17.39 63.302 0.151 7.3 2.71 8.94
6/22/2021 8:30:00 AM 17.37 63.266 0.151 7.33 6.04 9.14
6/22/2021 8:45:00 AM 17.34 63.212 0.15 7.31 5.9 9.07
6/22/2021 9:00:00 AM 17.32 63.176 0.149 7.3 2.71 9.2
6/22/2021 9:15:00 AM 17.29 63.122 0.148 7.27 2.87 9.23
6/22/2021 9:30:00 AM 17.27 63.086 0.148 7.41 2.92 9.29
6/22/2021 9:45:00 AM 17.23 63.014 0.148 7.43 4.29 9.28
6/22/2021 10:00:00 AM 17.21 62.978 0.148 7.42 3.86 9.29
6/22/2021 10:15:00 AM 17.19 62.942 0.148 7.39 11.98 9.38
6/22/2021 10:30:00 AM 17.15 62.87 0.147 7.4 3.31 9.34
6/22/2021 10:45:00 AM 17.12 62.816 0.147 7.48 2.72 9.45
6/22/2021 11:00:00 AM 17.09 62.762 0.147 7.46 10.12 9.4
6/22/2021 11:15:00 AM 17.05 62.69 0.147 7.44 4.31 9.37
6/22/2021 11:30:00 AM 17.05 62.69 0.147 7.49 4.75 9.47
6/22/2021 11:45:00 AM 17.06 62.708 0.147 7.52 4.38 9.52
6/22/2021 12:00:00 PM 17.09 62.762 0.147 7.58 4.19 9.59
6/22/2021 12:15:00 PM 17.15 62.87 0.147 7.59 5.18 9.62
6/22/2021 12:30:00 PM 17.23 63.014 0.147 7.63 4.21 9.66
6/22/2021 12:45:00 PM 17.17 62.906 0.147 7.52 10.65 9.56
6/22/2021 1:00:00 PM 17.1 62.78 0.147 7.55 5.92 9.52
6/22/2021 1:15:00 PM 17.11 62.798 0.147 7.53 5.99 9.53
6/22/2021 1:30:00 PM 17.13 62.834 0.147 7.55 4.11 9.55
6/22/2021 1:45:00 PM 17.12 62.816 0.147 7.55 3.93 9.54
6/22/2021 2:00:00 PM 17.13 62.834 0.147 7.58 3.65 9.59
6/22/2021 2:15:00 PM 17.12 62.816 0.147 7.59 2.23 9.6
6/22/2021 2:30:00 PM 17.09 62.762 0.147 7.6 2.24 9.57
6/22/2021 2:45:00 PM 17.06 62.708 0.147 7.58 2.37 9.59
6/22/2021 3:00:00 PM 17.04 62.672 0.147 7.58 2.4 9.58
6/22/2021 3:15:00 PM 17.01 62.618 0.147 7.59 2.36 9.58
6/22/2021 3:30:00 PM 16.97 62.546 0.147 7.6 2.16 9.59
6/22/2021 3:45:00 PM 16.94 62.492 0.147 7.59 2.36 9.6
6/22/2021 4:00:00 PM 16.91 62.438 0.147 7.57 3.89 9.6
6/22/2021 4:15:00 PM 16.88 62.384 0.147 7.6 2.47 9.6
6/22/2021 4:30:00 PM 16.86 62.348 0.147 7.6 2.41 9.63
6/22/2021 4:45:00 PM 16.86 62.348 0.147 7.61 2.33 9.65
6/22/2021 5:00:00 PM 16.82 62.276 0.147 7.61 2.58 9.62
6/22/2021 5:15:00 PM 16.76 62.168 0.147 7.6 2.35 9.62
6/22/2021 5:30:00 PM 16.73 62.114 0.147 7.59 2.53 9.61
6/22/2021 5:45:00 PM 16.81 62.258 0.147 7.62 2.29 9.66
6/22/2021 6:00:00 PM 16.81 62.258 0.147 7.62 2.43 9.69
6/22/2021 6:15:00 PM 16.79 62.222 0.147 7.62 2.32 9.68
6/22/2021 6:30:00 PM 16.73 62.114 0.147 7.6 2.48 9.64
6/22/2021 6:45:00 PM 16.65 61.97 0.147 7.6 2.42 9.62
6/22/2021 7:00:00 PM 16.58 61.844 0.147 7.58 2.38 9.62
6/22/2021 7:15:00 PM 16.53 61.754 0.148 7.58 2.38 9.62
6/22/2021 7:30:00 PM 16.47 61.646 0.148 7.57 2.3 9.61
6/22/2021 7:45:00 PM 16.4 61.52 0.148 7.56 2.35 9.62
6/22/2021 8:00:00 PM 16.35 61.43 0.148 7.55 2.44 9.61
6/22/2021 8:15:00 PM 16.29 61.322 0.148 7.55 2.3 9.59
6/22/2021 8:30:00 PM 16.21 61.178 0.148 7.53 2.85 9.58
6/22/2021 8:45:00 PM 16.13 61.034 0.148 7.52 2.45 9.59
6/22/2021 9:00:00 PM 16.05 60.89 0.148 7.5 2.46 9.58
6/22/2021 9:15:00 PM 15.97 60.746 0.148 7.5 2.55 9.58
6/22/2021 9:30:00 PM 15.9 60.62 0.148 7.48 2.82 9.59
6/22/2021 9:45:00 PM 15.81 60.458 0.148 7.48 2.66 9.6
6/22/2021 10:00:00 PM 15.72 60.296 0.148 7.47 2.67 9.62
6/22/2021 10:15:00 PM 15.63 60.134 0.148 7.47 2.46 9.61
6/22/2021 10:30:00 PM 15.53 59.954 0.148 7.47 2.47 9.64
6/22/2021 10:45:00 PM 15.44 59.792 0.149 7.46 2.8 9.68
6/22/2021 11:00:00 PM 15.35 59.63 0.149 7.46 2.77 9.7
6/22/2021 11:15:00 PM 15.25 59.45 0.149 7.45 2.98 9.72
6/22/2021 11:30:00 PM 15.16 59.288 0.149 7.46 2.93 9.75
6/22/2021 11:45:00 PM 15.07 59.126 0.149 7.46 2.68 9.77
6/23/2021 12:00:00 AM 14.97 58.946 0.149 7.45 2.78 9.8
6/23/2021 12:15:00 AM 14.89 58.802 0.149 7.45 2.51 9.83
6/23/2021 12:30:00 AM 14.82 58.676 0.149 7.45 2.64 9.83
6/23/2021 12:45:00 AM 14.74 58.532 0.149 7.45 2.72 9.87
6/23/2021 1:00:00 AM 14.67 58.406 0.149 7.44 2.52 9.86
6/23/2021 1:15:00 AM 14.58 58.244 0.149 7.45 2.63 9.88
6/23/2021 1:30:00 AM 14.51 58.118 0.149 7.45 2.6 9.92
6/23/2021 1:45:00 AM 14.44 57.992 0.149 7.45 2.38 9.93
6/23/2021 2:00:00 AM 14.36 57.848 0.149 7.45 3.08 9.95
6/23/2021 2:15:00 AM 14.29 57.722 0.149 7.44 3.23 9.96
6/23/2021 2:30:00 AM 14.23 57.614 0.149 7.44 2.54 9.97
6/23/2021 2:45:00 AM 14.15 57.47 0.149 7.45 2.75 10
6/23/2021 3:00:00 AM 14.09 57.362 0.148 7.44 2.69 10.03
6/23/2021 3:15:00 AM 14.04 57.272 0.148 7.43 2.68 10.04
6/23/2021 3:30:00 AM 13.99 57.182 0.148 7.44 2.73 10.05
6/23/2021 3:45:00 AM 13.95 57.11 0.148 7.44 2.47 10.06
6/23/2021 4:00:00 AM 13.92 57.056 0.148 7.43 2.5 10.07
6/23/2021 4:15:00 AM 13.88 56.984 0.148 7.44 2.41 10.07
6/23/2021 4:30:00 AM 13.85 56.93 0.148 7.43 2.74 10.09
6/23/2021 4:45:00 AM 14.04 57.272 0.147 7.44 2.68 10
6/23/2021 5:00:00 AM 14.02 57.236 0.147 7.44 2.58 10.03
6/23/2021 5:15:00 AM 13.99 57.182 0.147 7.44 2.6 10.03
6/23/2021 5:30:00 AM 13.97 57.146 0.147 7.42 2.67 10.04
6/23/2021 5:45:00 AM 13.94 57.092 0.146 7.44 2.67 10.05
6/23/2021 6:00:00 AM 13.91 57.038 0.146 7.44 2.67 10.06
6/23/2021 6:15:00 AM 13.88 56.984 0.146 7.44 2.67 10.08
6/23/2021 6:30:00 AM 13.85 56.93 0.146 7.44 2.5 10.1
6/23/2021 6:45:00 AM 13.83 56.894 0.146 7.45 2.5 10.13
6/23/2021 7:00:00 AM 13.81 56.858 0.146 7.45 2.5 10.15
6/23/2021 7:15:00 AM 13.8 56.84 0.146 7.46 2.44 10.18
6/23/2021 7:30:00 AM 13.8 56.84 0.145 7.47 2.51 10.21
6/23/2021 7:45:00 AM 13.82 56.876 0.145 7.48 2.37 10.22
6/23/2021 8:00:00 AM 13.84 56.912 0.145 7.5 2.58 10.25
6/23/2021 8:15:00 AM 13.86 56.948 0.145 7.49 2.52 10.26
6/23/2021 8:30:00 AM 13.89 57.002 0.145 7.51 2.54 10.26
6/23/2021 8:45:00 AM 13.95 57.11 0.145 7.5 2.39 10.25
6/23/2021 9:00:00 AM 14.05 57.29 0.145 7.51 2.35 10.25
6/23/2021 9:15:00 AM 14.16 57.488 0.144 7.52 2.45 10.25
6/23/2021 9:30:00 AM 14.29 57.722 0.144 7.48 2.37 10.23
6/23/2021 9:45:00 AM 14.45 58.01 0.144 7.5 2.41 10.18
6/23/2021 10:00:00 AM 14.6 58.28 0.144 7.47 2.58 10.15
6/23/2021 10:15:00 AM 14.83 58.694 0.144 7.5 2.38 10.18
6/23/2021 10:30:00 AM 15.01 59.018 0.144 7.48 5.34 10.14
6/23/2021 10:45:00 AM 15.21 59.378 0.144 7.48 9.68 10.07
6/23/2021 11:00:00 AM 15.42 59.756 0.143 7.51 3.37 10
6/23/2021 11:15:00 AM 15.58 60.044 0.143 7.47 3.71 10
6/23/2021 11:30:00 AM 15.83 60.494 0.143 7.51 3.69 9.94
6/23/2021 11:45:00 AM 16.05 60.89 0.143 7.49 3.67 9.92
6/23/2021 12:00:00 PM 16.28 61.304 0.143 7.51 3.31 9.96
6/23/2021 12:15:00 PM 16.5 61.7 0.143 7.5 2.18 9.88
6/23/2021 12:30:00 PM 16.65 61.97 0.143 7.54 2.49 9.88
6/23/2021 12:45:00 PM 16.8 62.24 0.143 7.57 2.56 9.88
6/23/2021 1:00:00 PM 16.95 62.51 0.143 7.57 2.3 9.88
6/23/2021 1:15:00 PM 17.07 62.726 0.143 7.53 2.43 9.84
6/23/2021 1:30:00 PM 17.24 63.032 0.143 7.55 2.5 9.81
6/23/2021 1:45:00 PM 17.41 63.338 0.142 7.56 2.34 9.71
6/23/2021 2:00:00 PM 17.61 63.698 0.142 7.6 2.58 9.75
6/23/2021 2:15:00 PM 17.69 63.842 0.142 7.56 2.28 9.7
6/23/2021 2:30:00 PM 17.8 64.04 0.142 7.59 2.45 9.68
6/23/2021 2:45:00 PM 17.86 64.148 0.142 7.63 2.54 9.67
6/23/2021 3:00:00 PM 17.9 64.22 0.142 7.62 2.4 9.65
6/23/2021 3:15:00 PM 17.91 64.238 0.142 7.57 2.53 9.64
6/23/2021 3:30:00 PM 17.93 64.274 0.142 7.58 2.4 9.63
6/23/2021 3:45:00 PM 17.96 64.328 0.142 7.63 2.42 9.6
6/23/2021 4:00:00 PM 17.94 64.292 0.142 7.62 2.51 9.58
6/23/2021 4:15:00 PM 17.95 64.31 0.142 7.61 2.46 9.6
6/23/2021 4:30:00 PM 17.97 64.346 0.142 7.61 2.29 9.57
6/23/2021 4:45:00 PM 17.94 64.292 0.142 7.59 5.02 9.58
6/23/2021 5:00:00 PM 17.94 64.292 0.142 7.61 2.46 9.54
6/23/2021 5:15:00 PM 17.86 64.148 0.142 7.6 2.42 9.55
6/23/2021 5:30:00 PM 17.87 64.166 0.142 7.56 2.43 9.57
6/23/2021 5:45:00 PM 17.89 64.202 0.142 7.58 2.41 9.54
6/23/2021 6:00:00 PM 17.88 64.184 0.142 7.58 2.57 9.51
6/23/2021 6:15:00 PM 17.85 64.13 0.142 7.57 2.49 9.51
6/23/2021 6:30:00 PM 17.81 64.058 0.142 7.54 2.45 9.49
6/23/2021 6:45:00 PM 17.75 63.95 0.142 7.55 2.28 9.47
6/23/2021 7:00:00 PM 17.67 63.806 0.142 7.53 2.37 9.43
6/23/2021 7:15:00 PM 17.59 63.662 0.142 7.52 2.51 9.42
6/23/2021 7:30:00 PM 17.52 63.536 0.142 7.53 2.53 9.4
6/23/2021 7:45:00 PM 17.44 63.392 0.142 7.5 2.46 9.38
6/23/2021 8:00:00 PM 17.38 63.284 0.142 7.52 2.43 9.39
6/23/2021 8:15:00 PM 17.31 63.158 0.142 7.49 2.5 9.39
6/23/2021 8:30:00 PM 17.24 63.032 0.142 7.49 2.6 9.38
6/23/2021 8:45:00 PM 17.17 62.906 0.142 7.48 2.21 9.32
6/23/2021 9:00:00 PM 17.08 62.744 0.142 7.46 2.63 9.38
6/23/2021 9:15:00 PM 16.99 62.582 0.142 7.47 2.59 9.38
6/23/2021 9:30:00 PM 16.9 62.42 0.142 7.44 4.27 9.34
6/23/2021 9:45:00 PM 16.8 62.24 0.142 7.45 2.51 9.42
6/23/2021 10:00:00 PM 16.69 62.042 0.142 7.45 2.6 9.42
6/23/2021 10:15:00 PM 16.59 61.862 0.142 7.46 2.93 9.47
6/23/2021 10:30:00 PM 16.48 61.664 0.142 7.45 2.79 9.49
6/23/2021 10:45:00 PM 16.37 61.466 0.142 7.44 2.88 9.51
6/23/2021 11:00:00 PM 16.25 61.25 0.142 7.45 2.99 9.54
6/23/2021 11:15:00 PM 16.14 61.052 0.142 7.46 2.96 9.56
6/23/2021 11:30:00 PM 16.04 60.872 0.142 7.45 2.82 9.57
6/23/2021 11:45:00 PM 15.94 60.692 0.142 7.44 2.76 9.59
6/24/2021 12:00:00 AM 15.84 60.512 0.142 7.44 2.63 9.64
6/24/2021 12:15:00 AM 15.75 60.35 0.142 7.45 2.8 9.66
6/24/2021 12:30:00 AM 15.66 60.188 0.142 7.45 2.62 9.69
6/24/2021 12:45:00 AM 15.57 60.026 0.142 7.43 4.74 9.7
6/24/2021 1:00:00 AM 15.49 59.882 0.142 7.42 4.5 9.71
6/24/2021 1:15:00 AM 15.41 59.738 0.142 7.42 4.22 9.73
6/24/2021 1:30:00 AM 15.32 59.576 0.142 7.42 4.27 9.76
6/24/2021 1:45:00 AM 15.24 59.432 0.142 7.42 4.18 9.76
6/24/2021 2:00:00 AM 15.16 59.288 0.142 7.43 2.84 9.8
6/24/2021 2:15:00 AM 15.09 59.162 0.142 7.42 4.03 9.82
6/24/2021 2:30:00 AM 15.02 59.036 0.142 7.41 3.75 9.84
6/24/2021 2:45:00 AM 14.94 58.892 0.142 7.4 3.51 9.83
6/24/2021 3:00:00 AM 14.87 58.766 0.142 7.41 3.8 9.88
6/24/2021 3:15:00 AM 14.8 58.64 0.142 7.4 3.65 9.87
6/24/2021 3:30:00 AM 14.73 58.514 0.142 7.41 3.9 9.89
6/24/2021 3:45:00 AM 14.67 58.406 0.142 7.4 4.3 9.91
6/24/2021 4:00:00 AM 14.6 58.28 0.142 7.41 2.69 9.93
6/24/2021 4:15:00 AM 14.54 58.172 0.142 7.39 3.88 9.94
6/24/2021 4:30:00 AM 14.47 58.046 0.142 7.4 2.84 9.96
6/24/2021 4:45:00 AM 14.42 57.956 0.142 7.41 2.59 9.98
6/24/2021 5:00:00 AM 14.37 57.866 0.142 7.4 2.68 9.99
6/24/2021 5:15:00 AM 14.34 57.812 0.142 7.41 2.73 10.01
6/24/2021 5:30:00 AM 14.31 57.758 0.142 7.4 2.66 10.03
6/24/2021 5:45:00 AM 14.28 57.704 0.142 7.41 2.64 10.02
6/24/2021 6:00:00 AM 14.25 57.65 0.142 7.42 2.67 10.03
6/24/2021 6:15:00 AM 14.23 57.614 0.142 7.42 2.53 10.07
6/24/2021 6:30:00 AM 14.21 57.578 0.142 7.42 2.52 10.09
6/24/2021 6:45:00 AM 14.2 57.56 0.142 7.43 2.53 10.1
6/24/2021 7:00:00 AM 14.2 57.56 0.142 7.44 2.49 10.13
6/24/2021 7:15:00 AM 14.2 57.56 0.142 7.46 2.65 10.16
6/24/2021 7:30:00 AM 14.19 57.542 0.142 7.46 2.57 10.18
6/24/2021 7:45:00 AM 14.19 57.542 0.142 7.46 2.44 10.19
6/24/2021 8:00:00 AM 14.2 57.56 0.142 7.46 2.38 10.2
6/24/2021 8:15:00 AM 14.23 57.614 0.142 7.47 2.88 10.19
6/24/2021 8:30:00 AM 14.27 57.686 0.142 7.47 2.55 10.19
6/24/2021 8:45:00 AM 14.36 57.848 0.141 7.48 2.62 10.23
6/24/2021 9:00:00 AM 14.45 58.01 0.141 7.48 2.42 10.23
6/24/2021 9:15:00 AM 14.58 58.244 0.141 7.49 2.54 10.17
6/24/2021 9:30:00 AM 14.68 58.424 0.141 7.38 2.52 10.15
6/24/2021 9:45:00 AM 14.87 58.766 0.141 7.46 2.5 10.11
6/24/2021 10:00:00 AM 15.08 59.144 0.141 7.46 2.48 10.06
6/24/2021 10:15:00 AM 15.28 59.504 0.141 7.43 2.41 10.04
6/24/2021 10:30:00 AM 15.5 59.9 0.141 7.46 2.38 10.03
6/24/2021 10:45:00 AM 15.71 60.278 0.141 7.45 2.5 10.06
6/24/2021 11:00:00 AM 15.91 60.638 0.141 7.49 2.46 9.88
6/24/2021 11:15:00 AM 16.17 61.106 0.141 7.51 2.37 9.97
6/24/2021 11:30:00 AM 16.43 61.574 0.141 7.52 2.47 9.91
6/24/2021 11:45:00 AM 16.67 62.006 0.141 7.51 2.3 9.89
6/24/2021 12:00:00 PM 16.92 62.456 0.141 7.54 2.23 9.86
6/24/2021 12:15:00 PM 17.18 62.924 0.141 7.55 2.44 9.83
6/24/2021 12:30:00 PM 17.39 63.302 0.141 7.55 2.22 9.79
6/24/2021 12:45:00 PM 17.61 63.698 0.141 7.56 2.19 9.76
6/24/2021 1:00:00 PM 17.83 64.094 0.141 7.58 2.4 9.73
6/24/2021 1:15:00 PM 18.02 64.436 0.141 7.59 2.21 9.7
6/24/2021 1:30:00 PM 18.21 64.778 0.141 7.59 5.21 9.63
6/24/2021 1:45:00 PM 18.39 65.102 0.141 7.59 3.53 9.59
6/24/2021 2:00:00 PM 18.53 65.354 0.141 7.59 3.52 9.56
6/24/2021 2:15:00 PM 18.65 65.57 0.141 7.61 2.27 9.51
6/24/2021 2:30:00 PM 18.76 65.768 0.141 7.62 2.3 9.53
6/24/2021 2:45:00 PM 18.81 65.858 0.141 7.62 2.35 9.51
6/24/2021 3:00:00 PM 18.84 65.912 0.141 7.61 2.35 9.49
6/24/2021 3:15:00 PM 18.84 65.912 0.141 7.61 2.49 9.47
6/24/2021 3:30:00 PM 18.82 65.876 0.141 7.55 5.31 9.47
6/24/2021 3:45:00 PM 18.83 65.894 0.142 7.62 5.39 9.46
6/24/2021 4:00:00 PM 18.83 65.894 0.141 7.56 5.1 9.38
6/24/2021 4:15:00 PM 18.82 65.876 0.141 7.52 22.89 9.45
6/24/2021 4:30:00 PM 18.79 65.82201 0.142 7.55 2.34 9.43
6/24/2021 4:45:00 PM 18.76 65.768 0.142 7.61 2.44 9.35
6/24/2021 5:00:00 PM 18.74 65.732 0.142 7.6 2.45 9.42
6/24/2021 5:15:00 PM 18.7 65.66 0.142 7.6 5.38 9.37
6/24/2021 5:30:00 PM 18.65 65.57 0.142 7.58 6.62 9.39
6/24/2021 5:45:00 PM 18.64 65.552 0.142 7.57 8.06 9.39
6/24/2021 6:00:00 PM 18.59 65.462 0.142 7.59 2.24 9.36
6/24/2021 6:15:00 PM 18.58 65.444 0.142 7.56 3.81 9.39
6/24/2021 6:30:00 PM 18.52 65.336 0.142 7.56 2.95 9.33
6/24/2021 6:45:00 PM 18.44 65.192 0.142 7.55 2.32 9.35
6/24/2021 7:00:00 PM 18.35 65.03 0.142 7.52 2.33 9.25
6/24/2021 7:15:00 PM 18.25 64.85 0.142 7.52 2.52 9.13
6/24/2021 7:30:00 PM 18.17 64.706 0.143 7.47 2.35 9.27
6/24/2021 7:45:00 PM 18.09 64.562 0.143 7.47 2.38 9.23
6/24/2021 8:00:00 PM 18.02 64.436 0.143 7.48 2.45 9.22
6/24/2021 8:15:00 PM 17.95 64.31 0.143 7.48 2.26 9.21
6/24/2021 8:30:00 PM 17.88 64.184 0.143 7.46 3.23 9.19
6/24/2021 8:45:00 PM 17.8 64.04 0.143 7.42 2.17 9.09
6/24/2021 9:00:00 PM 17.73 63.914 0.143 7.45 2.65 9.18
6/24/2021 9:15:00 PM 17.66 63.788 0.143 7.42 2.34 9.18
6/24/2021 9:30:00 PM 17.58 63.644 0.143 7.39 2.62 9.16
6/24/2021 9:45:00 PM 17.51 63.518 0.143 7.42 2.32 9.18
6/24/2021 10:00:00 PM 17.42 63.356 0.143 7.41 2.52 9.13
6/24/2021 10:15:00 PM 17.33 63.194 0.143 7.43 2.53 9.21
6/24/2021 10:30:00 PM 17.23 63.014 0.144 7.39 2.31 9.16
6/24/2021 10:45:00 PM 17.12 62.816 0.144 7.39 2.42 9.27
6/24/2021 11:00:00 PM 17.03 62.654 0.144 7.42 2.85 9.31
6/24/2021 11:15:00 PM 16.92 62.456 0.144 7.41 2.77 9.34
6/24/2021 11:30:00 PM 16.81 62.258 0.144 7.41 5.56 9.32
6/24/2021 11:45:00 PM 16.7 62.06 0.144 7.41 3.92 9.37
6/25/2021 12:00:00 AM 16.6 61.88 0.144 7.41 2.41 9.39
6/25/2021 12:15:00 AM 16.49 61.682 0.144 7.41 3.69 9.41
6/25/2021 12:30:00 AM 16.39 61.502 0.144 7.42 2.47 9.43
6/25/2021 12:45:00 AM 16.29 61.322 0.144 7.42 2.42 9.47
6/25/2021 1:00:00 AM 16.2 61.16 0.144 7.4 2.27 9.41
6/25/2021 1:15:00 AM 16.1 60.98 0.144 7.42 2.63 9.51
6/25/2021 1:30:00 AM 16.01 60.818 0.144 7.42 2.44 9.53
6/25/2021 1:45:00 AM 15.93 60.674 0.144 7.42 2.56 9.57
6/25/2021 2:00:00 AM 15.85 60.53 0.144 7.4 2.63 9.57
6/25/2021 2:15:00 AM 15.78 60.404 0.144 7.41 2.55 9.61
6/25/2021 2:30:00 AM 15.71 60.278 0.144 7.4 2.8 9.6
6/25/2021 2:45:00 AM 15.64 60.152 0.145 7.41 2.59 9.6
6/25/2021 3:00:00 AM 15.58 60.044 0.144 7.42 2.44 9.53
6/25/2021 3:15:00 AM 15.5 59.9 0.145 7.41 2.85 9.65
6/25/2021 3:30:00 AM 15.43 59.774 0.145 7.42 2.61 9.68
6/25/2021 3:45:00 AM 15.36 59.648 0.145 7.42 2.7 9.7
6/25/2021 4:00:00 AM 15.29 59.522 0.145 7.42 2.3 9.68
6/25/2021 4:15:00 AM 15.21 59.378 0.145 7.41 2.49 9.72
6/25/2021 4:30:00 AM 15.14 59.252 0.145 7.42 2.55 9.76
6/25/2021 4:45:00 AM 15.07 59.126 0.145 7.42 2.47 9.75
6/25/2021 5:00:00 AM 15 59 0.145 7.41 2.65 9.77
6/25/2021 5:15:00 AM 14.93 58.874 0.145 7.42 2.35 9.77
6/25/2021 5:30:00 AM 14.87 58.766 0.145 7.41 2.79 9.81
6/25/2021 5:45:00 AM 14.8 58.64 0.145 7.42 2.49 9.81
6/25/2021 6:00:00 AM 14.74 58.532 0.145 7.42 2.55 9.84
6/25/2021 6:15:00 AM 14.69 58.442 0.145 7.41 2.43 9.86
6/25/2021 6:30:00 AM 14.64 58.352 0.145 7.42 2.68 9.89
6/25/2021 6:45:00 AM 14.6 58.28 0.145 7.44 2.55 9.91
6/25/2021 7:00:00 AM 14.58 58.244 0.145 7.44 2.43 9.96
6/25/2021 7:15:00 AM 14.56 58.208 0.145 7.45 2.33 9.97
6/25/2021 7:30:00 AM 14.56 58.208 0.145 7.44 2.38 9.98
6/25/2021 7:45:00 AM 14.58 58.244 0.145 7.45 2.48 10.01
6/25/2021 8:00:00 AM 14.62 58.316 0.145 7.47 2.33 10.03
6/25/2021 8:15:00 AM 14.67 58.406 0.145 7.45 2.35 10.04
6/25/2021 8:30:00 AM 14.7 58.46 0.145 7.42 2.26 9.87
6/25/2021 8:45:00 AM 14.77 58.586 0.145 7.41 2.26 10.04
6/25/2021 9:00:00 AM 14.85 58.73 0.145 7.35 2.27 9.94
6/25/2021 9:15:00 AM 14.96 58.928 0.145 7.39 2.38 10.09
6/25/2021 9:30:00 AM 15.08 59.144 0.144 7.45 2.35 10
6/25/2021 9:45:00 AM 15.21 59.378 0.145 7.44 2.17 10.05
6/25/2021 10:00:00 AM 15.4 59.72 0.144 7.49 2.32 9.97
6/25/2021 10:15:00 AM 15.6 60.08 0.144 7.52 2.19 10.01
6/25/2021 10:30:00 AM 15.85 60.53 0.145 7.55 2.3 10
6/25/2021 10:45:00 AM 16.07 60.926 0.144 7.59 2.21 9.98
6/25/2021 11:00:00 AM 16.3 61.34 0.144 7.6 2.31 9.95
6/25/2021 11:15:00 AM 16.54 61.772 0.145 7.62 2.19 9.86
6/25/2021 11:30:00 AM 16.75 62.15 0.145 7.63 2.23 9.89
6/25/2021 11:45:00 AM 16.99 62.582 0.145 7.66 2.18 9.91
6/25/2021 12:00:00 PM 17.21 62.978 0.145 7.65 2.16 9.86
6/25/2021 12:15:00 PM 17.51 63.518 0.144 7.54 2.32 9.84
6/25/2021 12:30:00 PM 17.57 63.626 0.145 7.59 2.31 9.69
6/25/2021 12:45:00 PM 17.8 64.04 0.145 7.64 2.16 9.65
6/25/2021 1:00:00 PM 18.05 64.49 0.145 7.63 2.22 9.78
6/25/2021 1:15:00 PM 18.23 64.814 0.144 7.62 2.55 9.71
6/25/2021 1:30:00 PM 18.49 65.282 0.145 7.59 2.33 9.69
6/25/2021 1:45:00 PM 18.54 65.372 0.144 7.6 2.44 9.66
6/25/2021 2:00:00 PM 18.7 65.66 0.144 7.59 2.75 9.66
6/25/2021 2:15:00 PM 18.92 66.056 0.145 7.67 2.25 9.66
6/25/2021 2:30:00 PM 19.01 66.218 0.144 7.62 2.38 9.6
6/25/2021 2:45:00 PM 19.1 66.38 0.144 7.71 2.44 9.55
6/25/2021 3:00:00 PM 19.17 66.506 0.144 7.63 2.42 9.54
6/25/2021 3:15:00 PM 19.17 66.506 0.144 7.63 13.95 9.53
6/25/2021 3:30:00 PM 19.17 66.506 0.145 7.64 2.36 9.53
6/25/2021 3:45:00 PM 19.13 66.434 0.145 7.6 2.23 9.49
6/25/2021 4:00:00 PM 19.14 66.452 0.144 7.62 2.46 9.49
6/25/2021 4:15:00 PM 19.2 66.56 0.145 7.65 2.29 9.53
6/25/2021 4:30:00 PM 19.2 66.56 0.145 7.66 3.55 9.49
6/25/2021 4:45:00 PM 19.15 66.47 0.145 7.6 2.36 9.47
6/25/2021 5:00:00 PM 19.14 66.452 0.145 7.62 2.28 9.45
6/25/2021 5:15:00 PM 19.18 66.524 0.145 7.61 2.4 9.46
6/25/2021 5:30:00 PM 19.18 66.524 0.145 7.64 2.49 9.43
6/25/2021 5:45:00 PM 19.16 66.488 0.145 7.62 2.39 9.38
6/25/2021 6:00:00 PM 19.13 66.434 0.145 7.62 2.32 9.36
6/25/2021 6:15:00 PM 19.08 66.344 0.145 7.58 2.52 9.34
6/25/2021 6:30:00 PM 18.97 66.146 0.145 7.59 2.25 9.24
6/25/2021 6:45:00 PM 18.88 65.984 0.145 7.38 2.48 9.19
6/25/2021 7:00:00 PM 18.78 65.804 0.145 7.5 2.38 9.25
6/25/2021 7:15:00 PM 18.7 65.66 0.145 7.39 2.39 9.24
6/25/2021 7:30:00 PM 18.61 65.498 0.146 7.44 2.31 9.16
6/25/2021 7:45:00 PM 18.51 65.318 0.146 7.23 2.45 9.18
6/25/2021 8:00:00 PM 18.44 65.192 0.146 7.3 2.38 9.12
6/25/2021 8:15:00 PM 18.35 65.03 0.146 7.41 2.78 9.02
6/25/2021 8:30:00 PM 18.29 64.922 0.146 7.41 2.41 9.02
6/25/2021 8:45:00 PM 18.21 64.778 0.146 7.22 2.45 8.95
6/25/2021 9:00:00 PM 18.13 64.634 0.146 7.25 2.69 8.93
6/25/2021 9:15:00 PM 18.08 64.544 0.147 7.36 2.73 9.04
6/25/2021 9:30:00 PM 18.01 64.418 0.147 7.33 2.38 9
6/25/2021 9:45:00 PM 17.92 64.256 0.146 7.27 2.72 8.9
6/25/2021 10:00:00 PM 17.86 64.148 0.146 7.2 2.63 8.93
6/25/2021 10:15:00 PM 17.8 64.04 0.147 7.22 2.83 8.94
6/25/2021 10:30:00 PM 17.74 63.932 0.147 7.21 2.74 8.86
6/25/2021 10:45:00 PM 17.68 63.824 0.147 7.24 2.58 8.97
6/25/2021 11:00:00 PM 17.59 63.662 0.147 7.12 2.66 9.05
6/25/2021 11:15:00 PM 17.52 63.536 0.147 7.22 2.57 8.92
6/25/2021 11:30:00 PM 17.46 63.428 0.147 7.25 2.47 9
6/25/2021 11:45:00 PM 17.38 63.284 0.147 7.29 2.83 8.96
6/26/2021 12:00:00 AM 17.31 63.158 0.147 7.24 2.51 8.93
6/26/2021 12:15:00 AM 17.24 63.032 0.147 7.2 2.59 9.08
6/26/2021 12:30:00 AM 17.15 62.87 0.147 7.2 5.41 9.09
6/26/2021 12:45:00 AM 17.06 62.708 0.147 7.17 3.15 9.06
6/26/2021 1:00:00 AM 16.97 62.546 0.147 7.15 2.87 9.11
6/26/2021 1:15:00 AM 16.9 62.42 0.147 7.18 2.77 8.95
6/26/2021 1:30:00 AM 16.82 62.276 0.147 7.21 3.01 9.08
6/26/2021 1:45:00 AM 16.73 62.114 0.147 7.28 2.99 9.03
6/26/2021 2:00:00 AM 16.66 61.988 0.148 7.16 2.82 9.22
6/26/2021 2:15:00 AM 16.57 61.826 0.147 7.12 2.72 9.05
6/26/2021 2:30:00 AM 16.49 61.682 0.147 7.17 2.61 9.06
6/26/2021 2:45:00 AM 16.45 61.61 0.148 7.21 2.81 9.29
6/26/2021 3:00:00 AM 16.39 61.502 0.148 7.13 2.65 9.08
6/26/2021 3:15:00 AM 16.32 61.376 0.148 7.25 2.67 9.3
6/26/2021 3:30:00 AM 16.26 61.268 0.148 7.21 2.8 9.1
6/26/2021 3:45:00 AM 16.2 61.16 0.148 7.16 2.71 9.26
6/26/2021 4:00:00 AM 16.18 61.124 0.148 7.24 2.64 9.25
6/26/2021 4:15:00 AM 16.15 61.07 0.148 7.16 2.67 9.31
6/26/2021 4:30:00 AM 16.13 61.034 0.148 7.2 2.95 9.3
6/26/2021 4:45:00 AM 16.12 61.016 0.148 7.26 6.08 9.21
6/26/2021 5:00:00 AM 16.11 60.998 0.148 7.24 4.06 9.24
6/26/2021 5:15:00 AM 16.11 60.998 0.148 7.22 6.4 9.31
6/26/2021 5:30:00 AM 16.11 60.998 0.148 7.24 4.27 9.28
6/26/2021 5:45:00 AM 16.1 60.98 0.148 7.24 3.69 9.15
6/26/2021 6:00:00 AM 16.08 60.944 0.147 7.07 4.38 9.14
6/26/2021 6:15:00 AM 16.1 60.98 0.148 7.1 4.09 9.25
6/26/2021 6:30:00 AM 16.11 60.998 0.148 7.22 3.79 9.24
6/26/2021 6:45:00 AM 16.12 61.016 0.148 7.19 4.15 9.29
6/26/2021 7:00:00 AM 16.14 61.052 0.148 7.27 3.6 9.38
6/26/2021 7:15:00 AM 16.15 61.07 0.148 7.29 2.51 9.34
6/26/2021 7:30:00 AM 16.17 61.106 0.148 7.13 3.03 9.37
6/26/2021 7:45:00 AM 16.22 61.196 0.148 7.26 2.68 9.17
6/26/2021 8:00:00 AM 16.24 61.232 0.148 7.26 2.25 9.47
6/26/2021 8:15:00 AM 16.3 61.34 0.148 7.33 2.22 9.56
6/26/2021 8:30:00 AM 16.4 61.52 0.148 7.38 2.21 9.67
6/26/2021 8:45:00 AM 16.49 61.682 0.148 7.27 2.2 9.67
6/26/2021 9:00:00 AM 16.58 61.844 0.148 7.34 2.17 9.63
6/26/2021 9:15:00 AM 16.67 62.006 0.148 7.43 2.21 9.61
6/26/2021 9:30:00 AM 16.73 62.114 0.148 7.42 2.18 9.56
6/26/2021 9:45:00 AM 16.83 62.294 0.148 7.49 2.21 9.69
6/26/2021 10:00:00 AM 17 62.6 0.148 7.49 2.08 9.73
6/26/2021 10:15:00 AM 17.12 62.816 0.148 7.52 2.1 9.72
6/26/2021 10:30:00 AM 17.34 63.212 0.148 7.59 2.03 9.71
6/26/2021 10:45:00 AM 17.64 63.752 0.148 7.59 2.25 9.74
6/26/2021 11:00:00 AM 17.86 64.148 0.148 7.61 2.68 9.65
6/26/2021 11:15:00 AM 18 64.4 0.148 7.58 2.19 9.63
6/26/2021 11:30:00 AM 18.35 65.03 0.148 7.68 2.12 9.64
6/26/2021 11:45:00 AM 18.64 65.552 0.148 7.71 2.21 9.63
6/26/2021 12:00:00 PM 18.95 66.11 0.148 7.74 2.15 9.6
6/26/2021 12:15:00 PM 19.18 66.524 0.148 7.72 2.15 9.53
6/26/2021 12:30:00 PM 19.48 67.064 0.148 7.77 2.13 9.55
6/26/2021 12:45:00 PM 19.76 67.568 0.148 7.76 2.17 9.53
6/26/2021 1:00:00 PM 20.05 68.09 0.148 7.75 16.37 9.45
6/26/2021 1:15:00 PM 20.22 68.396 0.148 7.8 2.1 9.47
6/26/2021 1:30:00 PM 20.31 68.558 0.148 7.78 2.19 9.42
6/26/2021 1:45:00 PM 20.55 68.99 0.148 7.8 2.27 9.4
6/26/2021 2:00:00 PM 20.66 69.188 0.148 7.74 2.3 9.34
6/26/2021 2:15:00 PM 20.8 69.44 0.148 7.74 2.12 9.33
6/26/2021 2:30:00 PM 20.99 69.782 0.148 7.72 2.16 9.3
6/26/2021 2:45:00 PM 21.12 70.016 0.148 7.63 4.77 9.27
6/26/2021 3:00:00 PM 21.26 70.268 0.148 7.7 3.31 9.22
6/26/2021 3:15:00 PM 21.27 70.286 0.148 7.73 2.22 9.21
6/26/2021 3:30:00 PM 21.18 70.124 0.148 7.66 2.16 9.17
6/26/2021 3:45:00 PM 21.11 69.998 0.148 7.47 15.27 9.16
6/26/2021 4:00:00 PM 21.15 70.07 0.149 7.66 3.62 9.23
6/26/2021 4:15:00 PM 21.17 70.106 0.148 7.58 7.86 9.2
6/26/2021 4:30:00 PM 21.21 70.17799 0.149 7.59 4.77 9.18
6/26/2021 4:45:00 PM 21.19 70.142 0.148 7.5 10.17 9.16
6/26/2021 5:00:00 PM 21.17 70.106 0.149 7.6 2.1 9.15
6/26/2021 5:15:00 PM 21.1 69.98 0.149 7.63 2.23 9.13
6/26/2021 5:30:00 PM 21 69.8 0.149 7.61 2.08 9.07
6/26/2021 5:45:00 PM 20.93 69.674 0.149 7.4 2.27 9.07
6/26/2021 6:00:00 PM 20.84 69.512 0.149 7.47 2.24 9.05
6/26/2021 6:15:00 PM 20.76 69.368 0.149 7.48 2.24 9.01
6/26/2021 6:30:00 PM 20.71 69.278 0.149 7.49 2.26 9
6/26/2021 6:45:00 PM 20.65 69.17 0.149 7.53 2.28 9
6/26/2021 7:00:00 PM 20.58 69.044 0.149 7.55 2.34 8.98
6/26/2021 7:15:00 PM 20.51 68.918 0.15 7.52 2.17 8.96
6/26/2021 7:30:00 PM 20.44 68.792 0.15 7.56 2.2 8.89
6/26/2021 7:45:00 PM 20.36 68.648 0.15 7.53 2.26 8.9
6/26/2021 8:00:00 PM 20.26 68.468 0.151 7.42 2.17 8.87
6/26/2021 8:15:00 PM 20.18 68.324 0.151 7.5 2.25 8.77
6/26/2021 8:30:00 PM 20.06 68.108 0.151 7.4 2.37 8.72
6/26/2021 8:45:00 PM 19.98 67.964 0.15 7.38 6.58 8.69
6/26/2021 9:00:00 PM 19.89 67.802 0.151 7.35 2.45 8.58
6/26/2021 9:15:00 PM 19.81 67.658 0.151 7.31 2.58 8.67
6/26/2021 9:30:00 PM 19.76 67.568 0.151 7.36 2.47 8.7
6/26/2021 9:45:00 PM 19.66 67.388 0.151 7.34 2.61 8.62
6/26/2021 10:00:00 PM 19.57 67.226 0.151 7.27 2.76 8.63
6/26/2021 10:15:00 PM 19.5 67.1 0.152 7.25 2.43 8.65
6/26/2021 10:30:00 PM 19.43 66.974 0.151 7.28 2.47 8.6
6/26/2021 10:45:00 PM 19.37 66.866 0.152 7.32 2.78 8.54
6/26/2021 11:00:00 PM 19.29 66.722 0.151 7.19 2.95 8.57
6/26/2021 11:15:00 PM 19.23 66.614 0.152 7.18 2.72 8.55
6/26/2021 11:30:00 PM 19.17 66.506 0.151 7.26 2.79 8.65
6/26/2021 11:45:00 PM 19.1 66.38 0.151 7.24 2.83 8.59
6/27/2021 12:00:00 AM 19.06 66.308 0.152 7.24 2.61 8.68
6/27/2021 12:15:00 AM 18.99 66.182 0.151 7.17 2.76 8.59
6/27/2021 12:30:00 AM 18.93 66.074 0.151 7.25 2.63 8.69
6/27/2021 12:45:00 AM 18.89 66.002 0.152 7.24 2.59 8.71
6/27/2021 1:00:00 AM 18.84 65.912 0.152 7.16 2.88 8.68
6/27/2021 1:15:00 AM 18.81 65.858 0.152 7.26 3.46 8.56
6/27/2021 1:30:00 AM 18.75 65.75 0.152 7.18 2.88 8.74
6/27/2021 1:45:00 AM 18.7 65.66 0.152 7.24 3.16 8.66
6/27/2021 2:00:00 AM 18.64 65.552 0.151 7.21 5.88 8.61
6/27/2021 2:15:00 AM 18.62 65.516 0.152 7.26 2.84 8.75
6/27/2021 2:30:00 AM 18.58 65.444 0.152 7.26 2.75 8.72
6/27/2021 2:45:00 AM 18.55 65.39 0.152 7.25 3.52 8.71
6/27/2021 3:00:00 AM 18.51 65.318 0.152 7.23 3.31 8.7
6/27/2021 3:15:00 AM 18.45 65.21 0.152 7.18 3.15 8.72
6/27/2021 3:30:00 AM 18.39 65.102 0.152 7.09 2.97 8.66
6/27/2021 3:45:00 AM 18.38 65.084 0.152 7.27 2.9 8.84
6/27/2021 4:00:00 AM 18.34 65.012 0.152 7.24 2.81 8.76
6/27/2021 4:15:00 AM 18.3 64.94 0.152 7.15 3.38 8.86
6/27/2021 4:30:00 AM 18.26 64.868 0.152 7.15 2.85 8.74
6/27/2021 4:45:00 AM 18.21 64.778 0.152 7.15 2.93 8.68
6/27/2021 5:00:00 AM 18.18 64.724 0.152 7.21 2.73 8.85
6/27/2021 5:15:00 AM 18.12 64.616 0.152 7.12 3.17 8.57
6/27/2021 5:30:00 AM 18.09 64.562 0.152 7.18 2.68 8.64
6/27/2021 5:45:00 AM 18.06 64.508 0.152 7.21 2.61 8.73
6/27/2021 6:00:00 AM 18.02 64.436 0.152 7.16 2.48 8.91
6/27/2021 6:15:00 AM 18 64.4 0.153 7.2 2.64 8.74
6/27/2021 6:30:00 AM 17.96 64.328 0.152 7.18 2.54 8.65
6/27/2021 6:45:00 AM 17.95 64.31 0.152 7.22 4.71 8.86
6/27/2021 7:00:00 AM 17.92 64.256 0.152 7.19 3.8 8.89
6/27/2021 7:15:00 AM 17.9 64.22 0.152 7.19 3.7 8.92
6/27/2021 7:30:00 AM 17.89 64.202 0.152 7.22 3.81 8.94
6/27/2021 7:45:00 AM 17.88 64.184 0.153 7.19 2.48 8.93
6/27/2021 8:00:00 AM 17.9 64.22 0.153 7.29 2.45 9.03
6/27/2021 8:15:00 AM 17.93 64.274 0.153 7.3 2.57 9.06
6/27/2021 8:30:00 AM 17.95 64.31 0.153 7.31 2.53 8.99
6/27/2021 8:45:00 AM 18.02 64.436 0.153 7.35 2.55 9.12
6/27/2021 9:00:00 AM 18.07 64.526 0.153 7.35 2.44 9.05
6/27/2021 9:15:00 AM 18.15 64.67 0.153 7.42 2.47 9.17
6/27/2021 9:30:00 AM 18.26 64.868 0.153 7.38 2.42 9.18
6/27/2021 9:45:00 AM 18.43 65.174 0.153 7.5 2.44 9.22
6/27/2021 10:00:00 AM 18.61 65.498 0.153 7.51 2.26 9.22
6/27/2021 10:15:00 AM 18.77 65.786 0.153 7.53 2.37 9.23
6/27/2021 10:30:00 AM 19.03 66.254 0.153 7.58 2.26 9.23
6/27/2021 10:45:00 AM 19.31 66.758 0.153 7.62 2.36 9.22
6/27/2021 11:00:00 AM 19.59 67.262 0.153 7.64 2.37 9.21
6/27/2021 11:15:00 AM 19.92 67.856 0.153 7.68 2.25 9.21
6/27/2021 11:30:00 AM 20.17 68.306 0.153 7.66 2.29 9.25
6/27/2021 11:45:00 AM 20.48 68.864 0.153 7.71 2.23 9.23
6/27/2021 12:00:00 PM 20.69 69.242 0.153 7.72 2.33 9.23
6/27/2021 12:15:00 PM 20.91 69.638 0.153 7.71 2.23 9.12
6/27/2021 12:30:00 PM 21.07 69.926 0.153 7.74 2.31 9.12
6/27/2021 12:45:00 PM 21.35 70.43 0.153 7.78 2.31 9.18
6/27/2021 1:00:00 PM 21.56 70.808 0.153 7.78 2.18 9.16
6/27/2021 1:15:00 PM 21.78 71.204 0.153 7.81 2.31 9.11
6/27/2021 1:30:00 PM 21.95 71.51 0.153 7.82 2.7 9.11
6/27/2021 1:45:00 PM 22.06 71.708 0.153 7.8 2.39 9.2
6/27/2021 2:00:00 PM 22.18 71.924 0.153 7.81 2.38 9.16
6/27/2021 2:15:00 PM 22.27 72.086 0.153 7.79 2.4 9.12
6/27/2021 2:30:00 PM 22.31 72.158 0.152 7.76 3.89 9.12
6/27/2021 2:45:00 PM 22.34 72.212 0.153 7.8 2.31 9.11
6/27/2021 3:00:00 PM 22.27 72.086 0.152 7.71 2.43 9.06
6/27/2021 3:15:00 PM 22.18 71.924 0.153 7.65 2.78 9.03
6/27/2021 3:30:00 PM 22.09 71.762 0.153 7.69 2.41 9.03
6/27/2021 3:45:00 PM 22.03 71.654 0.153 7.63 2.57 8.99
6/27/2021 4:00:00 PM 22.01 71.618 0.153 7.69 2.45 9.03
6/27/2021 4:15:00 PM 21.95 71.51 0.153 7.55 2.38 9.02
6/27/2021 4:30:00 PM 21.87 71.366 0.153 7.67 4.03 8.97
6/27/2021 4:45:00 PM 21.82 71.276 0.152 7.61 4.09 8.94
6/27/2021 5:00:00 PM 21.75 71.15 0.153 7.57 2.48 8.97
6/27/2021 5:15:00 PM 21.71 71.078 0.153 7.5 2.71 8.98
6/27/2021 5:30:00 PM 21.67 71.006 0.153 7.57 2.61 8.98
6/27/2021 5:45:00 PM 21.62 70.916 0.153 7.49 2.43 8.96
6/27/2021 6:00:00 PM 21.58 70.844 0.153 7.53 2.61 8.92
6/27/2021 6:15:00 PM 21.48 70.664 0.154 7.62 2.57 8.89
6/27/2021 6:30:00 PM 21.4 70.52 0.154 7.49 2.4 8.89
6/27/2021 6:45:00 PM 21.31 70.358 0.154 7.45 2.39 8.89
6/27/2021 7:00:00 PM 21.24 70.232 0.154 7.53 2.39 8.82
6/27/2021 7:15:00 PM 21.15 70.07 0.154 7.48 2.38 8.77
6/27/2021 7:30:00 PM 21.07 69.926 0.154 7.48 2.53 8.8
6/27/2021 7:45:00 PM 20.96 69.728 0.155 7.52 2.41 8.76
6/27/2021 8:00:00 PM 20.88 69.584 0.155 7.43 2.41 8.73
6/27/2021 8:15:00 PM 20.77 69.386 0.155 7.47 2.52 8.7
6/27/2021 8:30:00 PM 20.68 69.224 0.155 7.41 2.5 8.68
6/27/2021 8:45:00 PM 20.61 69.098 0.155 7.39 2.4 8.56
6/27/2021 9:00:00 PM 20.54 68.972 0.156 7.37 2.54 8.6
6/27/2021 9:15:00 PM 20.45 68.81 0.155 7.33 2.5 8.53
6/27/2021 9:30:00 PM 20.39 68.702 0.156 7.4 2.45 8.57
6/27/2021 9:45:00 PM 20.31 68.558 0.156 7.38 2.54 8.55
6/27/2021 10:00:00 PM 20.25 68.45 0.156 7.36 2.73 8.53
6/27/2021 10:15:00 PM 20.18 68.324 0.156 7.35 2.53 8.49
6/27/2021 10:30:00 PM 20.11 68.198 0.156 7.3 2.58 8.49
6/27/2021 10:45:00 PM 20.05 68.09 0.156 7.33 2.55 8.59
6/27/2021 11:00:00 PM 19.99 67.982 0.156 7.36 2.49 8.49
6/27/2021 11:15:00 PM 19.93 67.874 0.156 7.35 2.65 8.49
6/27/2021 11:30:00 PM 19.85 67.73 0.156 7.25 2.69 8.59
6/27/2021 11:45:00 PM 19.81 67.658 0.156 7.25 2.5 8.53
6/28/2021 12:00:00 AM 19.75 67.55 0.156 7.28 2.68 8.55
6/28/2021 12:15:00 AM 19.69 67.442 0.156 7.26 2.72 8.53
6/28/2021 12:30:00 AM 19.64 67.352 0.156 7.29 2.67 8.58
6/28/2021 12:45:00 AM 19.58 67.244 0.156 7.29 3.04 8.54
6/28/2021 1:00:00 AM 19.51 67.118 0.156 7.23 2.92 8.64
6/28/2021 1:15:00 AM 19.46 67.028 0.156 7.2 2.7 8.57
6/28/2021 1:30:00 AM 19.41 66.938 0.156 7.26 3.32 8.6
6/28/2021 1:45:00 AM 19.37 66.866 0.156 7.26 2.79 8.63
6/28/2021 2:00:00 AM 19.31 66.758 0.156 7.13 2.82 8.64
6/28/2021 2:15:00 AM 19.27 66.686 0.156 7.25 2.79 8.5
6/28/2021 2:30:00 AM 19.23 66.614 0.156 7.27 2.91 8.62
6/28/2021 2:45:00 AM 19.16 66.488 0.155 7.09 2.97 8.67
6/28/2021 3:00:00 AM 19.12 66.416 0.156 7.15 3.07 8.67
6/28/2021 3:15:00 AM 19.08 66.344 0.156 7.23 3.36 8.6
6/28/2021 3:30:00 AM 19.02 66.236 0.156 7.1 3.41 8.44
6/28/2021 3:45:00 AM 18.97 66.146 0.156 7.22 3.16 8.69
6/28/2021 4:00:00 AM 18.93 66.074 0.156 7.18 2.9 8.66
6/28/2021 4:15:00 AM 18.89 66.002 0.156 7.14 3.28 8.72
6/28/2021 4:30:00 AM 18.84 65.912 0.156 7.27 3.32 8.72
6/28/2021 4:45:00 AM 18.81 65.858 0.156 7.13 3.09 8.67
6/28/2021 5:00:00 AM 18.77 65.786 0.157 7.26 3.52 8.66
6/28/2021 5:15:00 AM 18.74 65.732 0.157 7.25 3.17 8.77
6/28/2021 5:30:00 AM 18.69 65.642 0.157 7.15 3.33 8.74
6/28/2021 5:45:00 AM 18.65 65.57 0.157 7.32 2.93 8.77
6/28/2021 6:00:00 AM 18.62 65.516 0.157 7.28 9.15 8.71
6/28/2021 6:15:00 AM 18.59 65.462 0.156 7.18 2.84 8.48
6/28/2021 6:30:00 AM 18.54 65.372 0.157 7.22 2.78 8.69
6/28/2021 6:45:00 AM 18.5 65.3 0.156 7.12 2.61 8.72
6/28/2021 7:00:00 AM 18.49 65.282 0.157 7.11 2.34 8.82
6/28/2021 7:15:00 AM 18.47 65.246 0.157 7.32 2.78 8.76
6/28/2021 7:30:00 AM 18.45 65.21 0.157 7.25 3.99 8.86
6/28/2021 7:45:00 AM 18.44 65.192 0.157 7.26 6.55 8.85
6/28/2021 8:00:00 AM 18.43 65.174 0.157 7.25 5.04 8.83
6/28/2021 8:15:00 AM 18.43 65.174 0.157 7.27 5.11 8.56
6/28/2021 8:30:00 AM 18.43 65.174 0.156 7.23 42.77 8.77
6/28/2021 8:45:00 AM 18.48 65.264 0.157 7.26 3.95 8.93
6/28/2021 9:00:00 AM 18.51 65.318 0.157 7.23 2.43 8.93
6/28/2021 9:15:00 AM 18.6 65.48 0.157 7.37 3.84 9.02
6/28/2021 9:30:00 AM 18.68 65.624 0.157 7.3 8.45 8.96
6/28/2021 9:45:00 AM 18.81 65.858 0.157 7.4 8.45 9.1
6/28/2021 10:00:00 AM 18.98 66.164 0.157 7.43 2.28 9.16
6/28/2021 10:15:00 AM 19.21 66.578 0.157 7.5 5.21 8.95
6/28/2021 10:30:00 AM 19.46 67.028 0.157 7.55 3.55 9.09
6/28/2021 10:45:00 AM 19.74 67.532 0.157 7.61 2.28 9.16
6/28/2021 11:00:00 AM 20.06 68.108 0.157 7.64 2.2 9.2
6/28/2021 11:15:00 AM 20.33 68.594 0.157 7.66 2.38 9.16
6/28/2021 11:30:00 AM 20.61 69.098 0.157 7.7 2.32 9.16
6/28/2021 11:45:00 AM 20.94 69.692 0.157 7.72 2.23 9.13
6/28/2021 12:00:00 PM 21.29 70.32201 0.157 7.75 2.2 8.99
6/28/2021 12:15:00 PM 21.54 70.772 0.157 7.75 2.18 9.11
6/28/2021 12:30:00 PM 21.84 71.312 0.157 7.78 2.16 9.13
6/28/2021 12:45:00 PM 22.01 71.618 0.157 7.79 2.18 9.04
6/28/2021 1:00:00 PM 22.04 71.672 0.157 7.77 2.37 9.07
6/28/2021 1:15:00 PM 22.02 71.636 0.157 7.73 2.19 9.03
6/28/2021 1:30:00 PM 22.09 71.762 0.157 7.72 2.21 9.02
6/28/2021 1:45:00 PM 22.28 72.104 0.157 7.79 2.17 8.96
6/28/2021 2:00:00 PM 22.5 72.5 0.157 7.82 2.12 9.02
6/28/2021 2:15:00 PM 22.56 72.608 0.157 7.81 2.27 9.02
6/28/2021 2:30:00 PM 22.63 72.734 0.157 7.74 2.19 9.02
6/28/2021 2:45:00 PM 22.79 73.022 0.157 7.73 2.14 9.04
6/28/2021 3:00:00 PM 22.91 73.238 0.157 7.76 2.2 9.02
6/28/2021 3:15:00 PM 23.04 73.472 0.157 7.75 3.99 8.92
6/28/2021 3:30:00 PM 23.1 73.58 0.157 7.73 2.21 8.97
6/28/2021 3:45:00 PM 23.15 73.67 0.157 7.73 2.25 8.93
6/28/2021 4:00:00 PM 23.18 73.724 0.157 7.74 2.49 8.91
6/28/2021 4:15:00 PM 23.17 73.706 0.157 7.72 3.07 8.87
6/28/2021 4:30:00 PM 23.16 73.688 0.157 7.7 2.28 9.15
6/28/2021 4:45:00 PM 23.12 73.616 0.158 7.7 2.22 8.88
6/28/2021 5:00:00 PM 23.09 73.562 0.158 7.66 2.34 8.85
6/28/2021 5:15:00 PM 23.04 73.472 0.158 7.55 2.39 8.83
6/28/2021 5:30:00 PM 22.98 73.364 0.158 7.45 2.45 8.82
6/28/2021 5:45:00 PM 22.92 73.256 0.158 7.46 2.32 8.8
6/28/2021 6:00:00 PM 22.89 73.202 0.158 7.35 2.48 8.74
6/28/2021 6:15:00 PM 22.83 73.094 0.158 7.38 2.35 8.73
6/28/2021 6:30:00 PM 22.78 73.004 0.158 7.3 2.33 8.72
6/28/2021 6:45:00 PM 22.71 72.878 0.159 7.51 2.33 8.73
6/28/2021 7:00:00 PM 22.6 72.68 0.158 7.46 2.35 8.64
6/28/2021 7:15:00 PM 22.49 72.482 0.158 7.51 2.52 8.57
6/28/2021 7:30:00 PM 22.39 72.302 0.158 7.42 2.4 8.58
6/28/2021 7:45:00 PM 22.26 72.068 0.159 7.39 2.42 8.43
6/28/2021 8:00:00 PM 22.15 71.87 0.159 7.29 2.49 8.47
6/28/2021 8:15:00 PM 21.99 71.582 0.159 7.38 2.81 8.28
6/28/2021 8:30:00 PM 21.88 71.384 0.16 7.26 2.7 8.25
6/28/2021 8:45:00 PM 21.75 71.15 0.159 7.28 4.85 8.17
6/28/2021 9:00:00 PM 21.64 70.952 0.16 7.33 2.56 8.21
6/28/2021 9:15:00 PM 21.55 70.79 0.16 7.35 2.62 8.2
6/28/2021 9:30:00 PM 21.45 70.61 0.16 7.28 2.77 8.26
6/28/2021 9:45:00 PM 21.35 70.43 0.16 7.39 2.69 8.3
6/28/2021 10:00:00 PM 21.26 70.268 0.161 7.31 2.95 8.23
6/28/2021 10:15:00 PM 21.16 70.088 0.161 7.34 2.48 8.28
6/28/2021 10:30:00 PM 21.05 69.89 0.161 7.41 2.47 8.34
6/28/2021 10:45:00 PM 20.98 69.764 0.161 7.42 2.52 8.35
6/28/2021 11:00:00 PM 20.91 69.638 0.161 7.31 2.5 8.33
6/28/2021 11:15:00 PM 20.82 69.476 0.161 7.35 2.52 8.39
6/28/2021 11:30:00 PM 20.76 69.368 0.161 7.28 2.62 8.41
6/28/2021 11:45:00 PM 20.69 69.242 0.161 7.33 2.51 8.35
6/29/2021 12:00:00 AM 20.6 69.08 0.161 7.14 2.79 8.42
6/29/2021 12:15:00 AM 20.56 69.008 0.161 7.22 2.51 8.46
6/29/2021 12:30:00 AM 20.51 68.918 0.161 7.29 2.64 8.44
6/29/2021 12:45:00 AM 20.45 68.81 0.161 7.3 2.76 8.42
6/29/2021 1:00:00 AM 20.39 68.702 0.161 7.39 2.54 8.46
6/29/2021 1:15:00 AM 20.34 68.612 0.161 7.31 2.57 8.47
6/29/2021 1:30:00 AM 20.28 68.504 0.161 7.27 2.53 8.49
6/29/2021 1:45:00 AM 20.23 68.414 0.161 7.37 2.71 8.48
6/29/2021 2:00:00 AM 20.18 68.324 0.161 7.3 2.7 8.35
6/29/2021 2:15:00 AM 20.13 68.234 0.161 7.23 3.57 8.49
6/29/2021 2:30:00 AM 20.06 68.108 0.161 7.35 2.71 8.49
6/29/2021 2:45:00 AM 20.02 68.036 0.161 7.35 2.62 8.47
6/29/2021 3:00:00 AM 19.98 67.964 0.161 7.33 4.55 8.49
6/29/2021 3:15:00 AM 19.92 67.856 0.161 7.34 3.11 8.55
6/29/2021 3:30:00 AM 19.89 67.802 0.161 7.25 2.65 8.54
6/29/2021 3:45:00 AM 19.84 67.712 0.161 7.34 2.88 8.55
6/29/2021 4:00:00 AM 19.79 67.622 0.161 7.36 2.91 8.56
6/29/2021 4:15:00 AM 19.75 67.55 0.161 7.33 2.84 8.53
6/29/2021 4:30:00 AM 19.73 67.514 0.161 7.29 2.72 8.59
6/29/2021 4:45:00 AM 19.66 67.388 0.161 7.35 2.76 8.53
6/29/2021 5:00:00 AM 19.61 67.298 0.161 7.28 6.81 8.4
6/29/2021 5:15:00 AM 19.56 67.208 0.161 7.28 2.88 8.53
6/29/2021 5:30:00 AM 19.53 67.154 0.161 7.31 3.11 8.54
6/29/2021 5:45:00 AM 19.48 67.064 0.161 7.3 3 8.63
6/29/2021 6:00:00 AM 19.42 66.956 0.161 7.23 2.6 8.56
6/29/2021 6:15:00 AM 19.38 66.884 0.161 7.34 2.73 8.57
6/29/2021 6:30:00 AM 19.34 66.812 0.161 7.33 2.77 8.61
6/29/2021 6:45:00 AM 19.31 66.758 0.161 7.31 2.71 8.62
6/29/2021 7:00:00 AM 19.29 66.722 0.161 7.32 4.51 8.48
6/29/2021 7:15:00 AM 19.25 66.65 0.161 7.36 3.93 8.62
6/29/2021 7:30:00 AM 19.23 66.614 0.161 7.35 4.57 8.68
6/29/2021 7:45:00 AM 19.22 66.596 0.161 7.37 2.68 8.82
6/29/2021 8:00:00 AM 19.22 66.596 0.161 7.37 2.49 8.79
6/29/2021 8:15:00 AM 19.22 66.596 0.161 7.39 2.31 8.88
6/29/2021 8:30:00 AM 19.25 66.65 0.161 7.37 2.34 8.95
6/29/2021 8:45:00 AM 19.27 66.686 0.161 7.38 2.33 8.9
6/29/2021 9:00:00 AM 19.31 66.758 0.161 7.42 2.34 8.85
6/29/2021 9:15:00 AM 19.36 66.848 0.162 7.44 2.47 8.83
6/29/2021 9:30:00 AM 19.45 67.01 0.162 7.47 2.35 8.76
6/29/2021 9:45:00 AM 19.54 67.172 0.161 7.5 2.48 8.9
6/29/2021 10:00:00 AM 19.68 67.424 0.161 7.53 2.39 8.87
6/29/2021 10:15:00 AM 19.84 67.712 0.161 7.54 2.43 8.98
6/29/2021 10:30:00 AM 20.07 68.126 0.161 7.56 4.34 8.84
6/29/2021 10:45:00 AM 20.31 68.558 0.161 7.61 2.59 8.96
6/29/2021 11:00:00 AM 20.54 68.972 0.161 7.63 2.48 9.07
6/29/2021 11:15:00 AM 20.86 69.548 0.161 7.66 2.41 9.05
6/29/2021 11:30:00 AM 21.18 70.124 0.161 7.69 2.42 9.04
6/29/2021 11:45:00 AM 21.49 70.682 0.161 7.72 2.41 9.06
6/29/2021 12:00:00 PM 21.8 71.24 0.161 7.75 2.51 9.07
6/29/2021 12:15:00 PM 22.16 71.888 0.161 7.78 2.33 9.08
6/29/2021 12:30:00 PM 22.46 72.42799 0.161 7.79 2.44 9.1
6/29/2021 12:45:00 PM 22.7 72.86 0.161 7.82 2.41 8.99
6/29/2021 1:00:00 PM 22.95 73.31 0.161 7.82 2.34 9.01
6/29/2021 1:15:00 PM 23.16 73.688 0.161 7.84 2.42 9.03
6/29/2021 1:30:00 PM 23.33 73.994 0.161 7.85 3.88 8.92
6/29/2021 1:45:00 PM 23.44 74.192 0.161 7.85 2.34 8.99
6/29/2021 2:00:00 PM 23.53 74.354 0.161 7.84 2.31 8.99
6/29/2021 2:15:00 PM 23.62 74.516 0.161 7.83 2.26 9.03
6/29/2021 2:30:00 PM 23.84 74.912 0.161 7.88 2.3 8.98
6/29/2021 2:45:00 PM 23.93 75.074 0.161 7.87 2.43 8.98
6/29/2021 3:00:00 PM 24.1 75.38 0.161 7.87 2.37 8.99
6/29/2021 3:15:00 PM 24.19 75.542 0.161 7.88 2.47 8.92
6/29/2021 3:30:00 PM 24.21 75.578 0.161 7.8 3.81 8.77
6/29/2021 3:45:00 PM 24.18 75.524 0.161 7.76 2.5 8.84
6/29/2021 4:00:00 PM 24.19 75.542 0.161 7.8 2.57 8.83
6/29/2021 4:15:00 PM 24.2 75.56 0.161 7.82 2.48 8.8
6/29/2021 4:30:00 PM 24.18 75.524 0.161 7.64 2.5 8.8
6/29/2021 4:45:00 PM 24.15 75.47 0.161 7.65 2.51 8.78
6/29/2021 5:00:00 PM 24.12 75.416 0.161 7.72 2.58 8.8
6/29/2021 5:15:00 PM 24.05 75.29 0.161 7.78 2.61 8.73
6/29/2021 5:30:00 PM 23.96 75.128 0.161 7.7 2.57 8.74
6/29/2021 5:45:00 PM 23.9 75.02 0.161 7.56 3.34 8.66
6/29/2021 6:00:00 PM 23.86 74.948 0.162 7.65 2.5 8.68
6/29/2021 6:15:00 PM 23.78 74.804 0.161 7.39 2.97 8.65
6/29/2021 6:30:00 PM 23.71 74.67799 0.162 7.41 2.65 8.65
6/29/2021 6:45:00 PM 23.58 74.444 0.162 7.64 2.64 8.6
6/29/2021 7:00:00 PM 23.48 74.264 0.162 7.63 2.99 8.56
6/29/2021 7:15:00 PM 23.36 74.048 0.162 7.36 3.01 8.47
6/29/2021 7:30:00 PM 23.28 73.904 0.163 7.39 2.82 8.43
6/29/2021 7:45:00 PM 23.16 73.688 0.162 7.42 3.6 8.34
6/29/2021 8:00:00 PM 23.03 73.454 0.163 7.43 4.08 8.18
6/29/2021 8:15:00 PM 22.88 73.184 0.163 7.42 4.2 8.16
6/29/2021 8:30:00 PM 22.73 72.914 0.163 7.39 3.97 8.19
6/29/2021 8:45:00 PM 22.6 72.68 0.163 7.4 4.07 8.15
6/29/2021 9:00:00 PM 22.48 72.464 0.164 7.41 3.76 8.13
6/29/2021 9:15:00 PM 22.36 72.248 0.164 7.38 2.77 8.1
6/29/2021 9:30:00 PM 22.3 72.14 0.164 7.43 4.28 8.09
6/29/2021 9:45:00 PM 22.16 71.888 0.165 7.41 4.43 8.09
6/29/2021 10:00:00 PM 22.09 71.762 0.165 7.38 4.3 8.05
6/29/2021 10:15:00 PM 21.98 71.564 0.165 7.33 2.93 8.15
6/29/2021 10:30:00 PM 21.91 71.438 0.166 7.37 2.76 8.09
6/29/2021 10:45:00 PM 21.82 71.276 0.166 7.24 2.83 8.13
6/29/2021 11:00:00 PM 21.72 71.096 0.165 7.33 2.73 8.05
6/29/2021 11:15:00 PM 21.64 70.952 0.166 7.3 2.98 8.15
6/29/2021 11:30:00 PM 21.61 70.898 0.164 7.4 2.44 8.21
6/29/2021 11:45:00 PM 21.76 71.168 0.148 7.4 11.07 8.32
6/30/2021 12:00:00 AM 21.86 71.348 0.142 7.45 27.62 8.31
6/30/2021 12:15:00 AM 21.75 71.15 0.142 7.42 26.32 8.3
6/30/2021 12:30:00 AM 21.57 70.826 0.143 7.4 23.67 8.3
6/30/2021 12:45:00 AM 21.41 70.538 0.14 7.37 35.2 8.36
6/30/2021 1:00:00 AM 21.37 70.466 0.136 7.39 19.67 8.37
6/30/2021 1:15:00 AM 21.24 70.232 0.136 7.38 17.22 8.37
6/30/2021 1:30:00 AM 21.08 69.944 0.137 7.37 10.5 8.39
6/30/2021 1:45:00 AM 20.95 69.71 0.138 7.37 8.31 8.41
6/30/2021 2:00:00 AM 20.84 69.512 0.138 7.36 6.69 8.43
6/30/2021 2:15:00 AM 20.75 69.35 0.139 7.37 6.52 8.45
6/30/2021 2:30:00 AM 20.66 69.188 0.141 7.38 5.21 8.47
6/30/2021 2:45:00 AM 20.57 69.026 0.142 7.38 5.21 8.52
6/30/2021 3:00:00 AM 20.49 68.882 0.143 7.38 4.39 8.53
6/30/2021 3:15:00 AM 20.41 68.738 0.144 7.39 4.74 8.55
6/30/2021 3:30:00 AM 20.34 68.612 0.145 7.39 4.02 8.57
6/30/2021 3:45:00 AM 20.27 68.486 0.146 7.39 3.96 8.58
6/30/2021 4:00:00 AM 20.21 68.378 0.147 7.39 4.51 8.61
6/30/2021 4:15:00 AM 20.14 68.252 0.147 7.4 4.37 8.63
6/30/2021 4:30:00 AM 20.07 68.126 0.148 7.4 4.41 8.64
6/30/2021 4:45:00 AM 20 68 0.148 7.4 3.96 8.66
6/30/2021 5:00:00 AM 19.95 67.91 0.148 7.4 4 8.68
6/30/2021 5:15:00 AM 19.89 67.802 0.147 7.4 4.3 8.69
6/30/2021 5:30:00 AM 19.85 67.73 0.147 7.4 3.61 8.7
6/30/2021 5:45:00 AM 19.8 67.64 0.147 7.39 14.83 8.69
6/30/2021 6:00:00 AM 19.75 67.55 0.148 7.4 5.04 8.72
6/30/2021 6:15:00 AM 19.71 67.478 0.148 7.4 5.03 8.74
6/30/2021 6:30:00 AM 19.66 67.388 0.148 7.41 4.75 8.76
6/30/2021 6:45:00 AM 19.64 67.352 0.148 7.43 3.74 8.8
6/30/2021 7:00:00 AM 19.63 67.334 0.148 7.44 3.38 8.83
6/30/2021 7:15:00 AM 19.63 67.334 0.149 7.45 3.63 8.84
6/30/2021 7:30:00 AM 19.64 67.352 0.149 7.45 3.68 8.88
6/30/2021 7:45:00 AM 19.64 67.352 0.149 7.49 3.47 8.92
6/30/2021 8:00:00 AM 19.65 67.37 0.15 7.51 3.55 8.95
6/30/2021 8:15:00 AM 19.65 67.37 0.15 7.51 3.51 8.96
6/30/2021 8:30:00 AM 19.66 67.388 0.15 7.54 3.51 9
6/30/2021 8:45:00 AM 19.66 67.388 0.15 7.55 3.28 9.02
6/30/2021 9:00:00 AM 19.67 67.406 0.149 7.55 3.39 9.02
6/30/2021 9:15:00 AM 19.75 67.55 0.149 7.56 3.47 9.02
6/30/2021 9:30:00 AM 19.87 67.766 0.148 7.57 3.6 9.02
6/30/2021 9:45:00 AM 19.99 67.982 0.148 7.57 8.12 9.01
6/30/2021 10:00:00 AM 20.15 68.27 0.148 7.57 7.2 8.99
6/30/2021 10:15:00 AM 20.33 68.594 0.148 7.58 7.53 8.98
6/30/2021 10:30:00 AM 20.5 68.9 0.148 7.56 19.37 8.96
6/30/2021 10:45:00 AM 20.67 69.206 0.147 7.58 2.87 8.97
6/30/2021 11:00:00 AM 20.86 69.548 0.147 7.6 8 8.95
6/30/2021 11:15:00 AM 21.03 69.854 0.147 7.58 2.7 8.93
6/30/2021 11:30:00 AM 21.27 70.286 0.147 7.61 6.14 8.92
6/30/2021 11:45:00 AM 21.49 70.682 0.147 7.63 3.02 8.91
6/30/2021 12:00:00 PM 21.7 71.06 0.147 7.66 2.83 8.88
6/30/2021 12:15:00 PM 21.88 71.384 0.147 7.65 2.97 8.9
6/30/2021 12:30:00 PM 22.08 71.744 0.147 7.66 2.71 8.78
6/30/2021 12:45:00 PM 22.31 72.158 0.147 7.66 3.08 8.84
6/30/2021 1:00:00 PM 22.5 72.5 0.147 7.69 35.72 8.73
6/30/2021 1:15:00 PM 22.69 72.842 0.147 7.69 3.47 8.74
6/30/2021 1:30:00 PM 22.86 73.148 0.147 7.7 2.81 8.75
6/30/2021 1:45:00 PM 23 73.4 0.147 7.71 3.04 8.68
6/30/2021 2:00:00 PM 23.2 73.76 0.148 7.73 3.05 8.71
6/30/2021 2:15:00 PM 23.31 73.958 0.148 7.73 2.73 8.66
6/30/2021 2:30:00 PM 23.39 74.102 0.148 7.73 3.11 8.66
6/30/2021 2:45:00 PM 23.46 74.228 0.148 7.71 9.88 8.65
6/30/2021 3:00:00 PM 23.51 74.318 0.148 7.74 19.99 8.63
6/30/2021 3:15:00 PM 23.53 74.354 0.148 7.75 41.17 8.62
6/30/2021 3:30:00 PM 23.37 74.066 0.148 7.73 2.93 8.57
6/30/2021 3:45:00 PM 23.21 73.778 0.148 7.71 2.87 8.51
6/30/2021 4:00:00 PM 23.06 73.508 0.148 7.69 3.04 8.48
6/30/2021 4:15:00 PM 23.08 73.544 0.149 7.69 3.84 8.54
6/30/2021 4:30:00 PM 23.06 73.508 0.149 7.7 16.59 8.55
6/30/2021 4:45:00 PM 22.98 73.364 0.149 7.7 2.98 8.55
6/30/2021 5:00:00 PM 22.92 73.256 0.149 7.7 2.87 8.54
6/30/2021 5:15:00 PM 22.84 73.112 0.149 7.68 2.87 8.54
6/30/2021 5:30:00 PM 22.75 72.95 0.149 7.68 6.31 8.52
6/30/2021 5:45:00 PM 22.66 72.788 0.149 7.67 3.86 8.5
6/30/2021 6:00:00 PM 22.56 72.608 0.149 7.64 3.91 8.45
6/30/2021 6:15:00 PM 22.47 72.446 0.149 7.62 2.89 8.4
6/30/2021 6:30:00 PM 22.37 72.266 0.148 7.6 3.09 8.39
6/30/2021 6:45:00 PM 22.28 72.104 0.148 7.58 3.1 8.39
6/30/2021 7:00:00 PM 22.19 71.942 0.148 7.56 4.7 8.37
6/30/2021 7:15:00 PM 22.11 71.798 0.147 7.54 5.12 8.37
6/30/2021 7:30:00 PM 22.04 71.672 0.146 7.53 4.73 8.4
6/30/2021 7:45:00 PM 21.98 71.564 0.146 7.51 4.63 8.37
6/30/2021 8:00:00 PM 21.88 71.384 0.145 7.52 3.49 8.42
6/30/2021 8:15:00 PM 21.79 71.222 0.146 7.51 3.27 8.41
6/30/2021 8:30:00 PM 21.7 71.06 0.146 7.5 3.45 8.42
6/30/2021 8:45:00 PM 21.61 70.898 0.146 7.49 3.2 8.44
6/30/2021 9:00:00 PM 21.52 70.736 0.146 7.5 3.13 8.43
6/30/2021 9:15:00 PM 21.44 70.592 0.146 7.49 3.55 8.45
6/30/2021 9:30:00 PM 21.37 70.466 0.146 7.48 3.38 8.46
6/30/2021 9:45:00 PM 21.29 70.32201 0.146 7.49 3.29 8.47
6/30/2021 10:00:00 PM 21.21 70.17799 0.146 7.48 3.33 8.49
6/30/2021 10:15:00 PM 21.14 70.052 0.146 7.48 3.24 8.5
6/30/2021 10:30:00 PM 21.08 69.944 0.146 7.49 3.07 8.52
6/30/2021 10:45:00 PM 21.01 69.818 0.146 7.48 3.29 8.53
6/30/2021 11:00:00 PM 20.95 69.71 0.146 7.48 3.37 8.54
6/30/2021 11:15:00 PM 20.89 69.602 0.146 7.48 3.2 8.55
6/30/2021 11:30:00 PM 20.84 69.512 0.146 7.47 5 8.55
6/30/2021 11:45:00 PM 20.78 69.404 0.146 7.46 4.1 8.56
7/1/2021 12:00:00 AM 20.73 69.314 0.146 7.47 3.83 8.58
7/1/2021 12:15:00 AM 20.67 69.206 0.146 7.47 4.53 8.58
7/1/2021 12:30:00 AM 20.62 69.116 0.146 7.34 4.65 8.6
7/1/2021 12:45:00 AM 20.58 69.044 0.146 7.47 5.34 8.6
7/1/2021 1:00:00 AM 20.53 68.954 0.146 7.47 4.55 8.61
7/1/2021 1:15:00 AM 20.49 68.882 0.146 7.47 4.72 8.62
7/1/2021 1:30:00 AM 20.44 68.792 0.145 7.47 4.17 8.63
7/1/2021 1:45:00 AM 20.4 68.72 0.145 7.46 4.53 8.64
7/1/2021 2:00:00 AM 20.36 68.648 0.145 7.46 4.03 8.64
7/1/2021 2:15:00 AM 20.33 68.594 0.145 7.46 4.53 8.64
7/1/2021 2:30:00 AM 20.29 68.522 0.145 7.46 3.96 8.66
7/1/2021 2:45:00 AM 20.25 68.45 0.145 7.45 4.35 8.66
7/1/2021 3:00:00 AM 20.22 68.396 0.145 7.45 4.04 8.67
7/1/2021 3:15:00 AM 20.18 68.324 0.145 7.45 4.54 8.67
7/1/2021 3:30:00 AM 20.15 68.27 0.145 7.45 4.52 8.68
7/1/2021 3:45:00 AM 20.12 68.216 0.145 7.45 4.41 8.68
7/1/2021 4:00:00 AM 20.09 68.162 0.145 7.45 4.15 8.69
7/1/2021 4:15:00 AM 20.06 68.108 0.145 7.44 4.66 8.68
7/1/2021 4:30:00 AM 20.03 68.054 0.145 7.44 4.24 8.69
7/1/2021 4:45:00 AM 20 68 0.145 7.44 4.25 8.7
7/1/2021 5:00:00 AM 19.97 67.946 0.145 7.44 4.37 8.72
7/1/2021 5:15:00 AM 19.95 67.91 0.145 7.44 4.32 8.72
7/1/2021 5:30:00 AM 19.92 67.856 0.145 7.44 4.73 8.72
7/1/2021 5:45:00 AM 19.89 67.802 0.144 7.43 4.4 8.71
7/1/2021 6:00:00 AM 19.87 67.766 0.144 7.43 4.35 8.74
7/1/2021 6:15:00 AM 19.85 67.73 0.144 7.44 4.46 8.73
7/1/2021 6:30:00 AM 19.83 67.694 0.144 7.44 4.24 8.75
7/1/2021 6:45:00 AM 19.82 67.676 0.142 7.42 4.75 8.71
7/1/2021 7:00:00 AM 19.85 67.73 0.14 7.43 5.69 8.74
7/1/2021 7:15:00 AM 19.82 67.676 0.14 7.43 11.14 8.77
7/1/2021 7:30:00 AM 19.79 67.622 0.14 7.43 5.07 8.77
7/1/2021 7:45:00 AM 19.77 67.586 0.139 7.44 5.32 8.78
7/1/2021 8:00:00 AM 19.76 67.568 0.139 7.45 4.41 8.81
7/1/2021 8:15:00 AM 19.75 67.55 0.139 7.47 4.86 8.84
7/1/2021 8:30:00 AM 19.75 67.55 0.139 7.49 4.5 8.87
7/1/2021 8:45:00 AM 19.75 67.55 0.139 7.49 5.23 8.89
7/1/2021 9:00:00 AM 19.75 67.55 0.139 7.5 4.47 8.92
7/1/2021 9:15:00 AM 19.78 67.604 0.14 7.52 4.57 8.95
7/1/2021 9:30:00 AM 19.79 67.622 0.14 7.53 4.15 8.95
7/1/2021 9:45:00 AM 19.79 67.622 0.14 7.55 4.62 8.94
7/1/2021 10:00:00 AM 19.79 67.622 0.14 7.55 4.09 8.95
7/1/2021 10:15:00 AM 19.79 67.622 0.14 7.55 4.54 8.95
7/1/2021 10:30:00 AM 19.79 67.622 0.14 7.55 4.2 8.94
7/1/2021 10:45:00 AM 19.79 67.622 0.14 7.56 4.9 8.95
7/1/2021 11:00:00 AM 19.8 67.64 0.139 7.56 4.91 8.97
7/1/2021 11:15:00 AM 19.84 67.712 0.139 7.57 4.98 8.98
7/1/2021 11:30:00 AM 19.89 67.802 0.139 7.6 4.37 9.02
7/1/2021 11:45:00 AM 19.94 67.892 0.139 7.61 4.72 9.04
7/1/2021 12:00:00 PM 19.95 67.91 0.139 7.62 4.43 9
7/1/2021 12:15:00 PM 19.95 67.91 0.138 7.61 4.71 9
7/1/2021 12:30:00 PM 20.01 68.018 0.138 7.61 4.23 9.02
7/1/2021 12:45:00 PM 20.11 68.198 0.138 7.63 4.72 9.04
7/1/2021 1:00:00 PM 20.15 68.27 0.138 7.64 4.14 9.02
7/1/2021 1:15:00 PM 20.16 68.288 0.138 7.64 4.81 9.01
7/1/2021 1:30:00 PM 20.16 68.288 0.138 7.62 4.37 8.99
7/1/2021 1:45:00 PM 20.17 68.306 0.138 7.62 4.64 8.98
7/1/2021 2:00:00 PM 20.17 68.306 0.138 7.62 4.16 8.96
7/1/2021 2:15:00 PM 20.19 68.342 0.137 7.6 4.76 8.94
7/1/2021 2:30:00 PM 20.19 68.342 0.137 7.59 4.65 8.91
7/1/2021 2:45:00 PM 20.21 68.378 0.137 7.58 4.84 8.91
7/1/2021 3:00:00 PM 20.23 68.414 0.137 7.6 4.33 8.91
7/1/2021 3:15:00 PM 20.23 68.414 0.137 7.59 4.88 8.89
7/1/2021 3:30:00 PM 20.23 68.414 0.136 7.57 4.45 8.84
7/1/2021 3:45:00 PM 20.26 68.468 0.135 7.55 82.99 8.84
7/1/2021 4:00:00 PM 20.25 68.45 0.135 7.54 23.16 8.82
7/1/2021 4:15:00 PM 20.25 68.45 0.136 7.55 7.48 8.85
7/1/2021 4:30:00 PM 20.25 68.45 0.136 7.55 6.98 8.87
7/1/2021 4:45:00 PM 20.27 68.486 0.136 7.57 5.51 8.88
7/1/2021 5:00:00 PM 20.24 68.432 0.137 7.55 4.71 8.82
7/1/2021 5:15:00 PM 20.19 68.342 0.137 7.54 4.78 8.79
7/1/2021 5:30:00 PM 20.14 68.252 0.137 7.53 4.75 8.78
7/1/2021 5:45:00 PM 20.14 68.252 0.132 7.52 8.08 8.78
7/1/2021 6:00:00 PM 20.16 68.288 0.127 7.49 10.99 8.78
7/1/2021 6:15:00 PM 20.11 68.198 0.128 7.49 9.91 8.79
7/1/2021 6:30:00 PM 20.07 68.126 0.128 7.48 7.85 8.81
7/1/2021 6:45:00 PM 20.05 68.09 0.129 7.48 7.55 8.81
7/1/2021 7:00:00 PM 20.02 68.036 0.13 7.47 6.93 8.81
7/1/2021 7:15:00 PM 20 68 0.131 7.46 7.64 8.79
7/1/2021 7:30:00 PM 20 68 0.131 7.45 6.97 8.8
7/1/2021 7:45:00 PM 20 68 0.131 7.43 7.81 8.78
7/1/2021 8:00:00 PM 19.99 67.982 0.131 7.43 6.32 8.78
7/1/2021 8:15:00 PM 19.99 67.982 0.13 7.42 7.76 8.78
7/1/2021 8:30:00 PM 19.99 67.982 0.13 7.42 9.56 8.78
7/1/2021 8:45:00 PM 20 68 0.129 7.42 7.4 8.77
7/1/2021 9:00:00 PM 19.99 67.982 0.129 7.4 11.46 8.75
7/1/2021 9:15:00 PM 19.99 67.982 0.129 7.4 10.24 8.76
7/1/2021 9:30:00 PM 20 68 0.129 7.4 9.66 8.77
7/1/2021 9:45:00 PM 20 68 0.129 7.41 9.72 8.76
7/1/2021 10:00:00 PM 19.99 67.982 0.13 7.42 8.58 8.78
7/1/2021 10:15:00 PM 19.99 67.982 0.13 7.41 8.82 8.77
7/1/2021 10:30:00 PM 19.98 67.964 0.131 7.4 7.38 8.75
7/1/2021 10:45:00 PM 19.98 67.964 0.131 7.42 8.11 8.77
7/1/2021 11:00:00 PM 19.98 67.964 0.131 7.41 7.74 8.77
7/1/2021 11:15:00 PM 19.98 67.964 0.131 7.41 7.79 8.78
7/1/2021 11:30:00 PM 19.99 67.982 0.131 7.41 8.09 8.78
7/1/2021 11:45:00 PM 19.99 67.982 0.131 7.42 7.99 8.77
7/2/2021 12:00:00 AM 19.99 67.982 0.131 7.41 7.92 8.78
7/2/2021 12:15:00 AM 20 68 0.131 7.42 8.24 8.77
7/2/2021 12:30:00 AM 20.01 68.018 0.131 7.43 8.61 8.78
7/2/2021 12:45:00 AM 20.01 68.018 0.131 7.43 8.66 8.78
7/2/2021 1:00:00 AM 20.01 68.018 0.131 7.42 7.61 8.76
7/2/2021 1:15:00 AM 20.01 68.018 0.131 7.43 8.94 8.77
7/2/2021 1:30:00 AM 20.02 68.036 0.131 7.44 7.91 8.78
7/2/2021 1:45:00 AM 20.02 68.036 0.131 7.44 7.9 8.76
7/2/2021 2:00:00 AM 20.04 68.07201 0.131 7.44 7.61 8.79
7/2/2021 2:15:00 AM 20.05 68.09 0.131 7.43 7.96 8.77
7/2/2021 2:30:00 AM 20.06 68.108 0.13 7.44 7.36 8.77
7/2/2021 2:45:00 AM 20.06 68.108 0.13 7.43 8.25 8.75
7/2/2021 3:00:00 AM 20.06 68.108 0.13 7.42 7.89 8.76
7/2/2021 3:15:00 AM 20.07 68.126 0.13 7.42 7.85 8.74
7/2/2021 3:30:00 AM 20.07 68.126 0.129 7.43 8.05 8.75
7/2/2021 3:45:00 AM 20.07 68.126 0.129 7.44 7.79 8.77
7/2/2021 4:00:00 AM 20.07 68.126 0.129 7.43 8.33 8.77
7/2/2021 4:15:00 AM 20.07 68.126 0.129 7.44 7.71 8.76
7/2/2021 4:30:00 AM 20.07 68.126 0.128 7.45 8.18 8.76
7/2/2021 4:45:00 AM 20.05 68.09 0.128 7.44 7.43 8.76
7/2/2021 5:00:00 AM 20.04 68.07201 0.128 7.44 7.66 8.77
7/2/2021 5:15:00 AM 20.03 68.054 0.127 7.45 7.88 8.77
7/2/2021 5:30:00 AM 20.01 68.018 0.127 7.44 8.53 8.78
7/2/2021 5:45:00 AM 20.02 68.036 0.127 7.46 7.97 8.79
7/2/2021 6:00:00 AM 20 68 0.127 7.44 8.26 8.77
7/2/2021 6:15:00 AM 20 68 0.127 7.45 7.62 8.79
7/2/2021 6:30:00 AM 19.99 67.982 0.127 7.44 7.71 8.78
7/2/2021 6:45:00 AM 20 68 0.127 7.46 8.24 8.8
7/2/2021 7:00:00 AM 19.99 67.982 0.127 7.45 7.76 8.82
7/2/2021 7:15:00 AM 19.98 67.964 0.127 7.47 8.07 8.83
7/2/2021 7:30:00 AM 20 68 0.126 7.5 7.8 8.85
7/2/2021 7:45:00 AM 20.01 68.018 0.126 7.5 7.85 8.86
7/2/2021 8:00:00 AM 20 68 0.126 7.49 7.92 8.86
7/2/2021 8:15:00 AM 20 68 0.126 7.5 7.6 8.86
7/2/2021 8:30:00 AM 19.99 67.982 0.126 7.49 9.19 8.86
7/2/2021 8:45:00 AM 20.01 68.018 0.126 7.5 7.43 8.89
7/2/2021 9:00:00 AM 19.99 67.982 0.126 7.52 8.07 8.89
7/2/2021 9:15:00 AM 19.97 67.946 0.126 7.49 7.4 8.87
7/2/2021 9:30:00 AM 19.97 67.946 0.126 7.49 9.55 8.88
7/2/2021 9:45:00 AM 19.97 67.946 0.126 7.52 7.11 8.88
7/2/2021 10:00:00 AM 19.95 67.91 0.126 7.5 6.65 8.87
7/2/2021 10:15:00 AM 19.96 67.92799 0.126 7.5 9.94 8.87
7/2/2021 10:30:00 AM 19.98 67.964 0.126 7.52 8.79 8.91
7/2/2021 10:45:00 AM 19.99 67.982 0.126 7.51 7.44 8.93
7/2/2021 11:00:00 AM 20.01 68.018 0.126 7.54 7.05 8.93
7/2/2021 11:15:00 AM 20.05 68.09 0.124 7.56 11.14 8.95
7/2/2021 11:30:00 AM 20.09 68.162 0.126 7.57 7.31 8.96
7/2/2021 11:45:00 AM 20.09 68.162 0.126 7.55 6.92 8.93
7/2/2021 12:00:00 PM 20.15 68.27 0.126 7.59 7.07 8.96
7/2/2021 12:15:00 PM 20.21 68.378 0.126 7.59 7.3 8.95
7/2/2021 12:30:00 PM 20.38 68.684 0.126 7.61 7.83 8.96
7/2/2021 12:45:00 PM 20.36 68.648 0.126 7.6 7.58 8.94
7/2/2021 1:00:00 PM 20.43 68.774 0.126 7.62 7.04 8.95
7/2/2021 1:15:00 PM 20.54 68.972 0.126 7.63 7.66 8.95
7/2/2021 1:30:00 PM 20.71 69.278 0.126 7.62 7.55 8.92
7/2/2021 1:45:00 PM 20.79 69.422 0.126 7.64 7.13 8.93
7/2/2021 2:00:00 PM 20.91 69.638 0.126 7.67 7.75 8.89
7/2/2021 2:15:00 PM 20.92 69.656 0.126 7.65 6.99 8.87
7/2/2021 2:30:00 PM 21.21 70.17799 0.126 7.64 7.8 8.86
7/2/2021 2:45:00 PM 21.25 70.25 0.126 7.65 7.51 8.82
7/2/2021 3:00:00 PM 21.34 70.412 0.126 7.64 7.19 8.81
7/2/2021 3:15:00 PM 21.36 70.448 0.126 7.65 7.65 8.78
7/2/2021 3:30:00 PM 21.39 70.502 0.126 7.65 7.28 8.79
7/2/2021 3:45:00 PM 21.41 70.538 0.126 7.65 7.49 8.78
7/2/2021 4:00:00 PM 21.43 70.574 0.126 7.64 7.46 8.77
7/2/2021 4:15:00 PM 21.45 70.61 0.126 7.62 7.35 8.76
7/2/2021 4:30:00 PM 21.51 70.718 0.126 7.64 8.16 8.75
7/2/2021 4:45:00 PM 21.54 70.772 0.126 7.64 7.63 8.73
7/2/2021 5:00:00 PM 21.53 70.754 0.126 7.6 7.27 8.7
7/2/2021 5:15:00 PM 21.47 70.646 0.126 7.57 7.49 8.66
7/2/2021 5:30:00 PM 21.43 70.574 0.126 7.56 7.56 8.63
7/2/2021 5:45:00 PM 21.42 70.556 0.126 7.55 7.6 8.67
7/2/2021 6:00:00 PM 21.4 70.52 0.126 7.55 7.04 8.62
7/2/2021 6:15:00 PM 21.33 70.394 0.127 7.51 7.32 8.63
7/2/2021 6:30:00 PM 21.3 70.34 0.127 7.52 7.5 8.65
7/2/2021 6:45:00 PM 21.2 70.16 0.127 7.55 7.7 8.62
7/2/2021 7:00:00 PM 21.04 69.872 0.127 7.53 7.86 8.63
7/2/2021 7:15:00 PM 20.91 69.638 0.127 7.54 7.92 8.67
7/2/2021 7:30:00 PM 20.79 69.422 0.127 7.52 8.25 8.67
7/2/2021 7:45:00 PM 20.67 69.206 0.127 7.49 7.46 8.67
7/2/2021 8:00:00 PM 20.56 69.008 0.127 7.47 7.55 8.67
7/2/2021 8:15:00 PM 20.46 68.828 0.127 7.47 7.33 8.68
7/2/2021 8:30:00 PM 20.36 68.648 0.127 7.47 7.39 8.7
7/2/2021 8:45:00 PM 20.26 68.468 0.127 7.45 7.73 8.69
7/2/2021 9:00:00 PM 20.18 68.324 0.127 7.46 8.06 8.72
7/2/2021 9:15:00 PM 20.06 68.108 0.128 7.44 8.16 8.72
7/2/2021 9:30:00 PM 19.99 67.982 0.127 7.45 8.75 8.75
7/2/2021 9:45:00 PM 19.9 67.82 0.128 7.44 8.46 8.74
7/2/2021 10:00:00 PM 19.81 67.658 0.128 7.39 8.58 8.74
7/2/2021 10:15:00 PM 19.77 67.586 0.128 7.43 7.98 8.76
7/2/2021 10:30:00 PM 19.71 67.478 0.128 7.42 8 8.78
7/2/2021 10:45:00 PM 19.66 67.388 0.128 7.41 7.93 8.8
7/2/2021 11:00:00 PM 19.63 67.334 0.128 7.43 8.17 8.8
7/2/2021 11:15:00 PM 19.6 67.28 0.128 7.43 7.78 8.82
7/2/2021 11:30:00 PM 19.55 67.19 0.128 7.44 8.02 8.83
7/2/2021 11:45:00 PM 19.49 67.082 0.128 7.42 9.63 8.83
7/3/2021 12:00:00 AM 19.45 67.01 0.128 7.44 7.5 8.86
7/3/2021 12:15:00 AM 19.41 66.938 0.128 7.44 7.82 8.86
7/3/2021 12:30:00 AM 19.36 66.848 0.128 7.43 8.22 8.86
7/3/2021 12:45:00 AM 19.33 66.794 0.128 7.45 7.63 8.87
7/3/2021 1:00:00 AM 19.27 66.686 0.128 7.41 7.51 8.88
7/3/2021 1:15:00 AM 19.25 66.65 0.128 7.44 7.47 8.89
7/3/2021 1:30:00 AM 19.23 66.614 0.128 7.44 7.5 8.9
7/3/2021 1:45:00 AM 19.18 66.524 0.128 7.44 7.4 8.91
7/3/2021 2:00:00 AM 19.14 66.452 0.128 7.44 7.67 8.91
7/3/2021 2:15:00 AM 19.11 66.398 0.128 7.42 8.4 8.91
7/3/2021 2:30:00 AM 19.06 66.308 0.128 7.4 7.6 8.9
7/3/2021 2:45:00 AM 19.06 66.308 0.128 7.43 8.26 8.92
7/3/2021 3:00:00 AM 19.02 66.236 0.128 7.41 8 8.92
7/3/2021 3:15:00 AM 18.98 66.164 0.128 7.39 7.47 8.9
7/3/2021 3:30:00 AM 18.99 66.182 0.128 7.43 7.62 8.93
7/3/2021 3:45:00 AM 18.97 66.146 0.128 7.43 7.52 8.93
7/3/2021 4:00:00 AM 18.94 66.092 0.128 7.42 7.43 8.95
7/3/2021 4:15:00 AM 18.92 66.056 0.129 7.43 7.44 8.96
7/3/2021 4:30:00 AM 18.88 65.984 0.129 7.42 7.78 8.94
7/3/2021 4:45:00 AM 18.85 65.93 0.129 7.43 7.02 8.94
7/3/2021 5:00:00 AM 18.84 65.912 0.129 7.44 7.9 8.97
7/3/2021 5:15:00 AM 18.8 65.84 0.129 7.42 7.96 8.95
7/3/2021 5:30:00 AM 18.8 65.84 0.129 7.43 7.42 8.96
7/3/2021 5:45:00 AM 18.76 65.768 0.129 7.41 7.04 8.94
7/3/2021 6:00:00 AM 18.76 65.768 0.129 7.43 7.41 8.98
7/3/2021 6:15:00 AM 18.7 65.66 0.129 7.39 7.12 8.95
7/3/2021 6:30:00 AM 18.72 65.696 0.129 7.44 7.48 9.01
7/3/2021 6:45:00 AM 18.72 65.696 0.129 7.43 7.29 9.02
7/3/2021 7:00:00 AM 18.71 65.67799 0.129 7.44 6.96 9.01
7/3/2021 7:15:00 AM 18.71 65.67799 0.129 7.44 6.39 9.03
7/3/2021 7:30:00 AM 18.71 65.67799 0.129 7.43 6.64 9.02
7/3/2021 7:45:00 AM 18.73 65.714 0.129 7.46 7.14 9.05
7/3/2021 8:00:00 AM 18.74 65.732 0.129 7.46 6.97 9.08
7/3/2021 8:15:00 AM 18.78 65.804 0.128 7.5 6.79 9.1
7/3/2021 8:30:00 AM 18.84 65.912 0.128 7.52 6.99 9.13
7/3/2021 8:45:00 AM 18.85 65.93 0.128 7.52 6.47 9.12
7/3/2021 9:00:00 AM 18.89 66.002 0.128 7.51 6.76 9.14
7/3/2021 9:15:00 AM 18.98 66.164 0.128 7.55 6.55 9.14
7/3/2021 9:30:00 AM 19.03 66.254 0.128 7.55 7.12 9.14
7/3/2021 9:45:00 AM 19.04 66.272 0.128 7.55 6.58 9.15
7/3/2021 10:00:00 AM 19.11 66.398 0.128 7.57 7.29 9.15
7/3/2021 10:15:00 AM 19.11 66.398 0.128 7.54 7.03 9.07
7/3/2021 10:30:00 AM 19.07 66.326 0.127 7.51 7.33 9.05
7/3/2021 10:45:00 AM 19.08 66.344 0.128 7.53 6.92 9.04
7/3/2021 11:00:00 AM 19.06 66.308 0.127 7.49 6.95 9.03
7/3/2021 11:15:00 AM 19.06 66.308 0.126 7.51 8.46 9.05
7/3/2021 11:30:00 AM 19.1 66.38 0.126 7.52 8.25 9.08
7/3/2021 11:45:00 AM 19.21 66.578 0.126 7.54 7.55 9.13
7/3/2021 12:00:00 PM 19.5 67.1 0.126 7.56 7.12 9.12
7/3/2021 12:15:00 PM 19.42 66.956 0.126 7.59 7.14 9.11
7/3/2021 12:30:00 PM 19.36 66.848 0.126 7.56 7.24 9.09
7/3/2021 12:45:00 PM 19.41 66.938 0.126 7.57 7.98 9.09
7/3/2021 1:00:00 PM 19.73 67.514 0.126 7.55 7.04 9.1
7/3/2021 1:15:00 PM 19.87 67.766 0.126 7.61 6.97 9.06
7/3/2021 1:30:00 PM 19.76 67.568 0.126 7.58 8.19 9.03
7/3/2021 1:45:00 PM 19.66 67.388 0.126 7.6 7.64 9.03
7/3/2021 2:00:00 PM 19.7 67.46 0.125 7.59 12.14 9.05
7/3/2021 2:15:00 PM 19.98 67.964 0.126 7.61 7.39 9.04
7/3/2021 2:30:00 PM 20.13 68.234 0.126 7.59 6.67 9.05
7/3/2021 2:45:00 PM 20.01 68.018 0.125 7.61 7.15 8.98
7/3/2021 3:00:00 PM 19.89 67.802 0.125 7.6 6.68 8.95
7/3/2021 3:15:00 PM 19.82 67.676 0.125 7.57 7.17 8.93
7/3/2021 3:30:00 PM 19.84 67.712 0.125 7.57 7.07 8.94
7/3/2021 3:45:00 PM 19.84 67.712 0.125 7.54 7.2 8.97
7/3/2021 4:00:00 PM 19.85 67.73 0.125 7.57 7.28 8.98
7/3/2021 4:15:00 PM 19.84 67.712 0.125 7.56 7.19 8.97
7/3/2021 4:30:00 PM 19.89 67.802 0.126 7.59 7.27 8.99
7/3/2021 4:45:00 PM 19.86 67.748 0.126 7.58 7.03 8.97
7/3/2021 5:00:00 PM 19.82 67.676 0.126 7.57 7.14 8.98
7/3/2021 5:15:00 PM 19.89 67.802 0.126 7.59 7.29 9
7/3/2021 5:30:00 PM 19.94 67.892 0.126 7.59 7.48 9.01
7/3/2021 5:45:00 PM 19.95 67.91 0.126 7.6 7.32 9
7/3/2021 6:00:00 PM 19.96 67.92799 0.126 7.61 7.53 9
7/3/2021 6:15:00 PM 19.93 67.874 0.126 7.59 7 8.96
7/3/2021 6:30:00 PM 19.94 67.892 0.126 7.56 7.16 8.93
7/3/2021 6:45:00 PM 19.9 67.82 0.126 7.51 7.37 8.85
7/3/2021 7:00:00 PM 19.89 67.802 0.126 7.5 7.17 8.85
7/3/2021 7:15:00 PM 19.88 67.784 0.126 7.48 8.24 8.85
7/3/2021 7:30:00 PM 19.83 67.694 0.126 7.47 7.52 8.84
7/3/2021 7:45:00 PM 19.79 67.622 0.126 7.46 7.61 8.84
7/3/2021 8:00:00 PM 19.75 67.55 0.126 7.46 7.54 8.86
7/3/2021 8:15:00 PM 19.73 67.514 0.125 7.47 7.68 8.86
7/3/2021 8:30:00 PM 19.7 67.46 0.125 7.46 7.45 8.84
7/3/2021 8:45:00 PM 19.67 67.406 0.125 7.46 7.81 8.85
7/3/2021 9:00:00 PM 19.64 67.352 0.125 7.45 7.91 8.83
7/3/2021 9:15:00 PM 19.6 67.28 0.125 7.44 8.21 8.84
7/3/2021 9:30:00 PM 19.54 67.172 0.126 7.42 8.25 8.83
7/3/2021 9:45:00 PM 19.53 67.154 0.126 7.44 8.97 8.86
7/3/2021 10:00:00 PM 19.46 67.028 0.126 7.43 8.9 8.85
7/3/2021 10:15:00 PM 19.41 66.938 0.126 7.43 8.86 8.89
7/3/2021 10:30:00 PM 19.36 66.848 0.126 7.43 8.37 8.88
7/3/2021 10:45:00 PM 19.29 66.722 0.126 7.41 8 8.87
7/3/2021 11:00:00 PM 19.25 66.65 0.126 7.42 8.2 8.9
7/3/2021 11:15:00 PM 19.2 66.56 0.126 7.41 8.23 8.89
7/3/2021 11:30:00 PM 19.16 66.488 0.126 7.42 8.33 8.91
7/3/2021 11:45:00 PM 19.11 66.398 0.126 7.41 8.43 8.89
7/4/2021 12:00:00 AM 19.07 66.326 0.126 7.4 8.08 8.92
7/4/2021 12:15:00 AM 19.04 66.272 0.126 7.4 7.99 8.96
7/4/2021 12:30:00 AM 19 66.2 0.126 7.4 8.37 8.95
7/4/2021 12:45:00 AM 18.96 66.128 0.126 7.41 8.46 8.95
7/4/2021 1:00:00 AM 18.92 66.056 0.125 7.41 8.01 8.97
7/4/2021 1:15:00 AM 18.83 65.894 0.125 7.36 8.09 8.96
7/4/2021 1:30:00 AM 18.82 65.876 0.125 7.39 8.5 8.94
7/4/2021 1:45:00 AM 18.81 65.858 0.125 7.4 8.29 8.98
7/4/2021 2:00:00 AM 18.77 65.786 0.125 7.4 8.26 8.97
7/4/2021 2:15:00 AM 18.74 65.732 0.125 7.4 9.66 8.99
7/4/2021 2:30:00 AM 18.7 65.66 0.125 7.39 8.3 9
7/4/2021 2:45:00 AM 18.7 65.66 0.125 7.41 7.74 9
7/4/2021 3:00:00 AM 18.67 65.606 0.125 7.4 7.94 9.02
7/4/2021 3:15:00 AM 18.64 65.552 0.125 7.39 8.22 9.02
7/4/2021 3:30:00 AM 18.61 65.498 0.125 7.39 8.9 9
7/4/2021 3:45:00 AM 18.6 65.48 0.125 7.41 7.95 9.01
7/4/2021 4:00:00 AM 18.52 65.336 0.125 7.38 8.32 9.04
7/4/2021 4:15:00 AM 18.51 65.318 0.125 7.41 8.08 9.02
7/4/2021 4:30:00 AM 18.46 65.228 0.125 7.39 7.93 9.06
7/4/2021 4:45:00 AM 18.39 65.102 0.125 7.37 8.1 9.05
7/4/2021 5:00:00 AM 18.32 64.976 0.125 7.37 7.87 9.05
7/4/2021 5:15:00 AM 18.33 64.994 0.125 7.39 8.52 9.08
7/4/2021 5:30:00 AM 18.24 64.832 0.125 7.37 8.1 9.07
7/4/2021 5:45:00 AM 18.22 64.796 0.125 7.38 8 9.07
7/4/2021 6:00:00 AM 18.19 64.742 0.125 7.39 8.37 9.1
7/4/2021 6:15:00 AM 18.18 64.724 0.125 7.4 8.13 9.13
7/4/2021 6:30:00 AM 18.15 64.67 0.125 7.4 8.05 9.14
7/4/2021 6:45:00 AM 18.09 64.562 0.125 7.37 8.15 9.13
7/4/2021 7:00:00 AM 18.11 64.598 0.125 7.42 8.02 9.17
7/4/2021 7:15:00 AM 18.07 64.526 0.125 7.39 7.76 9.18
7/4/2021 7:30:00 AM 18.1 64.58 0.125 7.43 8.06 9.22
7/4/2021 7:45:00 AM 18.07 64.526 0.125 7.4 8.2 9.23
7/4/2021 8:00:00 AM 18.08 64.544 0.125 7.4 7.68 9.23
7/4/2021 8:15:00 AM 18.1 64.58 0.125 7.4 8.51 9.23
7/4/2021 8:30:00 AM 18.17 64.706 0.125 7.43 7.98 9.21
7/4/2021 8:45:00 AM 18.22 64.796 0.125 7.43 8 9.22
7/4/2021 9:00:00 AM 18.3 64.94 0.125 7.44 7.82 9.18
7/4/2021 9:15:00 AM 18.43 65.174 0.125 7.48 8.03 9.22
7/4/2021 9:30:00 AM 18.49 65.282 0.125 7.47 8.06 9.2
7/4/2021 9:45:00 AM 18.55 65.39 0.125 7.47 7.89 9.2
7/4/2021 10:00:00 AM 18.66 65.588 0.125 7.47 8.03 9.17
7/4/2021 10:15:00 AM 18.81 65.858 0.125 7.51 7.68 9.2
7/4/2021 10:30:00 AM 18.9 66.02 0.125 7.49 7.87 9.15
7/4/2021 10:45:00 AM 19.02 66.236 0.125 7.52 7.94 9.18
7/4/2021 11:00:00 AM 19.18 66.524 0.125 7.52 8.34 9.18
7/4/2021 11:15:00 AM 19.36 66.848 0.125 7.57 8.07 9.16
7/4/2021 11:30:00 AM 19.48 67.064 0.125 7.54 8.71 9.11
7/4/2021 11:45:00 AM 19.64 67.352 0.125 7.55 7.88 9.13
7/4/2021 12:00:00 PM 19.87 67.766 0.125 7.56 7.81 9.09
7/4/2021 12:15:00 PM 19.93 67.874 0.125 7.52 7.56 9.06
7/4/2021 12:30:00 PM 20.06 68.108 0.125 7.53 7.89 9.05
7/4/2021 12:45:00 PM 20.25 68.45 0.125 7.56 7.86 9.03
7/4/2021 1:00:00 PM 20.44 68.792 0.125 7.58 7.99 8.98
7/4/2021 1:15:00 PM 20.6 69.08 0.125 7.6 7.71 8.98
7/4/2021 1:30:00 PM 20.57 69.026 0.125 7.57 7.86 8.92
7/4/2021 1:45:00 PM 20.44 68.792 0.125 7.55 8.12 8.94
7/4/2021 2:00:00 PM 20.59 69.062 0.125 7.58 8.38 8.94
7/4/2021 2:15:00 PM 20.83 69.494 0.126 7.54 8.01 8.91
7/4/2021 2:30:00 PM 20.98 69.764 0.126 7.6 7.79 8.9
7/4/2021 2:45:00 PM 20.9 69.62 0.126 7.58 8.08 8.87
7/4/2021 3:00:00 PM 21.04 69.872 0.126 7.62 8.18 8.9
7/4/2021 3:15:00 PM 21.15 70.07 0.126 7.59 8.11 8.87
7/4/2021 3:30:00 PM 21.21 70.17799 0.126 7.6 8.25 8.85
7/4/2021 3:45:00 PM 21.28 70.304 0.126 7.61 7.98 8.82
7/4/2021 4:00:00 PM 21.4 70.52 0.126 7.58 7.68 8.81
7/4/2021 4:15:00 PM 21.47 70.646 0.126 7.59 8.2 8.8
7/4/2021 4:30:00 PM 21.52 70.736 0.126 7.61 7.52 8.77
7/4/2021 4:45:00 PM 21.6 70.88 0.126 7.54 7.65 8.77
7/4/2021 5:00:00 PM 21.56 70.808 0.126 7.57 7.8 8.74
7/4/2021 5:15:00 PM 21.53 70.754 0.126 7.59 7.59 8.73
7/4/2021 5:30:00 PM 21.53 70.754 0.126 7.57 8.06 8.74
7/4/2021 5:45:00 PM 21.47 70.646 0.126 7.56 7.69 8.73
7/4/2021 6:00:00 PM 21.44 70.592 0.127 7.54 7.49 8.72
7/4/2021 6:15:00 PM 21.42 70.556 0.127 7.54 7.68 8.72
7/4/2021 6:30:00 PM 21.35 70.43 0.127 7.52 7.62 8.7
7/4/2021 6:45:00 PM 21.29 70.32201 0.127 7.5 7.51 8.68
7/4/2021 7:00:00 PM 21.21 70.17799 0.127 7.49 17.32 8.66
7/4/2021 7:15:00 PM 21.12 70.016 0.127 7.47 7.84 8.64
7/4/2021 7:30:00 PM 21.03 69.854 0.127 7.46 7.28 8.63
7/4/2021 7:45:00 PM 20.95 69.71 0.127 7.46 7.53 8.67
7/4/2021 8:00:00 PM 20.87 69.566 0.127 7.45 7.3 8.63
7/4/2021 8:15:00 PM 20.78 69.404 0.127 7.45 7.48 8.66
7/4/2021 8:30:00 PM 20.67 69.206 0.127 7.42 7.59 8.67
7/4/2021 8:45:00 PM 20.58 69.044 0.127 7.44 9.95 8.68
7/4/2021 9:00:00 PM 20.46 68.828 0.127 7.41 7.61 8.66
7/4/2021 9:15:00 PM 20.39 68.702 0.127 7.42 7.52 8.72
7/4/2021 9:30:00 PM 20.3 68.54 0.128 7.4 7.89 8.72
7/4/2021 9:45:00 PM 20.22 68.396 0.128 7.43 7.63 8.74
7/4/2021 10:00:00 PM 20.15 68.27 0.128 7.43 7.73 8.73
7/4/2021 10:15:00 PM 20.06 68.108 0.128 7.4 7.59 8.76
7/4/2021 10:30:00 PM 19.99 67.982 0.128 7.41 7.4 8.77
7/4/2021 10:45:00 PM 19.92 67.856 0.128 7.41 7.38 8.79
7/4/2021 11:00:00 PM 19.84 67.712 0.128 7.4 7.49 8.8
7/4/2021 11:15:00 PM 19.77 67.586 0.128 7.4 7.67 8.79
7/4/2021 11:30:00 PM 19.68 67.424 0.128 7.38 7.24 8.81
7/4/2021 11:45:00 PM 19.62 67.316 0.128 7.39 8.72 8.84
7/5/2021 12:00:00 AM 19.56 67.208 0.128 7.41 7.13 8.85
7/5/2021 12:15:00 AM 19.5 67.1 0.128 7.41 6.93 8.86
7/5/2021 12:30:00 AM 19.43 66.974 0.128 7.39 6.89 8.89
7/5/2021 12:45:00 AM 19.37 66.866 0.128 7.39 7.28 8.88
7/5/2021 1:00:00 AM 19.33 66.794 0.128 7.41 7.22 8.92
7/5/2021 1:15:00 AM 19.26 66.668 0.128 7.41 7.34 8.91
7/5/2021 1:30:00 AM 19.19 66.542 0.128 7.4 6.96 8.93
7/5/2021 1:45:00 AM 19.13 66.434 0.128 7.4 6.89 8.94
7/5/2021 2:00:00 AM 19.05 66.29 0.129 7.39 6.77 8.95
7/5/2021 2:15:00 AM 19.02 66.236 0.128 7.41 7 8.96
7/5/2021 2:30:00 AM 18.94 66.092 0.129 7.39 6.91 8.98
7/5/2021 2:45:00 AM 18.9 66.02 0.129 7.4 6.69 8.97
7/5/2021 3:00:00 AM 18.87 65.966 0.129 7.41 6.88 8.98
7/5/2021 3:15:00 AM 18.79 65.82201 0.129 7.37 6.59 8.98
7/5/2021 3:30:00 AM 18.75 65.75 0.129 7.39 6.98 8.98
7/5/2021 3:45:00 AM 18.71 65.67799 0.129 7.41 7 8.98
7/5/2021 4:00:00 AM 18.66 65.588 0.129 7.4 6.59 9.02
7/5/2021 4:15:00 AM 18.62 65.516 0.129 7.41 6.61 9.03
7/5/2021 4:30:00 AM 18.55 65.39 0.129 7.38 6.66 9.05
7/5/2021 4:45:00 AM 18.5 65.3 0.129 7.38 6.88 9.05
7/5/2021 5:00:00 AM 18.47 65.246 0.129 7.4 6.76 9.07
7/5/2021 5:15:00 AM 18.41 65.138 0.129 7.38 6.65 9.07
7/5/2021 5:30:00 AM 18.4 65.12 0.129 7.4 6.81 9.09
7/5/2021 5:45:00 AM 18.35 65.03 0.129 7.39 6.73 9.07
7/5/2021 6:00:00 AM 18.33 64.994 0.129 7.39 6.71 9.1
7/5/2021 6:15:00 AM 18.28 64.904 0.129 7.38 6.72 9.08
7/5/2021 6:30:00 AM 18.29 64.922 0.129 7.4 9.65 9.12
7/5/2021 6:45:00 AM 18.24 64.832 0.129 7.36 20.16 9.11
7/5/2021 7:00:00 AM 18.26 64.868 0.129 7.41 6.87 9.17
7/5/2021 7:15:00 AM 18.22 64.796 0.129 7.39 6.38 9.17
7/5/2021 7:30:00 AM 18.23 64.814 0.129 7.42 6.61 9.2
7/5/2021 7:45:00 AM 18.22 64.796 0.129 7.43 6.59 9.21
7/5/2021 8:00:00 AM 18.22 64.796 0.129 7.44 6.4 9.24
7/5/2021 8:15:00 AM 18.22 64.796 0.129 7.43 6.09 9.25
7/5/2021 8:30:00 AM 18.24 64.832 0.129 7.43 6.38 9.25
7/5/2021 8:45:00 AM 18.26 64.868 0.129 7.45 6.18 9.27
7/5/2021 9:00:00 AM 18.3 64.94 0.129 7.44 6.48 9.26
7/5/2021 9:15:00 AM 18.42 65.156 0.129 7.47 6.13 9.28
7/5/2021 9:30:00 AM 18.55 65.39 0.129 7.5 6.3 9.26
7/5/2021 9:45:00 AM 18.65 65.57 0.129 7.49 5.98 9.28
7/5/2021 10:00:00 AM 18.78 65.804 0.129 7.5 6.19 9.28
7/5/2021 10:15:00 AM 18.92 66.056 0.129 7.51 6.25 9.25
7/5/2021 10:30:00 AM 19.05 66.29 0.129 7.53 5.82 9.24
7/5/2021 10:45:00 AM 19.17 66.506 0.129 7.53 5.8 9.2
7/5/2021 11:00:00 AM 19.31 66.758 0.129 7.53 6.12 9.2
7/5/2021 11:15:00 AM 19.5 67.1 0.13 7.55 6.34 9.2
7/5/2021 11:30:00 AM 19.69 67.442 0.13 7.55 5.8 9.18
7/5/2021 11:45:00 AM 19.86 67.748 0.13 7.55 5.75 9.16
7/5/2021 12:00:00 PM 20.06 68.108 0.13 7.57 6.1 9.14
7/5/2021 12:15:00 PM 20.26 68.468 0.13 7.56 6.25 9.13
7/5/2021 12:30:00 PM 20.43 68.774 0.13 7.6 6.1 9.09
7/5/2021 12:45:00 PM 20.65 69.17 0.13 7.63 5.95 9.07
7/5/2021 1:00:00 PM 20.77 69.386 0.13 7.62 6.22 9.04
7/5/2021 1:15:00 PM 20.98 69.764 0.13 7.62 5.73 8.99
7/5/2021 1:30:00 PM 21.1 69.98 0.13 7.6 6.19 8.99
7/5/2021 1:45:00 PM 21.28 70.304 0.13 7.64 6.19 8.97
7/5/2021 2:00:00 PM 21.35 70.43 0.13 7.64 5.78 8.94
7/5/2021 2:15:00 PM 21.47 70.646 0.13 7.63 6.09 8.91
7/5/2021 2:30:00 PM 21.55 70.79 0.13 7.65 6.14 8.91
7/5/2021 2:45:00 PM 21.63 70.934 0.13 7.61 5.84 8.9
7/5/2021 3:00:00 PM 21.72 71.096 0.13 7.64 5.95 8.88
7/5/2021 3:15:00 PM 21.78 71.204 0.13 7.66 6.21 8.83
7/5/2021 3:30:00 PM 21.84 71.312 0.13 7.62 6.05 8.81
7/5/2021 3:45:00 PM 21.96 71.528 0.13 7.66 5.76 8.82
7/5/2021 4:00:00 PM 22.02 71.636 0.13 7.64 5.96 8.79
7/5/2021 4:15:00 PM 22.09 71.762 0.13 7.66 6.06 8.77
7/5/2021 4:30:00 PM 22.14 71.852 0.13 7.61 5.87 8.75
7/5/2021 4:45:00 PM 22.21 71.978 0.131 7.63 6.1 8.73
7/5/2021 5:00:00 PM 22.23 72.014 0.131 7.58 5.6 8.71
7/5/2021 5:15:00 PM 22.25 72.05 0.131 7.63 5.68 8.68
7/5/2021 5:30:00 PM 22.24 72.032 0.131 7.6 5.63 8.69
7/5/2021 5:45:00 PM 22.23 72.014 0.131 7.58 6.11 8.66
7/5/2021 6:00:00 PM 22.2 71.96 0.131 7.56 5.96 8.64
7/5/2021 6:15:00 PM 22.18 71.924 0.131 7.58 6.09 8.62
7/5/2021 6:30:00 PM 22.11 71.798 0.131 7.54 6.04 8.62
7/5/2021 6:45:00 PM 22.07 71.726 0.131 7.54 5.81 8.6
7/5/2021 7:00:00 PM 21.97 71.546 0.131 7.48 6.06 8.54
7/5/2021 7:15:00 PM 21.93 71.474 0.131 7.47 6.1 8.52
7/5/2021 7:30:00 PM 21.89 71.402 0.132 7.51 5.87 8.54
7/5/2021 7:45:00 PM 21.79 71.222 0.132 7.48 6.53 8.48
7/5/2021 8:00:00 PM 21.7 71.06 0.132 7.44 5.57 8.51
7/5/2021 8:15:00 PM 21.63 70.934 0.132 7.44 6.4 8.5
7/5/2021 8:30:00 PM 21.56 70.808 0.132 7.44 5.8 8.5
7/5/2021 8:45:00 PM 21.46 70.628 0.132 7.42 5.58 8.49
7/5/2021 9:00:00 PM 21.36 70.448 0.132 7.37 5.8 8.48
7/5/2021 9:15:00 PM 21.32 70.376 0.132 7.43 5.91 8.5
7/5/2021 9:30:00 PM 21.2 70.16 0.132 7.4 6.02 8.45
7/5/2021 9:45:00 PM 21.12 70.016 0.132 7.39 6.23 8.52
7/5/2021 10:00:00 PM 21.05 69.89 0.133 7.4 6.09 8.55
7/5/2021 10:15:00 PM 20.98 69.764 0.133 7.4 6.58 8.57
7/5/2021 10:30:00 PM 20.9 69.62 0.133 7.39 9.18 8.53
7/5/2021 10:45:00 PM 20.84 69.512 0.133 7.37 6.65 8.58
7/5/2021 11:00:00 PM 20.79 69.422 0.133 7.38 5.85 8.59
7/5/2021 11:15:00 PM 20.7 69.26 0.133 7.36 5.73 8.53
7/5/2021 11:30:00 PM 20.66 69.188 0.133 7.37 5.96 8.58
7/5/2021 11:45:00 PM 20.61 69.098 0.133 7.37 6.36 8.6
7/6/2021 12:00:00 AM 20.55 68.99 0.133 7.37 5.79 8.59
7/6/2021 12:15:00 AM 20.51 68.918 0.133 7.39 6.35 8.64
7/6/2021 12:30:00 AM 20.47 68.846 0.133 7.36 5.61 8.64
7/6/2021 12:45:00 AM 20.4 68.72 0.133 7.35 5.85 8.64
7/6/2021 1:00:00 AM 20.37 68.666 0.133 7.37 6.3 8.66
7/6/2021 1:15:00 AM 20.32 68.576 0.133 7.36 6.68 8.64
7/6/2021 1:30:00 AM 20.29 68.522 0.133 7.37 6.06 8.67
7/6/2021 1:45:00 AM 20.23 68.414 0.133 7.36 5.65 8.67
7/6/2021 2:00:00 AM 20.23 68.414 0.133 7.38 5.83 8.69
7/6/2021 2:15:00 AM 20.18 68.324 0.133 7.38 6.15 8.67
7/6/2021 2:30:00 AM 20.14 68.252 0.133 7.34 6.48 8.68
7/6/2021 2:45:00 AM 20.13 68.234 0.133 7.38 5.84 8.67
7/6/2021 3:00:00 AM 20.08 68.144 0.134 7.35 6.05 8.63
7/6/2021 3:15:00 AM 20.05 68.09 0.133 7.35 7.71 8.67
7/6/2021 3:30:00 AM 20.03 68.054 0.134 7.36 5.79 8.69
7/6/2021 3:45:00 AM 20.03 68.054 0.134 7.37 6.72 8.73
7/6/2021 4:00:00 AM 19.96 67.92799 0.134 7.34 6.37 8.66
7/6/2021 4:15:00 AM 19.93 67.874 0.134 7.33 5.87 8.67
7/6/2021 4:30:00 AM 19.94 67.892 0.134 7.36 5.8 8.72
7/6/2021 4:45:00 AM 19.91 67.838 0.134 7.34 5.73 8.73
7/6/2021 5:00:00 AM 19.83 67.694 0.134 7.32 5.85 8.72
7/6/2021 5:15:00 AM 19.84 67.712 0.134 7.37 5.68 8.74
7/6/2021 5:30:00 AM 19.8 67.64 0.134 7.36 5.63 8.71
7/6/2021 5:45:00 AM 19.78 67.604 0.134 7.37 6.1 8.75
7/6/2021 6:00:00 AM 19.76 67.568 0.134 7.34 6.38 8.76
7/6/2021 6:15:00 AM 19.74 67.532 0.134 7.38 5.36 8.78
7/6/2021 6:30:00 AM 19.73 67.514 0.134 7.39 5.4 8.8
7/6/2021 6:45:00 AM 19.71 67.478 0.134 7.39 5.28 8.83
7/6/2021 7:00:00 AM 19.71 67.478 0.134 7.39 5.6 8.84
7/6/2021 7:15:00 AM 19.66 67.388 0.134 7.36 5.26 8.82
7/6/2021 7:30:00 AM 19.71 67.478 0.134 7.41 5.63 8.89
7/6/2021 7:45:00 AM 19.72 67.496 0.134 7.42 5.81 8.9
7/6/2021 8:00:00 AM 19.75 67.55 0.134 7.41 5.91 8.93
7/6/2021 8:15:00 AM 19.77 67.586 0.134 7.4 5.22 8.93
7/6/2021 8:30:00 AM 19.88 67.784 0.134 7.42 5.46 8.94
7/6/2021 8:45:00 AM 20 68 0.134 7.49 5.91 8.95
7/6/2021 9:00:00 AM 20.11 68.198 0.134 7.51 5.45 8.95
7/6/2021 9:15:00 AM 20.22 68.396 0.134 7.5 5.7 8.9
7/6/2021 9:30:00 AM 20.35 68.63 0.134 7.52 5.62 8.94
7/6/2021 9:45:00 AM 20.46 68.828 0.135 7.51 4.9 8.94
7/6/2021 10:00:00 AM 20.6 69.08 0.134 7.52 5.48 8.89
7/6/2021 10:15:00 AM 20.8 69.44 0.134 7.57 5.04 8.89
7/6/2021 10:30:00 AM 20.93 69.674 0.134 7.57 6.21 8.89
7/6/2021 10:45:00 AM 21.08 69.944 0.134 7.58 4.78 8.91
7/6/2021 11:00:00 AM 21.23 70.214 0.134 7.57 5.28 8.87
7/6/2021 11:15:00 AM 21.43 70.574 0.134 7.61 5.3 8.87
7/6/2021 11:30:00 AM 21.63 70.934 0.134 7.63 5.3 8.88
7/6/2021 11:45:00 AM 21.8 71.24 0.134 7.59 5.9 8.84
7/6/2021 12:00:00 PM 22.01 71.618 0.097 7.65 6.36 8.84
7/6/2021 12:15:00 PM 22.12 71.816 0.134 7.63 4.88 8.76
7/6/2021 12:30:00 PM 22.29 72.122 0.135 7.64 5.43 8.81
7/6/2021 12:45:00 PM 22.48 72.464 0.134 7.64 5.27 8.79
7/6/2021 1:00:00 PM 22.68 72.824 0.135 7.69 4.87 8.78
7/6/2021 1:15:00 PM 22.73 72.914 0.134 7.66 5.18 8.73
7/6/2021 1:30:00 PM 22.71 72.878 0.135 7.64 4.93 8.73
7/6/2021 1:45:00 PM 22.83 73.094 0.134 7.65 4.72 8.72
7/6/2021 2:00:00 PM 23.03 73.454 0.134 7.69 4.74 8.69
7/6/2021 2:15:00 PM 23.12 73.616 0.135 7.64 5.12 8.7
7/6/2021 2:30:00 PM 23.2 73.76 0.135 7.66 5.5 8.66
7/6/2021 2:45:00 PM 23.3 73.94 0.135 7.67 5 8.64
7/6/2021 3:00:00 PM 23.31 73.958 0.135 7.69 5.68 8.59
7/6/2021 3:15:00 PM 23.31 73.958 0.135 7.68 4.88 8.6
7/6/2021 3:30:00 PM 23.38 74.084 0.135 7.69 5.6 8.58
7/6/2021 3:45:00 PM 23.33 73.994 0.135 7.63 4.61 8.51
7/6/2021 4:00:00 PM 23.14 73.652 0.134 7.61 5.4 8.39
7/6/2021 4:15:00 PM 22.97 73.346 0.134 7.51 5.85 8.32
7/6/2021 4:30:00 PM 22.87 73.166 0.134 7.51 5.31 8.35
7/6/2021 4:45:00 PM 22.86 73.148 0.135 7.56 5.24 8.44
7/6/2021 5:00:00 PM 22.83 73.094 0.135 7.59 5.14 8.45
7/6/2021 5:15:00 PM 22.79 73.022 0.135 7.58 4.77 8.5
7/6/2021 5:30:00 PM 22.78 73.004 0.135 7.58 4.82 8.48
7/6/2021 5:45:00 PM 22.79 73.022 0.135 7.6 4.49 8.55
7/6/2021 6:00:00 PM 22.79 73.022 0.135 7.61 5.31 8.55
7/6/2021 6:15:00 PM 22.74 72.932 0.135 7.6 4.87 8.54
7/6/2021 6:30:00 PM 22.64 72.752 0.136 7.57 5.3 8.51
7/6/2021 6:45:00 PM 22.57 72.626 0.136 7.57 4.65 8.47
7/6/2021 7:00:00 PM 22.45 72.41 0.136 7.53 5.05 8.44
7/6/2021 7:15:00 PM 22.39 72.302 0.136 7.5 4.62 8.43
7/6/2021 7:30:00 PM 22.32 72.176 0.136 7.5 4.87 8.36
7/6/2021 7:45:00 PM 22.27 72.086 0.136 7.48 4.7 8.37
7/6/2021 8:00:00 PM 22.25 72.05 0.136 7.49 4.86 8.41
7/6/2021 8:15:00 PM 22.17 71.906 0.136 7.45 4.62 8.37
7/6/2021 8:30:00 PM 22.13 71.834 0.136 7.46 5.06 8.35
7/6/2021 8:45:00 PM 22.06 71.708 0.137 7.45 4.88 8.36
7/6/2021 9:00:00 PM 22 71.6 0.137 7.45 5.2 8.36
7/6/2021 9:15:00 PM 21.91 71.438 0.137 7.41 4.94 8.36
7/6/2021 9:30:00 PM 21.85 71.33 0.137 7.4 4.72 8.36
7/6/2021 9:45:00 PM 21.78 71.204 0.137 7.39 4.95 8.36
7/6/2021 10:00:00 PM 21.72 71.096 0.137 7.39 4.92 8.36
7/6/2021 10:15:00 PM 21.65 70.97 0.137 7.37 4.73 8.34
7/6/2021 10:30:00 PM 21.6 70.88 0.137 7.39 4.93 8.38
7/6/2021 10:45:00 PM 21.52 70.736 0.137 7.37 4.89 8.41
7/6/2021 11:00:00 PM 21.46 70.628 0.137 7.38 5.26 8.43
7/6/2021 11:15:00 PM 21.4 70.52 0.137 7.38 5.07 8.42
7/6/2021 11:30:00 PM 21.35 70.43 0.138 7.39 4.95 8.41
7/6/2021 11:45:00 PM 21.28 70.304 0.138 7.39 4.57 8.45
7/7/2021 12:00:00 AM 21.22 70.196 0.138 7.38 5.21 8.46
7/7/2021 12:15:00 AM 21.15 70.07 0.138 7.37 5.07 8.45
7/7/2021 12:30:00 AM 21.11 69.998 0.138 7.38 4.48 8.49
7/7/2021 12:45:00 AM 21.06 69.908 0.138 7.37 4.51 8.49
7/7/2021 1:00:00 AM 21 69.8 0.138 7.36 4.49 8.49
7/7/2021 1:15:00 AM 20.95 69.71 0.138 7.38 4.81 8.49
7/7/2021 1:30:00 AM 20.89 69.602 0.138 7.37 5.03 8.52
7/7/2021 1:45:00 AM 20.83 69.494 0.138 7.36 4.9 8.49
7/7/2021 2:00:00 AM 20.79 69.422 0.138 7.36 9.83 8.52
7/7/2021 2:15:00 AM 20.76 69.368 0.138 7.38 4.78 8.52
7/7/2021 2:30:00 AM 20.72 69.296 0.138 7.37 4.66 8.52
7/7/2021 2:45:00 AM 20.7 69.26 0.138 7.38 4.85 8.56
7/7/2021 3:00:00 AM 20.65 69.17 0.138 7.37 4.24 8.56
7/7/2021 3:15:00 AM 20.62 69.116 0.138 7.37 4.42 8.55
7/7/2021 3:30:00 AM 20.59 69.062 0.138 7.37 4.75 8.54
7/7/2021 3:45:00 AM 20.53 68.954 0.138 7.34 5.62 8.54
7/7/2021 4:00:00 AM 20.53 68.954 0.138 7.38 4.61 8.6
7/7/2021 4:15:00 AM 20.5 68.9 0.138 7.39 4.52 8.6
7/7/2021 4:30:00 AM 20.46 68.828 0.138 7.38 4.71 8.61
7/7/2021 4:45:00 AM 20.45 68.81 0.138 7.4 4.56 8.62
7/7/2021 5:00:00 AM 20.42 68.756 0.138 7.4 5.27 8.63
7/7/2021 5:15:00 AM 20.4 68.72 0.138 7.39 4.68 8.61
7/7/2021 5:30:00 AM 20.37 68.666 0.138 7.38 4.61 8.58
7/7/2021 5:45:00 AM 20.34 68.612 0.138 7.38 5.18 8.59
7/7/2021 6:00:00 AM 20.33 68.594 0.138 7.37 5.22 8.61
7/7/2021 6:15:00 AM 20.31 68.558 0.139 7.38 4.77 8.64
7/7/2021 6:30:00 AM 20.31 68.558 0.139 7.41 4.24 8.65
7/7/2021 6:45:00 AM 20.29 68.522 0.139 7.39 5.03 8.67
7/7/2021 7:00:00 AM 20.28 68.504 0.139 7.42 5.07 8.71
7/7/2021 7:15:00 AM 20.27 68.486 0.139 7.42 4.53 8.72
7/7/2021 7:30:00 AM 20.29 68.522 0.139 7.43 5.33 8.77
7/7/2021 7:45:00 AM 20.27 68.486 0.139 7.44 4.58 8.78
7/7/2021 8:00:00 AM 20.28 68.504 0.139 7.46 4.52 8.8
7/7/2021 8:15:00 AM 20.3 68.54 0.139 7.46 4.15 8.79
7/7/2021 8:30:00 AM 20.3 68.54 0.139 7.45 4.37 8.86
7/7/2021 8:45:00 AM 20.34 68.612 0.139 7.49 4.26 8.86
7/7/2021 9:00:00 AM 20.37 68.666 0.139 7.49 4.38 8.89
7/7/2021 9:15:00 AM 20.41 68.738 0.139 7.48 4.18 8.94
7/7/2021 9:30:00 AM 20.46 68.828 0.138 7.51 4.4 8.89
7/7/2021 9:45:00 AM 20.52 68.936 0.138 7.47 4.24 8.91
7/7/2021 10:00:00 AM 20.67 69.206 0.138 7.49 4.41 8.91
7/7/2021 10:15:00 AM 20.86 69.548 0.138 7.54 4.13 8.91
7/7/2021 10:30:00 AM 20.97 69.746 0.138 7.49 4.18 8.87
7/7/2021 10:45:00 AM 21.16 70.088 0.138 7.56 4 8.91
7/7/2021 11:00:00 AM 21.33 70.394 0.138 7.59 4.29 8.88
7/7/2021 11:15:00 AM 21.5 70.7 0.138 7.6 4.07 8.91
7/7/2021 11:30:00 AM 21.59 70.862 0.138 7.6 4.35 8.91
7/7/2021 11:45:00 AM 21.65 70.97 0.138 7.58 3.96 8.83
7/7/2021 12:00:00 PM 21.85 71.33 0.138 7.58 4.27 8.82
7/7/2021 12:15:00 PM 22.17 71.906 0.138 7.64 4.72 8.85
7/7/2021 12:30:00 PM 22.28 72.104 0.138 7.63 4.28 8.81
7/7/2021 12:45:00 PM 22.48 72.464 0.138 7.65 4.08 8.84
7/7/2021 1:00:00 PM 22.67 72.806 0.138 7.74 3.96 8.82
7/7/2021 1:15:00 PM 22.85 73.13 0.138 7.69 4.11 8.8
7/7/2021 1:30:00 PM 23.02 73.436 0.138 7.73 4.46 8.78
7/7/2021 1:45:00 PM 23.15 73.67 0.138 7.7 4.35 8.74
7/7/2021 2:00:00 PM 23.31 73.958 0.138 7.74 4.28 8.7
7/7/2021 2:15:00 PM 23.42 74.156 0.138 7.75 4.16 8.72
7/7/2021 2:30:00 PM 23.45 74.21 0.138 7.75 4.01 8.69
7/7/2021 2:45:00 PM 23.54 74.372 0.138 7.74 4.07 8.68
7/7/2021 3:00:00 PM 23.58 74.444 0.138 7.77 4.04 8.65
7/7/2021 3:15:00 PM 23.55 74.39 0.138 7.74 4.15 8.63
7/7/2021 3:30:00 PM 23.59 74.462 0.139 7.74 4.06 8.61
7/7/2021 3:45:00 PM 23.56 74.408 0.139 7.71 4.12 8.6
7/7/2021 4:00:00 PM 23.53 74.354 0.139 7.73 4.01 8.56
7/7/2021 4:15:00 PM 23.57 74.426 0.139 7.71 4.1 8.59
7/7/2021 4:30:00 PM 23.59 74.462 0.139 7.71 3.88 8.56
7/7/2021 4:45:00 PM 23.63 74.534 0.139 7.7 4.23 8.55
7/7/2021 5:00:00 PM 23.66 74.588 0.139 7.71 3.93 8.53
7/7/2021 5:15:00 PM 23.66 74.588 0.139 7.69 4.31 8.52
7/7/2021 5:30:00 PM 23.62 74.516 0.139 7.64 4.01 8.46
7/7/2021 5:45:00 PM 23.64 74.552 0.139 7.67 4.06 8.46
7/7/2021 6:00:00 PM 23.6 74.48 0.139 7.64 3.85 8.45
7/7/2021 6:15:00 PM 23.53 74.354 0.14 7.61 4.32 8.4
7/7/2021 6:30:00 PM 23.5 74.3 0.14 7.62 4.16 8.4
7/7/2021 6:45:00 PM 23.41 74.138 0.14 7.57 4.7 8.34
7/7/2021 7:00:00 PM 23.35 74.03 0.14 7.56 4.21 8.35
7/7/2021 7:15:00 PM 23.28 73.904 0.14 7.53 4.71 8.29
7/7/2021 7:30:00 PM 23.22 73.796 0.14 7.51 4.25 8.29
7/7/2021 7:45:00 PM 23.17 73.706 0.14 7.47 3.95 8.27
7/7/2021 8:00:00 PM 23.07 73.526 0.14 7.44 4.52 8.15
7/7/2021 8:15:00 PM 22.98 73.364 0.141 7.41 4.27 8.14
7/7/2021 8:30:00 PM 22.99 73.382 0.141 7.46 4.68 8.16
7/7/2021 8:45:00 PM 22.93 73.274 0.141 7.43 4.19 8.14
7/7/2021 9:00:00 PM 22.84 73.112 0.141 7.41 4.08 8.15
7/7/2021 9:15:00 PM 22.78 73.004 0.141 7.42 4.5 8.16
7/7/2021 9:30:00 PM 22.69 72.842 0.102 7.4 4.94 8.16
7/7/2021 9:45:00 PM 22.56 72.608 0.141 7.43 4.8 8.15
7/7/2021 10:00:00 PM 22.45 72.41 0.14 7.45 4.77 8.22
7/7/2021 10:15:00 PM 22.31 72.158 0.111 7.4 4.97 8.22
7/7/2021 10:30:00 PM 22.2 71.96 0.141 7.45 4.53 8.23
7/7/2021 10:45:00 PM 22.06 71.708 0.14 7.43 4.43 8.27
7/7/2021 11:00:00 PM 21.96 71.528 0.14 7.44 4.38 8.3
7/7/2021 11:15:00 PM 21.85 71.33 0.139 7.43 4.74 8.3
7/7/2021 11:30:00 PM 21.74 71.132 0.139 7.42 4.72 8.29
7/7/2021 11:45:00 PM 21.65 70.97 0.139 7.42 4.61 8.35
7/8/2021 12:00:00 AM 21.57 70.826 0.139 7.44 4.96 8.36
7/8/2021 12:15:00 AM 21.49 70.682 0.14 7.42 4.59 8.38
7/8/2021 12:30:00 AM 21.41 70.538 0.14 7.42 4.66 8.41
7/8/2021 12:45:00 AM 21.36 70.448 0.139 7.44 5.41 8.41
7/8/2021 1:00:00 AM 21.29 70.32201 0.139 7.43 5.65 8.43
7/8/2021 1:15:00 AM 21.21 70.17799 0.139 7.42 5.36 8.42
7/8/2021 1:30:00 AM 21.16 70.088 0.139 7.43 5.37 8.45
7/8/2021 1:45:00 AM 21.12 70.016 0.139 7.44 6.2 8.46
7/8/2021 2:00:00 AM 21.05 69.89 0.139 7.39 4.94 8.46
7/8/2021 2:15:00 AM 21 69.8 0.139 7.43 4.71 8.46
7/8/2021 2:30:00 AM 20.95 69.71 0.139 7.44 4.91 8.47
7/8/2021 2:45:00 AM 20.9 69.62 0.138 7.43 4.9 8.5
7/8/2021 3:00:00 AM 20.84 69.512 0.139 7.41 4.28 8.5
7/8/2021 3:15:00 AM 20.81 69.458 0.139 7.43 4.36 8.51
7/8/2021 3:30:00 AM 20.76 69.368 0.138 7.41 4.29 8.52
7/8/2021 3:45:00 AM 20.73 69.314 0.138 7.43 4.94 8.51
7/8/2021 4:00:00 AM 20.68 69.224 0.138 7.41 4.56 8.54
7/8/2021 4:15:00 AM 20.65 69.17 0.138 7.38 5.65 8.54
7/8/2021 4:30:00 AM 20.64 69.152 0.138 7.43 5.76 8.56
7/8/2021 4:45:00 AM 20.59 69.062 0.138 7.41 4.36 8.53
7/8/2021 5:00:00 AM 20.58 69.044 0.138 7.44 5.75 8.57
7/8/2021 5:15:00 AM 20.55 68.99 0.138 7.44 4.29 8.57
7/8/2021 5:30:00 AM 20.5 68.9 0.138 7.43 4.25 8.56
7/8/2021 5:45:00 AM 20.47 68.846 0.138 7.43 4.71 8.58
7/8/2021 6:00:00 AM 20.44 68.792 0.138 7.43 4.07 8.59
7/8/2021 6:15:00 AM 20.43 68.774 0.138 7.44 4.97 8.62
7/8/2021 6:30:00 AM 20.4 68.72 0.138 7.44 4.52 8.64
7/8/2021 6:45:00 AM 20.38 68.684 0.138 7.45 3.95 8.66
7/8/2021 7:00:00 AM 20.37 68.666 0.138 7.47 3.99 8.7
7/8/2021 7:15:00 AM 20.35 68.63 0.138 7.47 3.87 8.74
7/8/2021 7:30:00 AM 20.36 68.648 0.138 7.48 3.97 8.75
7/8/2021 7:45:00 AM 20.35 68.63 0.138 7.48 4.08 8.75
7/8/2021 8:00:00 AM 20.36 68.648 0.138 7.49 4.09 8.79
7/8/2021 8:15:00 AM 20.36 68.648 0.138 7.48 3.94 8.8
7/8/2021 8:30:00 AM 20.4 68.72 0.138 7.53 3.95 8.86
7/8/2021 8:45:00 AM 20.43 68.774 0.138 7.54 4.08 8.87
7/8/2021 9:00:00 AM 20.45 68.81 0.138 7.55 3.93 8.87
7/8/2021 9:15:00 AM 20.48 68.864 0.138 7.56 3.97 8.9
7/8/2021 9:30:00 AM 20.49 68.882 0.138 7.55 4.2 8.91
7/8/2021 9:45:00 AM 20.55 68.99 0.138 7.54 5.06 8.94
7/8/2021 10:00:00 AM 20.67 69.206 0.138 7.62 4.28 8.98
7/8/2021 10:15:00 AM 20.71 69.278 0.138 7.61 4 8.97
7/8/2021 10:30:00 AM 20.75 69.35 0.138 7.63 4.7 8.96
7/8/2021 10:45:00 AM 20.74 69.332 0.139 7.61 3.88 8.93
7/8/2021 11:00:00 AM 20.73 69.314 0.139 7.59 3.98 8.91
7/8/2021 11:15:00 AM 20.78 69.404 0.138 7.6 4.1 8.94
7/8/2021 11:30:00 AM 20.79 69.422 0.138 7.6 3.9 8.92
7/8/2021 11:45:00 AM 20.82 69.476 0.139 7.6 3.81 8.94
7/8/2021 12:00:00 PM 20.83 69.494 0.139 7.6 4.56 8.91
7/8/2021 12:15:00 PM 20.86 69.548 0.138 7.61 3.81 8.88
7/8/2021 12:30:00 PM 20.87 69.566 0.138 7.6 3.97 8.87
7/8/2021 12:45:00 PM 20.89 69.602 0.138 7.59 4.15 8.89
7/8/2021 1:00:00 PM 20.9 69.62 0.138 7.6 4.57 8.84
7/8/2021 1:15:00 PM 20.93 69.674 0.138 7.61 3.76 8.85
7/8/2021 1:30:00 PM 20.92 69.656 0.138 7.57 4.49 8.83
7/8/2021 1:45:00 PM 20.96 69.728 0.138 7.59 3.94 8.88
7/8/2021 2:00:00 PM 21.03 69.854 0.138 7.65 4.05 8.94
7/8/2021 2:15:00 PM 21.05 69.89 0.138 7.63 4.04 8.9
7/8/2021 2:30:00 PM 21.07 69.926 0.138 7.65 3.89 8.91
7/8/2021 2:45:00 PM 21.09 69.962 0.138 7.63 3.82 8.88
7/8/2021 3:00:00 PM 21.08 69.944 0.138 7.63 4.39 8.86
7/8/2021 3:15:00 PM 21.1 69.98 0.138 7.64 4.54 8.86
7/8/2021 3:30:00 PM 21.1 69.98 0.138 7.62 4.57 8.85
7/8/2021 3:45:00 PM 21.12 70.016 0.138 7.64 3.91 8.85
7/8/2021 4:00:00 PM 21.12 70.016 0.138 7.61 21.11 8.84
7/8/2021 4:15:00 PM 21.11 69.998 0.138 7.6 5.6 8.79
7/8/2021 4:30:00 PM 21.12 70.016 0.138 7.6 4.31 8.78
7/8/2021 4:45:00 PM 21.13 70.034 0.138 7.61 4.21 8.8
7/8/2021 5:00:00 PM 21.13 70.034 0.138 7.61 4.58 8.8
7/8/2021 5:15:00 PM 21.11 69.998 0.138 7.54 7.51 8.74
7/8/2021 5:30:00 PM 21.11 69.998 0.138 7.56 8.28 8.72
7/8/2021 5:45:00 PM 21.09 69.962 0.139 7.55 7.42 8.68
7/8/2021 6:00:00 PM 21.06 69.908 0.139 7.52 6.6 8.63
7/8/2021 6:15:00 PM 21.04 69.872 0.139 7.5 40.26 8.59
7/8/2021 6:30:00 PM 21.02 69.836 0.139 7.52 4.39 8.63
7/8/2021 6:45:00 PM 21 69.8 0.139 7.51 4.54 8.59
7/8/2021 7:00:00 PM 20.99 69.782 0.139 7.51 4.55 8.6
7/8/2021 7:15:00 PM 20.96 69.728 0.139 7.5 4.08 8.58
7/8/2021 7:30:00 PM 20.95 69.71 0.139 7.48 8.7 8.55
7/8/2021 7:45:00 PM 20.92 69.656 0.139 7.49 67.44 8.54
7/8/2021 8:00:00 PM 20.9 69.62 0.139 7.48 4.94 8.55
7/8/2021 8:15:00 PM 20.86 69.548 0.138 7.46 5.11 8.55
7/8/2021 8:30:00 PM 20.85 69.53 0.137 7.48 11.91 8.55
7/8/2021 8:45:00 PM 20.82 69.476 0.136 7.46 5.83 8.52
7/8/2021 9:00:00 PM 20.78 69.404 0.136 7.44 5.12 8.54
7/8/2021 9:15:00 PM 20.75 69.35 0.136 7.45 4.57 8.56
7/8/2021 9:30:00 PM 20.72 69.296 0.136 7.45 4.36 8.54
7/8/2021 9:45:00 PM 20.68 69.224 0.136 7.44 4.51 8.57
7/8/2021 10:00:00 PM 20.64 69.152 0.137 7.43 5.42 8.53
7/8/2021 10:15:00 PM 20.61 69.098 0.137 7.45 4.16 8.58
7/8/2021 10:30:00 PM 20.58 69.044 0.137 7.44 4.08 8.58
7/8/2021 10:45:00 PM 20.57 69.026 0.137 7.45 4.35 8.6
7/8/2021 11:00:00 PM 20.54 68.972 0.137 7.46 4.41 8.6
7/8/2021 11:15:00 PM 20.51 68.918 0.137 7.45 4.25 8.6
7/8/2021 11:30:00 PM 20.49 68.882 0.137 7.45 4.21 8.58
7/8/2021 11:45:00 PM 20.46 68.828 0.138 7.46 4.88 8.63
7/9/2021 12:00:00 AM 20.44 68.792 0.138 7.45 4.17 8.62
7/9/2021 12:15:00 AM 20.41 68.738 0.138 7.45 4.26 8.62
7/9/2021 12:30:00 AM 20.39 68.702 0.138 7.45 4.31 8.63
7/9/2021 12:45:00 AM 20.36 68.648 0.138 7.45 4.21 8.62
7/9/2021 1:00:00 AM 20.33 68.594 0.138 7.43 5.26 8.61
7/9/2021 1:15:00 AM 20.33 68.594 0.138 7.45 4.26 8.65
7/9/2021 1:30:00 AM 20.31 68.558 0.138 7.45 3.99 8.62
7/9/2021 1:45:00 AM 20.29 68.522 0.138 7.46 4.8 8.65
7/9/2021 2:00:00 AM 20.28 68.504 0.138 7.46 4.49 8.64
7/9/2021 2:15:00 AM 20.27 68.486 0.138 7.46 4.46 8.67
7/9/2021 2:30:00 AM 20.24 68.432 0.138 7.45 4.41 8.65
7/9/2021 2:45:00 AM 20.22 68.396 0.138 7.44 4.53 8.67
7/9/2021 3:00:00 AM 20.21 68.378 0.138 7.45 4.23 8.65
7/9/2021 3:15:00 AM 20.19 68.342 0.138 7.46 6.32 8.65
7/9/2021 3:30:00 AM 20.18 68.324 0.138 7.46 4.23 8.68
7/9/2021 3:45:00 AM 20.15 68.27 0.138 7.46 4.3 8.67
7/9/2021 4:00:00 AM 20.11 68.198 0.138 7.44 4.3 8.67
7/9/2021 4:15:00 AM 20.09 68.162 0.138 7.45 4.26 8.69
7/9/2021 4:30:00 AM 20.06 68.108 0.138 7.44 4.45 8.66
7/9/2021 4:45:00 AM 20.04 68.07201 0.138 7.45 4.41 8.69
7/9/2021 5:00:00 AM 20 68 0.138 7.43 4.14 8.68
7/9/2021 5:15:00 AM 19.99 67.982 0.138 7.44 4.34 8.7
7/9/2021 5:30:00 AM 19.98 67.964 0.139 7.45 4.32 8.7
7/9/2021 5:45:00 AM 19.95 67.91 0.139 7.44 4.27 8.68
7/9/2021 6:00:00 AM 19.94 67.892 0.139 7.45 4.43 8.72
7/9/2021 6:15:00 AM 19.91 67.838 0.139 7.44 4.71 8.71
7/9/2021 6:30:00 AM 19.91 67.838 0.139 7.46 4.42 8.73
7/9/2021 6:45:00 AM 19.91 67.838 0.139 7.45 4.36 8.77
7/9/2021 7:00:00 AM 19.9 67.82 0.139 7.47 4.5 8.79
7/9/2021 7:15:00 AM 19.91 67.838 0.139 7.49 4.26 8.82
7/9/2021 7:30:00 AM 19.91 67.838 0.139 7.49 4.48 8.85
7/9/2021 7:45:00 AM 19.96 67.92799 0.138 7.55 7.12 8.9
7/9/2021 8:00:00 AM 19.97 67.946 0.138 7.55 8.9 8.91
7/9/2021 8:15:00 AM 20 68 0.138 7.57 10.12 8.93
7/9/2021 8:30:00 AM 20 68 0.138 7.55 6.89 8.94
7/9/2021 8:45:00 AM 20.03 68.054 0.138 7.57 7.33 8.95
7/9/2021 9:00:00 AM 20.1 68.18 0.138 7.59 7.17 8.98
7/9/2021 9:15:00 AM 20.17 68.306 0.138 7.61 6.53 8.99
7/9/2021 9:30:00 AM 20.23 68.414 0.138 7.61 11.98 8.99
7/9/2021 9:45:00 AM 20.35 68.63 0.138 7.62 103.06 9
7/9/2021 10:00:00 AM 20.48 68.864 0.138 7.66 7.05 9
7/9/2021 10:15:00 AM 20.59 69.062 0.137 7.68 10.85 9.02
7/9/2021 10:30:00 AM 20.61 69.098 0.137 7.69 7.76 9
7/9/2021 10:45:00 AM 20.63 69.134 0.137 7.69 4.78 9
7/9/2021 11:00:00 AM 20.66 69.188 0.137 7.68 6.1 8.97
7/9/2021 11:15:00 AM 20.85 69.53 0.137 7.69 4.67 8.98
7/9/2021 11:30:00 AM 21.08 69.944 0.137 7.7 5.95 8.96
7/9/2021 11:45:00 AM 21.35 70.43 0.137 7.73 5.66 8.97
7/9/2021 12:00:00 PM 21.44 70.592 0.137 7.71 6.73 8.92
7/9/2021 12:15:00 PM 21.64 70.952 0.137 7.73 6.5 8.9
7/9/2021 12:30:00 PM 21.72 71.096 0.137 7.75 6.08 8.9
7/9/2021 12:45:00 PM 21.9 71.42 0.137 7.78 7.54 8.89
7/9/2021 1:00:00 PM 22.11 71.798 0.137 7.77 6.94 8.87
7/9/2021 1:15:00 PM 22.27 72.086 0.137 7.77 7.52 8.86
7/9/2021 1:30:00 PM 22.34 72.212 0.137 7.75 95.69 8.83
7/9/2021 1:45:00 PM 22.25 72.05 0.137 7.78 6.69 8.82
7/9/2021 2:00:00 PM 22.2 71.96 0.137 7.79 4.83 8.83
7/9/2021 2:15:00 PM 22.2 71.96 0.137 7.79 5.79 8.83
7/9/2021 2:30:00 PM 22.15 71.87 0.137 7.76 6.81 8.76
7/9/2021 2:45:00 PM 22.08 71.744 0.137 7.73 6.32 8.72
7/9/2021 3:00:00 PM 22.08 71.744 0.137 7.73 5.43 8.76
7/9/2021 3:15:00 PM 22.07 71.726 0.137 7.72 6.68 8.75
7/9/2021 3:30:00 PM 22.05 71.69 0.138 7.72 7.47 8.72
7/9/2021 3:45:00 PM 22.07 71.726 0.138 7.71 6.17 8.76
7/9/2021 4:00:00 PM 22.09 71.762 0.138 7.72 7.08 8.75
7/9/2021 4:15:00 PM 22.09 71.762 0.138 7.74 8.02 8.75
7/9/2021 4:30:00 PM 22.06 71.708 0.138 7.71 7.19 8.7
7/9/2021 4:45:00 PM 22.01 71.618 0.138 7.66 8.06 8.62
7/9/2021 5:00:00 PM 21.9 71.42 0.138 7.61 5.61 8.52
7/9/2021 5:15:00 PM 21.8 71.24 0.13 7.6 13.97 8.52
7/9/2021 5:30:00 PM 21.8 71.24 0.124 7.56 15.72 8.51
7/9/2021 5:45:00 PM 21.63 70.934 0.125 7.53 12.23 8.52
7/9/2021 6:00:00 PM 21.52 70.736 0.127 7.52 10.07 8.51
7/9/2021 6:15:00 PM 21.43 70.574 0.128 7.51 10.11 8.54
7/9/2021 6:30:00 PM 21.38 70.484 0.13 7.52 10.89 8.58
7/9/2021 6:45:00 PM 21.35 70.43 0.131 7.53 8.29 8.62
7/9/2021 7:00:00 PM 21.31 70.358 0.132 7.51 7.27 8.59
7/9/2021 7:15:00 PM 21.28 70.304 0.132 7.5 10.38 8.59
7/9/2021 7:30:00 PM 21.23 70.214 0.133 7.49 8.66 8.57
7/9/2021 7:45:00 PM 21.19 70.142 0.132 7.48 7.26 8.56
7/9/2021 8:00:00 PM 21.16 70.088 0.132 7.47 15.9 8.56
7/9/2021 8:15:00 PM 21.13 70.034 0.131 7.46 8.89 8.54
7/9/2021 8:30:00 PM 21.1 69.98 0.13 7.45 7.15 8.56
7/9/2021 8:45:00 PM 21.07 69.926 0.13 7.45 8.27 8.56
7/9/2021 9:00:00 PM 21.05 69.89 0.131 7.45 7.91 8.56
7/9/2021 9:15:00 PM 21.02 69.836 0.131 7.44 7.57 8.56
7/9/2021 9:30:00 PM 21 69.8 0.132 7.45 6.8 8.57
7/9/2021 9:45:00 PM 20.97 69.746 0.132 7.45 6.74 8.58
7/9/2021 10:00:00 PM 20.94 69.692 0.132 7.43 6.63 8.56
7/9/2021 10:15:00 PM 20.92 69.656 0.132 7.44 7 8.57
7/9/2021 10:30:00 PM 20.91 69.638 0.132 7.43 7.58 8.6
7/9/2021 10:45:00 PM 20.88 69.584 0.132 7.43 8.19 8.57
7/9/2021 11:00:00 PM 20.86 69.548 0.132 7.44 8.57 8.6
7/9/2021 11:15:00 PM 20.83 69.494 0.132 7.43 9.49 8.58
7/9/2021 11:30:00 PM 20.8 69.44 0.132 7.43 8.74 8.61
7/9/2021 11:45:00 PM 20.76 69.368 0.129 7.43 10.39 8.62
7/10/2021 12:00:00 AM 20.72 69.296 0.129 7.4 9.86 8.6
7/10/2021 12:15:00 AM 20.69 69.242 0.13 7.41 8.74 8.59
7/10/2021 12:30:00 AM 20.66 69.188 0.131 7.41 7.96 8.62
7/10/2021 12:45:00 AM 20.64 69.152 0.132 7.43 7.41 8.63
7/10/2021 1:00:00 AM 20.61 69.098 0.133 7.42 7.76 8.62
7/10/2021 1:15:00 AM 20.59 69.062 0.134 7.43 7.13 8.65
7/10/2021 1:30:00 AM 20.57 69.026 0.135 7.44 6.55 8.66
7/10/2021 1:45:00 AM 20.56 69.008 0.135 7.45 6.61 8.67
7/10/2021 2:00:00 AM 20.51 68.918 0.135 7.42 6.63 8.64
7/10/2021 2:15:00 AM 20.49 68.882 0.136 7.43 5.82 8.66
7/10/2021 2:30:00 AM 20.47 68.846 0.136 7.43 6.4 8.65
7/10/2021 2:45:00 AM 20.47 68.846 0.136 7.44 6.81 8.67
7/10/2021 3:00:00 AM 20.45 68.81 0.136 7.42 6.28 8.66
7/10/2021 3:15:00 AM 20.44 68.792 0.136 7.43 6.63 8.67
7/10/2021 3:30:00 AM 20.43 68.774 0.135 7.44 6.33 8.69
7/10/2021 3:45:00 AM 20.4 68.72 0.135 7.44 6.39 8.68
7/10/2021 4:00:00 AM 20.38 68.684 0.135 7.44 6.39 8.66
7/10/2021 4:15:00 AM 20.37 68.666 0.135 7.45 6.46 8.67
7/10/2021 4:30:00 AM 20.35 68.63 0.134 7.44 6.25 8.7
7/10/2021 4:45:00 AM 20.32 68.576 0.134 7.43 6.34 8.71
7/10/2021 5:00:00 AM 20.31 68.558 0.134 7.45 6.2 8.7
7/10/2021 5:15:00 AM 20.3 68.54 0.134 7.46 6.89 8.73
7/10/2021 5:30:00 AM 20.26 68.468 0.134 7.44 7.61 8.71
7/10/2021 5:45:00 AM 20.23 68.414 0.134 7.43 6.62 8.71
7/10/2021 6:00:00 AM 20.21 68.378 0.134 7.43 6.42 8.71
7/10/2021 6:15:00 AM 20.21 68.378 0.134 7.44 7.19 8.73
7/10/2021 6:30:00 AM 20.19 68.342 0.134 7.44 6.43 8.75
7/10/2021 6:45:00 AM 20.17 68.306 0.134 7.45 6.85 8.75
7/10/2021 7:00:00 AM 20.15 68.27 0.134 7.45 6.78 8.75
7/10/2021 7:15:00 AM 20.14 68.252 0.134 7.45 6.52 8.79
7/10/2021 7:30:00 AM 20.14 68.252 0.134 7.46 6.4 8.82
7/10/2021 7:45:00 AM 20.15 68.27 0.134 7.49 9.96 8.85
7/10/2021 8:00:00 AM 20.15 68.27 0.133 7.49 6.78 8.87
7/10/2021 8:15:00 AM 20.17 68.306 0.133 7.51 8.63 8.88
7/10/2021 8:30:00 AM 20.18 68.324 0.133 7.51 7.24 8.93
7/10/2021 8:45:00 AM 20.22 68.396 0.133 7.53 11.24 8.93
7/10/2021 9:00:00 AM 20.22 68.396 0.133 7.53 12.03 8.92
7/10/2021 9:15:00 AM 20.24 68.432 0.133 7.54 7.41 8.94
7/10/2021 9:30:00 AM 20.29 68.522 0.133 7.55 6.97 8.99
7/10/2021 9:45:00 AM 20.34 68.612 0.133 7.56 7.04 8.97
7/10/2021 10:00:00 AM 20.33 68.594 0.133 7.55 7.79 8.94
7/10/2021 10:15:00 AM 20.34 68.612 0.133 7.56 8.6 8.93
7/10/2021 10:30:00 AM 20.37 68.666 0.132 7.57 7.6 8.97
7/10/2021 10:45:00 AM 20.41 68.738 0.132 7.58 11.06 8.96
7/10/2021 11:00:00 AM 20.45 68.81 0.132 7.59 7.73 9
7/10/2021 11:15:00 AM 20.5 68.9 0.132 7.62 8.65 9.01
7/10/2021 11:30:00 AM 20.56 69.008 0.132 7.61 8.92 9.03
7/10/2021 11:45:00 AM 20.67 69.206 0.132 7.64 11.49 9.05
7/10/2021 12:00:00 PM 20.81 69.458 0.132 7.67 13.79 9.02
7/10/2021 12:15:00 PM 20.76 69.368 0.132 7.63 10.9 8.97
7/10/2021 12:30:00 PM 20.81 69.458 0.132 7.62 14.52 9.03
7/10/2021 12:45:00 PM 20.91 69.638 0.132 7.64 7.22 9.01
7/10/2021 1:00:00 PM 20.95 69.71 0.132 7.65 9.12 9.02
7/10/2021 1:15:00 PM 21.11 69.998 0.132 7.66 9.75 8.99
7/10/2021 1:30:00 PM 21.38 70.484 0.131 7.65 8.68 8.94
7/10/2021 1:45:00 PM 21.52 70.736 0.131 7.7 6.66 8.95
7/10/2021 2:00:00 PM 21.76 71.168 0.131 7.7 7.86 8.93
7/10/2021 2:15:00 PM 21.78 71.204 0.131 7.69 8.65 8.91
7/10/2021 2:30:00 PM 21.8 71.24 0.132 7.69 7.78 8.96
7/10/2021 2:45:00 PM 21.97 71.546 0.131 7.69 9.87 8.88
7/10/2021 3:00:00 PM 22.08 71.744 0.131 7.7 8.55 8.86
7/10/2021 3:15:00 PM 22.18 71.924 0.131 7.74 9.11 8.84
7/10/2021 3:30:00 PM 22.27 72.086 0.131 7.7 7.26 8.83
7/10/2021 3:45:00 PM 22.32 72.176 0.131 7.72 8.09 8.8
7/10/2021 4:00:00 PM 22.4 72.32 0.132 7.69 9.57 8.76
7/10/2021 4:15:00 PM 22.41 72.338 0.132 7.67 9.85 8.76
7/10/2021 4:30:00 PM 22.27 72.086 0.132 7.66 9.37 8.69
7/10/2021 4:45:00 PM 22.24 72.032 0.132 7.62 6.92 8.69
7/10/2021 5:00:00 PM 22.28 72.104 0.132 7.62 8.74 8.68
7/10/2021 5:15:00 PM 22.28 72.104 0.132 7.61 7.53 8.64
7/10/2021 5:30:00 PM 22.21 71.978 0.132 7.56 7.97 8.61
7/10/2021 5:45:00 PM 22.21 71.978 0.132 7.57 9.85 8.64
7/10/2021 6:00:00 PM 22.13 71.834 0.132 7.55 9.18 8.6
7/10/2021 6:15:00 PM 22.08 71.744 0.132 7.57 9.79 8.63
7/10/2021 6:30:00 PM 22.02 71.636 0.132 7.55 11.7 8.63
7/10/2021 6:45:00 PM 21.95 71.51 0.132 7.54 7.9 8.62
7/10/2021 7:00:00 PM 21.88 71.384 0.132 7.52 12.37 8.61
7/10/2021 7:15:00 PM 21.83 71.294 0.132 7.51 11.4 8.59
7/10/2021 7:30:00 PM 21.8 71.24 0.132 7.51 10.48 8.57
7/10/2021 7:45:00 PM 21.72 71.096 0.132 7.45 8.18 8.54
7/10/2021 8:00:00 PM 21.67 71.006 0.132 7.48 9.24 8.52
7/10/2021 8:15:00 PM 21.61 70.898 0.132 7.47 7.14 8.53
7/10/2021 8:30:00 PM 21.52 70.736 0.133 7.45 12.04 8.51
7/10/2021 8:45:00 PM 21.46 70.628 0.132 7.45 7.08 8.51
7/10/2021 9:00:00 PM 21.35 70.43 0.133 7.43 17.7 8.45
7/10/2021 9:15:00 PM 21.28 70.304 0.133 7.42 7.22 8.53
7/10/2021 9:30:00 PM 21.22 70.196 0.133 7.42 7.09 8.55
7/10/2021 9:45:00 PM 21.15 70.07 0.133 7.44 7.21 8.55
7/10/2021 10:00:00 PM 21.06 69.908 0.133 7.42 7.09 8.55
7/10/2021 10:15:00 PM 20.97 69.746 0.133 7.39 7.5 8.59
7/10/2021 10:30:00 PM 20.9 69.62 0.133 7.4 8.47 8.57
7/10/2021 10:45:00 PM 20.85 69.53 0.132 7.41 7.06 8.62
7/10/2021 11:00:00 PM 20.77 69.386 0.132 7.4 7.3 8.62
7/10/2021 11:15:00 PM 20.73 69.314 0.132 7.42 7.13 8.63
7/10/2021 11:30:00 PM 20.64 69.152 0.132 7.38 6.83 8.63
7/10/2021 11:45:00 PM 20.63 69.134 0.132 7.44 7.08 8.68
7/11/2021 12:00:00 AM 20.53 68.954 0.133 7.38 8.08 8.67
7/11/2021 12:15:00 AM 20.45 68.81 0.134 7.39 6.8 8.65
7/11/2021 12:30:00 AM 20.4 68.72 0.134 7.39 6.65 8.66
7/11/2021 12:45:00 AM 20.35 68.63 0.135 7.39 9.63 8.68
7/11/2021 1:00:00 AM 20.3 68.54 0.135 7.39 7.71 8.72
7/11/2021 1:15:00 AM 20.25 68.45 0.135 7.35 7.83 8.69
7/11/2021 1:30:00 AM 20.21 68.378 0.135 7.38 9.66 8.68
7/11/2021 1:45:00 AM 20.15 68.27 0.135 7.38 7.03 8.72
7/11/2021 2:00:00 AM 20.1 68.18 0.136 7.36 6.54 8.73
7/11/2021 2:15:00 AM 20.08 68.144 0.136 7.39 7.38 8.76
7/11/2021 2:30:00 AM 20.02 68.036 0.135 7.36 6.56 8.73
7/11/2021 2:45:00 AM 19.98 67.964 0.136 7.37 15.24 8.75
7/11/2021 3:00:00 AM 19.97 67.946 0.135 7.39 7.19 8.77
7/11/2021 3:15:00 AM 19.94 67.892 0.135 7.39 6.69 8.77
7/11/2021 3:30:00 AM 19.91 67.838 0.135 7.4 6.4 8.77
7/11/2021 3:45:00 AM 19.87 67.766 0.135 7.38 6.47 8.74
7/11/2021 4:00:00 AM 19.84 67.712 0.135 7.38 6.3 8.76
7/11/2021 4:15:00 AM 19.82 67.676 0.135 7.39 8.51 8.8
7/11/2021 4:30:00 AM 19.78 67.604 0.135 7.38 12.21 8.79
7/11/2021 4:45:00 AM 19.73 67.514 0.135 7.38 8.38 8.76
7/11/2021 5:00:00 AM 19.73 67.514 0.135 7.39 6.05 8.8
7/11/2021 5:15:00 AM 19.68 67.424 0.135 7.39 7.17 8.82
7/11/2021 5:30:00 AM 19.62 67.316 0.135 7.35 6.68 8.81
7/11/2021 5:45:00 AM 19.62 67.316 0.135 7.36 6.58 8.84
7/11/2021 6:00:00 AM 19.62 67.316 0.135 7.39 6.49 8.84
7/11/2021 6:15:00 AM 19.58 67.244 0.135 7.38 6.32 8.84
7/11/2021 6:30:00 AM 19.57 67.226 0.135 7.4 8.13 8.87
7/11/2021 6:45:00 AM 19.53 67.154 0.135 7.38 9.5 8.87
7/11/2021 7:00:00 AM 19.54 67.172 0.135 7.4 8.5 8.9
7/11/2021 7:15:00 AM 19.51 67.118 0.135 7.4 8.91 8.89
7/11/2021 7:30:00 AM 19.5 67.1 0.135 7.41 9.31 8.91
7/11/2021 7:45:00 AM 19.51 67.118 0.135 7.42 6.11 8.96
7/11/2021 8:00:00 AM 19.5 67.1 0.135 7.41 7 8.97
7/11/2021 8:15:00 AM 19.51 67.118 0.135 7.43 7.77 8.98
7/11/2021 8:30:00 AM 19.49 67.082 0.135 7.41 7.28 8.96
7/11/2021 8:45:00 AM 19.5 67.1 0.135 7.43 8.38 8.98
7/11/2021 9:00:00 AM 19.53 67.154 0.135 7.44 9.11 8.99
7/11/2021 9:15:00 AM 19.53 67.154 0.135 7.44 8.25 9.03
7/11/2021 9:30:00 AM 19.52 67.136 0.135 7.43 9.91 8.99
7/11/2021 9:45:00 AM 19.54 67.172 0.135 7.44 8.1 9.02
7/11/2021 10:00:00 AM 19.56 67.208 0.135 7.46 9.35 9.01
7/11/2021 10:15:00 AM 19.59 67.262 0.135 7.48 9.31 9.01
7/11/2021 10:30:00 AM 19.57 67.226 0.135 7.46 8.26 8.98
7/11/2021 10:45:00 AM 19.58 67.244 0.135 7.46 9.12 8.99
7/11/2021 11:00:00 AM 19.56 67.208 0.135 7.43 9.06 8.97
7/11/2021 11:15:00 AM 19.57 67.226 0.135 7.43 9.88 8.98
7/11/2021 11:30:00 AM 19.59 67.262 0.135 7.46 7.8 8.97
7/11/2021 11:45:00 AM 19.61 67.298 0.135 7.44 7.8 9.01
7/11/2021 12:00:00 PM 19.65 67.37 0.135 7.48 9.72 9.06
7/11/2021 12:15:00 PM 19.69 67.442 0.135 7.5 8.44 9.09
7/11/2021 12:30:00 PM 19.75 67.55 0.135 7.53 6.68 9.11
7/11/2021 12:45:00 PM 19.78 67.604 0.135 7.52 8.91 9.1
7/11/2021 1:00:00 PM 19.8 67.64 0.135 7.52 8.82 9.11
7/11/2021 1:15:00 PM 19.88 67.784 0.135 7.55 7.85 9.11
7/11/2021 1:30:00 PM 19.93 67.874 0.135 7.54 8.62 9.11
7/11/2021 1:45:00 PM 20.01 68.018 0.135 7.54 10.63 9.12
7/11/2021 2:00:00 PM 20.05 68.09 0.135 7.57 8.06 9.06
7/11/2021 2:15:00 PM 20.04 68.07201 0.135 7.51 7.54 8.99
7/11/2021 2:30:00 PM 20.09 68.162 0.135 7.52 6.76 9.01
7/11/2021 2:45:00 PM 20.14 68.252 0.135 7.52 9.34 9.01
7/11/2021 3:00:00 PM 20.18 68.324 0.135 7.53 15.23 8.97
7/11/2021 3:15:00 PM 20.2 68.36 0.136 7.47 8.67 8.96
7/11/2021 3:30:00 PM 20.22 68.396 0.135 7.5 8.49 8.91
7/11/2021 3:45:00 PM 20.28 68.504 0.135 7.51 8.8 8.93
7/11/2021 4:00:00 PM 20.3 68.54 0.135 7.51 7.19 8.96
7/11/2021 4:15:00 PM 20.37 68.666 0.136 7.54 9.08 8.96
7/11/2021 4:30:00 PM 20.45 68.81 0.136 7.58 9.61 8.99
7/11/2021 4:45:00 PM 20.44 68.792 0.136 7.53 9.57 8.92
7/11/2021 5:00:00 PM 20.49 68.882 0.136 7.54 8.99 8.98
7/11/2021 5:15:00 PM 20.55 68.99 0.136 7.57 9.47 8.98
7/11/2021 5:30:00 PM 20.64 69.152 0.136 7.61 25.38 9
7/11/2021 5:45:00 PM 20.66 69.188 0.136 7.59 12.62 8.96
7/11/2021 6:00:00 PM 20.68 69.224 0.136 7.57 8.14 8.95
7/11/2021 6:15:00 PM 20.67 69.206 0.136 7.55 7.81 8.88
7/11/2021 6:30:00 PM 20.7 69.26 0.136 7.54 8.12 8.85
7/11/2021 6:45:00 PM 20.73 69.314 0.136 7.54 8 8.84
7/11/2021 7:00:00 PM 20.74 69.332 0.136 7.52 9.48 8.79
7/11/2021 7:15:00 PM 20.72 69.296 0.136 7.47 8.58 8.75
7/11/2021 7:30:00 PM 20.68 69.224 0.136 7.44 8.03 8.71
7/11/2021 7:45:00 PM 20.69 69.242 0.136 7.43 10.23 8.67
7/11/2021 8:00:00 PM 20.67 69.206 0.136 7.41 6.14 8.65
7/11/2021 8:15:00 PM 20.69 69.242 0.137 7.42 6.04 8.66
7/11/2021 8:30:00 PM 20.67 69.206 0.136 7.42 6.81 8.66
7/11/2021 8:45:00 PM 20.64 69.152 0.1 7.4 7.01 8.65
7/11/2021 9:00:00 PM 20.67 69.206 0.089 7.36 8.78 8.63
7/11/2021 9:15:00 PM 20.77 69.386 0.115 7.37 20.04 8.63
7/11/2021 9:30:00 PM 20.68 69.224 0.12 7.36 14.93 8.61
7/11/2021 9:45:00 PM 20.6 69.08 0.123 7.33 9.66 8.57
7/11/2021 10:00:00 PM 20.61 69.098 0.125 7.35 7.99 8.63
7/11/2021 10:15:00 PM 20.6 69.08 0.125 7.34 8.41 8.6
7/11/2021 10:30:00 PM 20.6 69.08 0.122 7.33 8.75 8.63
7/11/2021 10:45:00 PM 20.6 69.08 0.122 7.32 11.89 8.65
7/11/2021 11:00:00 PM 20.56 69.008 0.123 7.32 9.71 8.64
7/11/2021 11:15:00 PM 20.54 68.972 0.124 7.31 9.25 8.65
7/11/2021 11:30:00 PM 20.52 68.936 0.126 7.3 9.01 8.65
7/11/2021 11:45:00 PM 20.51 68.918 0.128 7.3 10.36 8.67
7/12/2021 12:00:00 AM 20.53 68.954 0.128 7.31 10.09 8.68
7/12/2021 12:15:00 AM 20.49 68.882 0.129 7.3 9.85 8.65
7/12/2021 12:30:00 AM 20.52 68.936 0.129 7.32 10.21 8.68
7/12/2021 12:45:00 AM 20.54 68.972 0.129 7.31 13.19 8.69
7/12/2021 1:00:00 AM 20.56 69.008 0.129 7.32 11.52 8.66
7/12/2021 1:15:00 AM 20.6 69.08 0.128 7.33 11.4 8.67
7/12/2021 1:30:00 AM 20.64 69.152 0.128 7.34 11.05 8.68
7/12/2021 1:45:00 AM 20.66 69.188 0.128 7.33 12.15 8.67
7/12/2021 2:00:00 AM 20.69 69.242 0.129 7.34 13.11 8.68
7/12/2021 2:15:00 AM 20.69 69.242 0.128 7.33 13.6 8.66
7/12/2021 2:30:00 AM 20.71 69.278 0.128 7.34 14.9 8.67
7/12/2021 2:45:00 AM 20.7 69.26 0.128 7.34 15.47 8.65
7/12/2021 3:00:00 AM 20.69 69.242 0.127 7.34 15.65 8.69
7/12/2021 3:15:00 AM 20.69 69.242 0.127 7.34 13.36 8.67
7/12/2021 3:30:00 AM 20.68 69.224 0.128 7.34 12.77 8.68
7/12/2021 3:45:00 AM 20.67 69.206 0.128 7.33 11.65 8.69
7/12/2021 4:00:00 AM 20.67 69.206 0.128 7.35 12.91 8.69
7/12/2021 4:15:00 AM 20.67 69.206 0.129 7.35 11.75 8.69
7/12/2021 4:30:00 AM 20.65 69.17 0.129 7.33 12.26 8.68
7/12/2021 4:45:00 AM 20.67 69.206 0.129 7.35 10.58 8.69
7/12/2021 5:00:00 AM 20.65 69.17 0.13 7.34 12.55 8.67
7/12/2021 5:15:00 AM 20.67 69.206 0.129 7.34 10.35 8.69
7/12/2021 5:30:00 AM 20.67 69.206 0.13 7.34 17.12 8.69
7/12/2021 5:45:00 AM 20.68 69.224 0.13 7.35 11.36 8.71
7/12/2021 6:00:00 AM 20.7 69.26 0.129 7.34 15.95 8.69
7/12/2021 6:15:00 AM 20.69 69.242 0.13 7.33 20.32 8.71
7/12/2021 6:30:00 AM 20.71 69.278 0.129 7.35 17.21 8.73
7/12/2021 6:45:00 AM 20.71 69.278 0.129 7.33 12.37 8.73
7/12/2021 7:00:00 AM 20.75 69.35 0.129 7.34 10.21 8.72
7/12/2021 7:15:00 AM 20.77 69.386 0.129 7.36 10.75 8.75
7/12/2021 7:30:00 AM 20.79 69.422 0.129 7.37 13.53 8.73
7/12/2021 7:45:00 AM 20.82 69.476 0.129 7.38 12.51 8.76
7/12/2021 8:00:00 AM 20.86 69.548 0.129 7.39 12.62 8.77
7/12/2021 8:15:00 AM 20.91 69.638 0.129 7.41 10.65 8.79
7/12/2021 8:30:00 AM 20.93 69.674 0.129 7.41 12.43 8.78
7/12/2021 8:45:00 AM 20.98 69.764 0.129 7.4 11.7 8.8
7/12/2021 9:00:00 AM 21.06 69.908 0.129 7.4 13.31 8.81
7/12/2021 9:15:00 AM 21.11 69.998 0.129 7.4 11.73 8.81
7/12/2021 9:30:00 AM 21.17 70.106 0.128 7.43 12.24 8.77
7/12/2021 9:45:00 AM 21.24 70.232 0.128 7.43 12.41 8.81
7/12/2021 10:00:00 AM 21.35 70.43 0.128 7.44 12.51 8.8
7/12/2021 10:15:00 AM 21.45 70.61 0.128 7.47 12.93 8.81
7/12/2021 10:30:00 AM 21.43 70.574 0.128 7.46 12.83 8.74
7/12/2021 10:45:00 AM 21.46 70.628 0.128 7.44 17.2 8.72
7/12/2021 11:00:00 AM 21.52 70.736 0.128 7.43 12.56 8.75
7/12/2021 11:15:00 AM 21.61 70.898 0.128 7.44 17.12 8.78
7/12/2021 11:30:00 AM 21.77 71.186 0.127 7.46 10.8 8.78
7/12/2021 11:45:00 AM 21.87 71.366 0.127 7.46 11.15 8.78
7/12/2021 12:00:00 PM 21.86 71.348 0.127 7.46 13.11 8.75
7/12/2021 12:15:00 PM 21.92 71.456 0.127 7.46 12.02 8.73
7/12/2021 12:30:00 PM 22.08 71.744 0.128 7.48 10.5 8.73
7/12/2021 12:45:00 PM 22.09 71.762 0.128 7.5 11.35 8.73
7/12/2021 1:00:00 PM 22.16 71.888 0.128 7.51 11.67 8.75
7/12/2021 1:15:00 PM 22.17 71.906 0.128 7.46 11.64 8.7
7/12/2021 1:30:00 PM 22.42 72.356 0.128 7.49 11.17 8.71
7/12/2021 1:45:00 PM 22.51 72.518 0.128 7.48 13.1 8.7
7/12/2021 2:00:00 PM 22.5 72.5 0.128 7.49 12.61 8.65
7/12/2021 2:15:00 PM 22.69 72.842 0.128 7.47 11.18 8.65
7/12/2021 2:30:00 PM 22.72 72.896 0.128 7.49 10.78 8.62
7/12/2021 2:45:00 PM 22.69 72.842 0.128 7.47 10.9 8.61
7/12/2021 3:00:00 PM 22.89 73.202 0.128 7.48 10.76 8.63
7/12/2021 3:15:00 PM 23.02 73.436 0.128 7.47 11.12 8.62
7/12/2021 3:30:00 PM 23.13 73.634 0.128 7.51 11.26 8.59
7/12/2021 3:45:00 PM 23.16 73.688 0.128 7.49 11.3 8.55
7/12/2021 4:00:00 PM 23.25 73.85 0.128 7.46 10.03 8.54
7/12/2021 4:15:00 PM 23.31 73.958 0.128 7.47 11.82 8.51
7/12/2021 4:30:00 PM 23.44 74.192 0.128 7.46 14.05 8.54
7/12/2021 4:45:00 PM 23.36 74.048 0.129 7.44 17.94 8.42
7/12/2021 5:00:00 PM 23.33 73.994 0.129 7.41 13.19 8.42
7/12/2021 5:15:00 PM 23.32 73.976 0.129 7.41 11.24 8.37
7/12/2021 5:30:00 PM 23.24 73.832 0.129 7.39 12.36 8.39
7/12/2021 5:45:00 PM 23.19 73.742 0.129 7.39 16.16 8.4
7/12/2021 6:00:00 PM 23.13 73.634 0.129 7.39 10.26 8.43
7/12/2021 6:15:00 PM 23.08 73.544 0.129 7.38 14.13 8.42
7/12/2021 6:30:00 PM 23.06 73.508 0.129 7.39 13.11 8.45
7/12/2021 6:45:00 PM 23.04 73.472 0.129 7.38 13.02 8.46
7/12/2021 7:00:00 PM 22.98 73.364 0.129 7.34 14.9 8.42
7/12/2021 7:15:00 PM 23 73.4 0.129 7.36 12.3 8.42
7/12/2021 7:30:00 PM 22.98 73.364 0.129 7.35 11.66 8.4
7/12/2021 7:45:00 PM 22.9 73.22 0.129 7.32 11.68 8.34
7/12/2021 8:00:00 PM 22.91 73.238 0.129 7.32 12.05 8.37
7/12/2021 8:15:00 PM 22.89 73.202 0.129 7.31 8.85 8.35
7/12/2021 8:30:00 PM 22.86 73.148 0.129 7.31 15.52 8.32
7/12/2021 8:45:00 PM 22.83 73.094 0.13 7.29 9.09 8.31
7/12/2021 9:00:00 PM 22.8 73.04 0.13 7.3 8.64 8.31
7/12/2021 9:15:00 PM 22.77 72.986 0.13 7.27 10 8.33
7/12/2021 9:30:00 PM 22.79 73.022 0.13 7.28 9.62 8.34
7/12/2021 9:45:00 PM 22.78 73.004 0.13 7.28 9.12 8.3
7/12/2021 10:00:00 PM 22.77 72.986 0.13 7.28 8.63 8.33
7/12/2021 10:15:00 PM 22.74 72.932 0.13 7.3 9.34 8.33
7/12/2021 10:30:00 PM 22.69 72.842 0.124 7.36 15.57 8.4
7/12/2021 10:45:00 PM 22.53 72.554 0.121 7.34 14.08 8.4
7/12/2021 11:00:00 PM 22.48 72.464 0.119 7.31 15.01 8.39
7/12/2021 11:15:00 PM 22.45 72.41 0.121 7.32 15.34 8.39
7/12/2021 11:30:00 PM 22.45 72.41 0.122 7.33 12.3 8.4
7/12/2021 11:45:00 PM 22.37 72.266 0.116 7.28 18.5 8.41
7/13/2021 12:00:00 AM 22.34 72.212 0.117 7.28 16.69 8.42
7/13/2021 12:15:00 AM 22.34 72.212 0.119 7.3 16.49 8.42
7/13/2021 12:30:00 AM 22.35 72.23 0.119 7.29 65.25 8.42
7/13/2021 12:45:00 AM 22.34 72.212 0.119 7.29 26.18 8.42
7/13/2021 1:00:00 AM 22.34 72.212 0.119 7.31 30.03 8.44
7/13/2021 1:15:00 AM 22.3 72.14 0.119 7.29 20.03 8.43
7/13/2021 1:30:00 AM 22.25 72.05 0.119 7.28 24.66 8.44
7/13/2021 1:45:00 AM 22.19 71.942 0.118 7.27 29.22 8.43
7/13/2021 2:00:00 AM 22.12 71.816 0.117 7.27 28.54 8.45
7/13/2021 2:15:00 AM 22.05 71.69 0.117 7.27 27.33 8.44
7/13/2021 2:30:00 AM 21.98 71.564 0.118 7.28 22.45 8.49
7/13/2021 2:45:00 AM 21.95 71.51 0.12 7.29 19.96 8.49
7/13/2021 3:00:00 AM 21.9 71.42 0.121 7.28 17.24 8.51
7/13/2021 3:15:00 AM 21.9 71.42 0.122 7.3 16.39 8.52
7/13/2021 3:30:00 AM 21.89 71.402 0.123 7.29 18.73 8.5
7/13/2021 3:45:00 AM 21.94 71.492 0.123 7.31 17 8.52
7/13/2021 4:00:00 AM 21.99 71.582 0.123 7.3 18.95 8.52
7/13/2021 4:15:00 AM 22.04 71.672 0.123 7.28 19.84 8.5
7/13/2021 4:30:00 AM 22.12 71.816 0.122 7.28 20.59 8.49
7/13/2021 4:45:00 AM 22.18 71.924 0.122 7.28 21.02 8.49
7/13/2021 5:00:00 AM 22.27 72.086 0.122 7.3 24.15 8.49
7/13/2021 5:15:00 AM 22.32 72.176 0.122 7.3 29.68 8.48
7/13/2021 5:30:00 AM 22.32 72.176 0.121 7.28 26.61 8.47
7/13/2021 5:45:00 AM 22.36 72.248 0.122 7.3 24.33 8.48
7/13/2021 6:00:00 AM 22.36 72.248 0.122 7.31 12.03 8.47
7/13/2021 6:15:00 AM 22.34 72.212 0.121 7.32 20.19 8.49
7/13/2021 6:30:00 AM 22.33 72.194 0.121 7.31 13.15 8.51
7/13/2021 6:45:00 AM 22.35 72.23 0.12 7.31 22.39 8.51
7/13/2021 7:00:00 AM 22.36 72.248 0.12 7.31 21.69 8.52
7/13/2021 7:15:00 AM 22.43 72.374 0.119 7.32 24.23 8.51
7/13/2021 7:30:00 AM 22.47 72.446 0.119 7.32 29.95 8.51
7/13/2021 7:45:00 AM 22.51 72.518 0.119 7.32 15.75 8.51
7/13/2021 8:00:00 AM 22.53 72.554 0.119 7.3 21.48 8.5
7/13/2021 8:15:00 AM 22.6 72.68 0.118 7.32 23.37 8.5
7/13/2021 8:30:00 AM 22.59 72.662 0.118 7.29 21.55 8.47
7/13/2021 8:45:00 AM 22.72 72.896 0.118 7.32 42.02 8.5
7/13/2021 9:00:00 AM 22.76 72.968 0.118 7.32 21.76 8.48
7/13/2021 9:15:00 AM 22.79 73.022 0.118 7.32 27.92 8.49
7/13/2021 9:30:00 AM 22.86 73.148 0.119 7.37 26.13 8.49
7/13/2021 9:45:00 AM 22.86 73.148 0.119 7.36 13.24 8.5
7/13/2021 10:00:00 AM 22.98 73.364 0.119 7.41 20.29 8.52
7/13/2021 10:15:00 AM 23.04 73.472 0.118 7.4 46.19 8.52
7/13/2021 10:30:00 AM 23.15 73.67 0.118 7.42 22.05 8.5
7/13/2021 10:45:00 AM 23.21 73.778 0.118 7.39 21.3 8.5
7/13/2021 11:00:00 AM 23.3 73.94 0.118 7.41 22.68 8.49
7/13/2021 11:15:00 AM 23.42 74.156 0.118 7.41 22.46 8.47
7/13/2021 11:30:00 AM 23.52 74.336 0.118 7.43 26.2 8.46
7/13/2021 11:45:00 AM 23.7 74.66 0.117 7.44 22.03 8.45
7/13/2021 12:00:00 PM 23.83 74.894 0.117 7.45 33.63 8.44
7/13/2021 12:15:00 PM 23.94 75.092 0.117 7.45 25.1 8.42
7/13/2021 12:30:00 PM 23.97 75.146 0.117 7.42 21.46 8.39
7/13/2021 12:45:00 PM 24.07 75.326 0.117 7.42 26.49 8.38
7/13/2021 1:00:00 PM 24.17 75.506 0.117 7.42 23.06 8.33
7/13/2021 1:15:00 PM 24.12 75.416 0.117 7.38 21.99 8.3
7/13/2021 1:30:00 PM 24.1 75.38 0.117 7.39 21.44 8.33
7/13/2021 1:45:00 PM 24.07 75.326 0.117 7.39 21.13 8.33
7/13/2021 2:00:00 PM 24.1 75.38 0.117 7.37 26.96 8.35
7/13/2021 2:15:00 PM 24 75.2 0.117 7.34 22.13 8.32
7/13/2021 2:30:00 PM 24.08 75.344 0.116 7.38 20.26 8.34
7/13/2021 2:45:00 PM 24.12 75.416 0.116 7.38 20.24 8.32
7/13/2021 3:00:00 PM 24.21 75.578 0.116 7.38 21.76 8.32
7/13/2021 3:15:00 PM 24.29 75.722 0.116 7.37 20.34 8.3
7/13/2021 3:30:00 PM 24.34 75.812 0.116 7.38 19.47 8.28
7/13/2021 3:45:00 PM 24.42 75.956 0.116 7.4 19.37 8.3
7/13/2021 4:00:00 PM 24.5 76.1 0.116 7.39 26.53 8.26
7/13/2021 4:15:00 PM 24.65 76.37 0.115 7.39 19.43 8.26
7/13/2021 4:30:00 PM 24.8 76.64 0.115 7.4 19.99 8.23
7/13/2021 4:45:00 PM 24.81 76.658 0.115 7.38 19.68 8.2
7/13/2021 5:00:00 PM 24.78 76.604 0.115 7.37 20.42 8.22
7/13/2021 5:15:00 PM 24.76 76.568 0.115 7.39 24.94 8.23
7/13/2021 5:30:00 PM 24.77 76.586 0.116 7.39 60.3 8.23
7/13/2021 5:45:00 PM 24.74 76.532 0.116 7.38 17.49 8.22
7/13/2021 6:00:00 PM 24.7 76.46 0.116 7.41 17.52 8.22
7/13/2021 6:15:00 PM 24.58 76.244 0.116 7.38 17.92 8.2
7/13/2021 6:30:00 PM 24.48 76.064 0.116 7.36 15.94 8.19
7/13/2021 6:45:00 PM 24.38 75.884 0.116 7.34 16.66 8.21
7/13/2021 7:00:00 PM 24.3 75.74 0.116 7.33 17.37 8.2
7/13/2021 7:15:00 PM 24.3 75.74 0.116 7.34 16.48 8.2
7/13/2021 7:30:00 PM 24.33 75.794 0.115 7.33 99.3 8.18
7/13/2021 7:45:00 PM 24.37 75.866 0.115 7.33 17.11 8.16
7/13/2021 8:00:00 PM 24.41 75.938 0.115 7.31 17.45 8.16
7/13/2021 8:15:00 PM 24.44 75.992 0.116 7.32 17.65 8.12
7/13/2021 8:30:00 PM 24.43 75.974 0.116 7.31 16.79 8.13
7/13/2021 8:45:00 PM 24.44 75.992 0.116 7.31 16.44 8.15
7/13/2021 9:00:00 PM 24.46 76.028 0.116 7.32 17.32 8.14
7/13/2021 9:15:00 PM 24.49 76.082 0.116 7.33 17.23 8.15
7/13/2021 9:30:00 PM 24.52 76.136 0.116 7.31 16.46 8.14
7/13/2021 9:45:00 PM 24.56 76.208 0.115 7.29 17.24 8.12
7/13/2021 10:00:00 PM 24.69 76.442 0.115 7.31 16.68 8.13
7/13/2021 10:15:00 PM 24.65 76.37 0.115 7.3 16.1 8.14
7/13/2021 10:30:00 PM 24.6 76.28 0.115 7.3 17.4 8.13
7/13/2021 10:45:00 PM 24.57 76.226 0.114 7.33 15.95 8.13
7/13/2021 11:00:00 PM 24.49 76.082 0.114 7.32 17.37 8.16
7/13/2021 11:15:00 PM 24.38 75.884 0.114 7.34 16.14 8.16
7/13/2021 11:30:00 PM 24.26 75.668 0.114 7.34 16.15 8.19
7/13/2021 11:45:00 PM 24.12 75.416 0.114 7.34 16.56 8.2
7/14/2021 12:00:00 AM 23.96 75.128 0.114 7.31 17.2 8.22
7/14/2021 12:15:00 AM 23.88 74.984 0.114 7.33 16.14 8.24
7/14/2021 12:30:00 AM 23.82 74.876 0.115 7.33 17.09 8.24
7/14/2021 12:45:00 AM 23.75 74.75 0.115 7.3 16.11 8.27
7/14/2021 1:00:00 AM 23.83 74.894 0.114 7.32 17.18 8.24
7/14/2021 1:15:00 AM 23.88 74.984 0.114 7.33 17.16 8.25
7/14/2021 1:30:00 AM 23.91 75.038 0.114 7.31 17.24 8.25
7/14/2021 1:45:00 AM 23.94 75.092 0.114 7.32 15.5 8.24
7/14/2021 2:00:00 AM 23.94 75.092 0.114 7.32 19.46 8.22
7/14/2021 2:15:00 AM 23.98 75.164 0.115 7.35 19.76 8.25
7/14/2021 2:30:00 AM 23.91 75.038 0.115 7.32 15.1 8.24
7/14/2021 2:45:00 AM 23.91 75.038 0.116 7.34 14.93 8.25
7/14/2021 3:00:00 AM 23.84 74.912 0.116 7.33 15.37 8.22
7/14/2021 3:15:00 AM 23.8 74.84 0.116 7.34 14.81 8.27
7/14/2021 3:30:00 AM 23.76 74.768 0.116 7.33 14.27 8.27
7/14/2021 3:45:00 AM 23.7 74.66 0.116 7.34 14.2 8.28
7/14/2021 4:00:00 AM 23.63 74.534 0.116 7.34 14.02 8.3
7/14/2021 4:15:00 AM 23.5 74.3 0.117 7.34 13.96 8.31
7/14/2021 4:30:00 AM 23.39 74.102 0.117 7.34 13.24 8.34
7/14/2021 4:45:00 AM 23.28 73.904 0.117 7.34 13.04 8.35
7/14/2021 5:00:00 AM 23.24 73.832 0.116 7.33 21.67 8.35
7/14/2021 5:15:00 AM 23.23 73.814 0.116 7.34 18.62 8.36
7/14/2021 5:30:00 AM 23.22 73.796 0.116 7.34 17.6 8.37
7/14/2021 5:45:00 AM 23.14 73.652 0.116 7.3 17.31 8.34
7/14/2021 6:00:00 AM 23.22 73.796 0.115 7.34 17.42 8.37
7/14/2021 6:15:00 AM 23.19 73.742 0.115 7.34 14.62 8.37
7/14/2021 6:30:00 AM 23.18 73.724 0.115 7.34 15.25 8.38
7/14/2021 6:45:00 AM 23.08 73.544 0.116 7.29 14.08 8.37
7/14/2021 7:00:00 AM 23.14 73.652 0.115 7.32 13.98 8.38
7/14/2021 7:15:00 AM 23.05 73.49 0.115 7.3 13.85 8.39
7/14/2021 7:30:00 AM 23.13 73.634 0.115 7.34 16.22 8.4
7/14/2021 7:45:00 AM 23.15 73.67 0.115 7.36 15.19 8.42
7/14/2021 8:00:00 AM 23.14 73.652 0.115 7.36 15.39 8.4
7/14/2021 8:15:00 AM 23.11 73.598 0.116 7.33 15.5 8.41
7/14/2021 8:30:00 AM 23.19 73.742 0.116 7.38 16.49 8.44
7/14/2021 8:45:00 AM 23.17 73.706 0.116 7.37 15.21 8.44
7/14/2021 9:00:00 AM 23.18 73.724 0.116 7.35 15.84 8.44
7/14/2021 9:15:00 AM 23.17 73.706 0.116 7.36 17.84 8.42
7/14/2021 9:30:00 AM 23.21 73.778 0.116 7.36 17.02 8.42
7/14/2021 9:45:00 AM 23.3 73.94 0.116 7.37 15.47 8.44
7/14/2021 10:00:00 AM 23.36 74.048 0.115 7.41 15.17 8.43
7/14/2021 10:15:00 AM 23.38 74.084 0.115 7.41 15.63 8.44
7/14/2021 10:30:00 AM 23.39 74.102 0.115 7.42 15.36 8.42
7/14/2021 10:45:00 AM 23.44 74.192 0.115 7.42 15.25 8.42
7/14/2021 11:00:00 AM 23.53 74.354 0.115 7.42 15.28 8.43
7/14/2021 11:15:00 AM 23.58 74.444 0.115 7.41 15.63 8.4
7/14/2021 11:30:00 AM 23.76 74.768 0.115 7.46 16.87 8.4
7/14/2021 11:45:00 AM 23.83 74.894 0.115 7.45 14.95 8.41
7/14/2021 12:00:00 PM 23.91 75.038 0.115 7.45 15.28 8.39
7/14/2021 12:15:00 PM 23.95 75.11 0.115 7.47 14.95 8.36
7/14/2021 12:30:00 PM 23.99 75.182 0.115 7.45 15.01 8.35
7/14/2021 12:45:00 PM 24.18 75.524 0.114 7.47 15.41 8.36
7/14/2021 1:00:00 PM 24.26 75.668 0.114 7.46 16.23 8.36
7/14/2021 1:15:00 PM 24.29 75.722 0.114 7.47 17.29 8.35
7/14/2021 1:30:00 PM 24.39 75.902 0.114 7.48 16.48 8.33
7/14/2021 1:45:00 PM 24.46 76.028 0.114 7.43 15.91 8.3
7/14/2021 2:00:00 PM 24.58 76.244 0.114 7.44 18.04 8.25
7/14/2021 2:15:00 PM 24.72 76.496 0.114 7.44 17.13 8.27
7/14/2021 2:30:00 PM 24.77 76.586 0.114 7.42 18.11 8.24
7/14/2021 2:45:00 PM 24.8 76.64 0.114 7.39 15.57 8.21
7/14/2021 3:00:00 PM 24.88 76.784 0.114 7.4 16.86 8.16
7/14/2021 3:15:00 PM 24.95 76.91 0.114 7.41 17.5 8.16
7/14/2021 3:30:00 PM 25.08 77.144 0.114 7.43 17.35 8.19
7/14/2021 3:45:00 PM 25.22 77.396 0.114 7.43 16.32 8.17
7/14/2021 4:00:00 PM 25.34 77.612 0.114 7.44 17.11 8.15
7/14/2021 4:15:00 PM 25.38 77.684 0.114 7.41 17.36 8.09
7/14/2021 4:30:00 PM 25.44 77.792 0.114 7.42 17.37 8.08
7/14/2021 4:45:00 PM 25.3 77.54 0.115 7.35 16.51 8.03
7/14/2021 5:00:00 PM 25.37 77.666 0.114 7.43 17.83 8.07
7/14/2021 5:15:00 PM 25.36 77.648 0.114 7.43 17.21 8.08
7/14/2021 5:30:00 PM 25.34 77.612 0.114 7.44 17.19 8.07
7/14/2021 5:45:00 PM 25.33 77.594 0.114 7.43 19.89 8.07
7/14/2021 6:00:00 PM 25.3 77.54 0.114 7.42 18.5 8.08
7/14/2021 6:15:00 PM 25.34 77.612 0.114 7.44 16.32 8.11
7/14/2021 6:30:00 PM 25.36 77.648 0.115 7.43 15.66 8.1
7/14/2021 6:45:00 PM 25.43 77.774 0.115 7.46 16.87 8.09
7/14/2021 7:00:00 PM 25.4 77.72 0.115 7.45 16.9 8.07
7/14/2021 7:15:00 PM 25.37 77.666 0.116 7.44 16.26 8.06
7/14/2021 7:30:00 PM 25.31 77.558 0.116 7.44 16.38 8.06
7/14/2021 7:45:00 PM 25.22 77.396 0.116 7.42 14.18 8.03
7/14/2021 8:00:00 PM 25.16 77.288 0.116 7.42 16.36 8.06
7/14/2021 8:15:00 PM 25.11 77.198 0.116 7.42 13.84 8.05
7/14/2021 8:30:00 PM 25.07 77.126 0.116 7.42 14.34 8.05
7/14/2021 8:45:00 PM 25 77 0.116 7.4 14 8.05
7/14/2021 9:00:00 PM 24.96 76.92799 0.116 7.41 13.92 8.06
7/14/2021 9:15:00 PM 24.9 76.82 0.116 7.38 18.51 8.05
7/14/2021 9:30:00 PM 24.86 76.748 0.116 7.39 14.52 8.06
7/14/2021 9:45:00 PM 24.83 76.694 0.116 7.38 13.62 8.08
7/14/2021 10:00:00 PM 24.8 76.64 0.116 7.39 13.52 8.08
7/14/2021 10:15:00 PM 24.7 76.46 0.117 7.39 12.83 8.11
7/14/2021 10:30:00 PM 24.6 76.28 0.117 7.39 13.99 8.12
7/14/2021 10:45:00 PM 24.53 76.154 0.117 7.39 13.57 8.12
7/14/2021 11:00:00 PM 24.43 75.974 0.117 7.38 13.07 8.14
7/14/2021 11:15:00 PM 24.34 75.812 0.117 7.36 13.26 8.13
7/14/2021 11:30:00 PM 24.28 75.704 0.117 7.37 13.86 8.17
7/14/2021 11:45:00 PM 24.21 75.578 0.117 7.38 12.95 8.16
7/15/2021 12:00:00 AM 24.14 75.452 0.117 7.37 12.92 8.17
7/15/2021 12:15:00 AM 24.08 75.344 0.117 7.38 12.84 8.19
7/15/2021 12:30:00 AM 23.99 75.182 0.118 7.38 12.78 8.2
7/15/2021 12:45:00 AM 23.87 74.966 0.118 7.38 12.41 8.21
7/15/2021 1:00:00 AM 23.77 74.786 0.118 7.37 14 8.23
7/15/2021 1:15:00 AM 23.69 74.642 0.118 7.38 12.6 8.24
7/15/2021 1:30:00 AM 23.63 74.534 0.118 7.37 12.86 8.26
7/15/2021 1:45:00 AM 23.58 74.444 0.117 7.38 12.37 8.25
7/15/2021 2:00:00 AM 23.56 74.408 0.117 7.38 13.7 8.25
7/15/2021 2:15:00 AM 23.54 74.372 0.117 7.38 12.76 8.27
7/15/2021 2:30:00 AM 23.51 74.318 0.117 7.39 12.69 8.27
7/15/2021 2:45:00 AM 23.49 74.282 0.117 7.38 12.51 8.27
7/15/2021 3:00:00 AM 23.46 74.228 0.117 7.37 20.72 8.28
7/15/2021 3:15:00 AM 23.45 74.21 0.117 7.38 12.57 8.28
7/15/2021 3:30:00 AM 23.44 74.192 0.117 7.4 12.95 8.29
7/15/2021 3:45:00 AM 23.41 74.138 0.117 7.39 12.38 8.29
7/15/2021 4:00:00 AM 23.35 74.03 0.118 7.38 15.19 8.29
7/15/2021 4:15:00 AM 23.32 73.976 0.118 7.39 13.53 8.31
7/15/2021 4:30:00 AM 23.26 73.868 0.118 7.39 16.53 8.31
7/15/2021 4:45:00 AM 23.21 73.778 0.118 7.39 12.71 8.31
7/15/2021 5:00:00 AM 23.17 73.706 0.118 7.38 12.3 8.32
7/15/2021 5:15:00 AM 23.14 73.652 0.118 7.39 12.97 8.31
7/15/2021 5:30:00 AM 23.11 73.598 0.118 7.39 15.23 8.33
7/15/2021 5:45:00 AM 23.09 73.562 0.118 7.37 12.93 8.33
7/15/2021 6:00:00 AM 23.04 73.472 0.118 7.35 12.93 8.32
7/15/2021 6:15:00 AM 23.02 73.436 0.118 7.36 14.38 8.32
7/15/2021 6:30:00 AM 22.97 73.346 0.118 7.36 22.07 8.33
7/15/2021 6:45:00 AM 23 73.4 0.118 7.4 13.86 8.36
7/15/2021 7:00:00 AM 22.97 73.346 0.118 7.38 15.64 8.36
7/15/2021 7:15:00 AM 22.95 73.31 0.118 7.4 16.13 8.37
7/15/2021 7:30:00 AM 22.94 73.292 0.118 7.4 16.1 8.38
7/15/2021 7:45:00 AM 22.9 73.22 0.118 7.38 16.66 8.37
7/15/2021 8:00:00 AM 22.93 73.274 0.118 7.41 15.32 8.43
7/15/2021 8:15:00 AM 22.93 73.274 0.118 7.41 17.93 8.4
7/15/2021 8:30:00 AM 22.93 73.274 0.118 7.41 15.15 8.46
7/15/2021 8:45:00 AM 22.94 73.292 0.118 7.43 14.62 8.45
7/15/2021 9:00:00 AM 22.97 73.346 0.118 7.45 17.38 8.47
7/15/2021 9:15:00 AM 22.97 73.346 0.118 7.45 15.5 8.46
7/15/2021 9:30:00 AM 22.97 73.346 0.118 7.45 15.75 8.47
7/15/2021 9:45:00 AM 23.03 73.454 0.118 7.47 14.83 8.46
7/15/2021 10:00:00 AM 23.04 73.472 0.118 7.42 20.96 8.42
7/15/2021 10:15:00 AM 23.14 73.652 0.118 7.46 13.94 8.46
7/15/2021 10:30:00 AM 23.21 73.778 0.118 7.46 21.19 8.45
7/15/2021 10:45:00 AM 23.31 73.958 0.118 7.47 13.14 8.43
7/15/2021 11:00:00 AM 23.42 74.156 0.118 7.48 12.54 8.44
7/15/2021 11:15:00 AM 23.52 74.336 0.118 7.48 14.36 8.43
7/15/2021 11:30:00 AM 23.65 74.57 0.118 7.49 13.91 8.41
7/15/2021 11:45:00 AM 23.81 74.858 0.118 7.49 15.48 8.39
7/15/2021 12:00:00 PM 24 75.2 0.118 7.53 23.03 8.38
7/15/2021 12:15:00 PM 24.12 75.416 0.118 7.53 17.34 8.37
7/15/2021 12:30:00 PM 24.24 75.632 0.118 7.53 14.16 8.35
7/15/2021 12:45:00 PM 24.42 75.956 0.118 7.5 15.52 8.33
7/15/2021 1:00:00 PM 24.54 76.172 0.118 7.51 14.31 8.3
7/15/2021 1:15:00 PM 24.6 76.28 0.118 7.54 15.3 8.28
7/15/2021 1:30:00 PM 24.7 76.46 0.118 7.53 14.46 8.29
7/15/2021 1:45:00 PM 24.88 76.784 0.118 7.56 14.26 8.26
7/15/2021 2:00:00 PM 24.85 76.73 0.118 7.55 14.71 8.21
7/15/2021 2:15:00 PM 24.98 76.964 0.118 7.56 14.03 8.27
7/15/2021 2:30:00 PM 24.97 76.946 0.118 7.53 13.5 8.24
7/15/2021 2:45:00 PM 25.1 77.18 0.119 7.55 14.02 8.22
7/15/2021 3:00:00 PM 25.16 77.288 0.118 7.55 14.82 8.2
7/15/2021 3:15:00 PM 25.22 77.396 0.118 7.56 16.56 8.2
7/15/2021 3:30:00 PM 25.28 77.504 0.118 7.55 13.87 8.21
7/15/2021 3:45:00 PM 25.3 77.54 0.118 7.55 13.52 8.17
7/15/2021 4:00:00 PM 25.33 77.594 0.118 7.55 13.77 8.17
7/15/2021 4:15:00 PM 25.33 77.594 0.118 7.55 13.71 8.15
7/15/2021 4:30:00 PM 25.35 77.63 0.118 7.53 13.92 8.14
7/15/2021 4:45:00 PM 25.34 77.612 0.118 7.53 13.72 8.16
7/15/2021 5:00:00 PM 25.31 77.558 0.118 7.52 14.2 8.11
7/15/2021 5:15:00 PM 25.33 77.594 0.118 7.52 13.48 8.12
7/15/2021 5:30:00 PM 25.3 77.54 0.118 7.51 13.94 8.07
7/15/2021 5:45:00 PM 25.29 77.522 0.118 7.52 14.42 8.13
7/15/2021 6:00:00 PM 25.29 77.522 0.118 7.44 14 8.06
7/15/2021 6:15:00 PM 25.29 77.522 0.118 7.43 14.05 8.03
7/15/2021 6:30:00 PM 25.31 77.558 0.118 7.47 14.04 8.03
7/15/2021 6:45:00 PM 25.34 77.612 0.118 7.47 14.26 8
7/15/2021 7:00:00 PM 25.36 77.648 0.118 7.46 13.74 8
7/15/2021 7:15:00 PM 25.38 77.684 0.118 7.46 13.4 8.01
7/15/2021 7:30:00 PM 25.34 77.612 0.118 7.41 13.43 7.97
7/15/2021 7:45:00 PM 25.38 77.684 0.118 7.42 14.39 7.98
7/15/2021 8:00:00 PM 25.37 77.666 0.118 7.42 13.23 7.93
7/15/2021 8:15:00 PM 25.36 77.648 0.118 7.41 16.35 7.91
7/15/2021 8:30:00 PM 25.34 77.612 0.118 7.41 13.84 7.92
7/15/2021 8:45:00 PM 25.31 77.558 0.118 7.4 36.11 7.91
7/15/2021 9:00:00 PM 25.28 77.504 0.119 7.4 15.18 7.94
7/15/2021 9:15:00 PM 25.25 77.45 0.119 7.4 18.41 7.93
7/15/2021 9:30:00 PM 25.18 77.324 0.119 7.37 13.07 7.92
7/15/2021 9:45:00 PM 25.13 77.234 0.119 7.35 13.85 7.93
7/15/2021 10:00:00 PM 25.09 77.162 0.119 7.35 14.74 7.97
7/15/2021 10:15:00 PM 25.03 77.054 0.119 7.35 16.38 7.97
7/15/2021 10:30:00 PM 25 77 0.119 7.37 12.65 7.97
7/15/2021 10:45:00 PM 24.96 76.92799 0.12 7.36 14.73 7.98
7/15/2021 11:00:00 PM 24.89 76.802 0.12 7.36 12.85 7.94
7/15/2021 11:15:00 PM 24.82 76.676 0.12 7.34 13.64 7.97
7/15/2021 11:30:00 PM 24.78 76.604 0.12 7.34 13.03 7.99
7/15/2021 11:45:00 PM 24.71 76.478 0.12 7.35 12.58 8
7/16/2021 12:00:00 AM 24.65 76.37 0.12 7.37 13.16 8.02
7/16/2021 12:15:00 AM 24.53 76.154 0.12 7.34 12.48 8
7/16/2021 12:30:00 AM 24.46 76.028 0.12 7.33 12.7 8.01
7/16/2021 12:45:00 AM 24.39 75.902 0.12 7.37 12.98 8.03
7/16/2021 1:00:00 AM 24.27 75.686 0.121 7.33 14.94 8.04
7/16/2021 1:15:00 AM 24.23 75.614 0.121 7.34 13.14 8.08
7/16/2021 1:30:00 AM 24.14 75.452 0.121 7.35 12.46 8.08
7/16/2021 1:45:00 AM 24.07 75.326 0.121 7.35 12.81 8.1
7/16/2021 2:00:00 AM 24 75.2 0.121 7.35 14.18 8.1
7/16/2021 2:15:00 AM 23.94 75.092 0.121 7.35 12.56 8.14
7/16/2021 2:30:00 AM 23.88 74.984 0.121 7.36 16.67 8.14
7/16/2021 2:45:00 AM 23.83 74.894 0.121 7.36 13.19 8.14
7/16/2021 3:00:00 AM 23.78 74.804 0.122 7.36 12.72 8.13
7/16/2021 3:15:00 AM 23.69 74.642 0.122 7.34 12.57 8.14
7/16/2021 3:30:00 AM 23.66 74.588 0.122 7.37 12.51 8.16
7/16/2021 3:45:00 AM 23.61 74.498 0.122 7.33 12.44 8.19
7/16/2021 4:00:00 AM 23.54 74.372 0.122 7.34 12.22 8.17
7/16/2021 4:15:00 AM 23.5 74.3 0.122 7.34 13.2 8.21
7/16/2021 4:30:00 AM 23.44 74.192 0.122 7.35 13.13 8.16
7/16/2021 4:45:00 AM 23.37 74.066 0.122 7.33 12.1 8.2
7/16/2021 5:00:00 AM 23.36 74.048 0.122 7.35 13 8.21
7/16/2021 5:15:00 AM 23.3 73.94 0.122 7.35 17.73 8.18
7/16/2021 5:30:00 AM 23.24 73.832 0.122 7.35 14.33 8.24
7/16/2021 5:45:00 AM 23.19 73.742 0.122 7.34 15.16 8.23
7/16/2021 6:00:00 AM 23.17 73.706 0.122 7.35 12.85 8.26
7/16/2021 6:15:00 AM 23.11 73.598 0.122 7.34 13.02 8.26
7/16/2021 6:30:00 AM 23.08 73.544 0.122 7.35 12.88 8.28
7/16/2021 6:45:00 AM 23.06 73.508 0.122 7.34 13.1 8.3
7/16/2021 7:00:00 AM 22.98 73.364 0.122 7.32 12.17 8.27
7/16/2021 7:15:00 AM 22.98 73.364 0.122 7.34 13.58 8.29
7/16/2021 7:30:00 AM 22.99 73.382 0.122 7.36 12.2 8.34
7/16/2021 7:45:00 AM 22.98 73.364 0.123 7.36 13.16 8.32
7/16/2021 8:00:00 AM 23.02 73.436 0.123 7.37 12.07 8.34
7/16/2021 8:15:00 AM 23.02 73.436 0.123 7.39 11.96 8.36
7/16/2021 8:30:00 AM 23.07 73.526 0.123 7.4 13.05 8.38
7/16/2021 8:45:00 AM 23.09 73.562 0.123 7.37 13.62 8.35
7/16/2021 9:00:00 AM 23.12 73.616 0.123 7.39 11.73 8.35
7/16/2021 9:15:00 AM 23.2 73.76 0.123 7.39 13.49 8.36
7/16/2021 9:30:00 AM 23.28 73.904 0.123 7.43 14.13 8.37
7/16/2021 9:45:00 AM 23.38 74.084 0.123 7.45 12.17 8.37
7/16/2021 10:00:00 AM 23.44 74.192 0.123 7.46 12.71 8.35
7/16/2021 10:15:00 AM 23.48 74.264 0.123 7.45 11.32 8.36
7/16/2021 10:30:00 AM 23.63 74.534 0.123 7.49 11.69 8.36